<?xml version="1.0" encoding="UTF-8" standalone="no" ?>
<gpx xmlns="http://www.topografix.com/GPX/1/1" xmlns:xsi="http://www.w3.org/2001/XMLSchema-instance" xsi:schemaLocation="http://www.topografix.com/GPX/1/1 http://www.topografix.com/GPX/1/1/gpx.xsd" version="1.1" creator="VisuGPX - https://www.visugpx.com">
  <metadata>
    <name>Perigneux( Biaud) - La Chapelle en Lafaye via Montfranchal 28km</name>
    <desc><![CDATA[Fait le 27 Mai 2023 - Départ d'un lieu privé - ]]></desc>
  </metadata>
  <trk>
    <name><![CDATA[Piste_2023-05-27 172148]]></name>
    <extensions>
      <line xmlns="http://www.topografix.com/GPX/gpx_style/0/2">
        <color>0000FF</color>
        <width>4</width>
      </line>
    </extensions>
    <trkseg>
      <trkpt lat="45.44578" lon="4.1308">
        <ele>632.68</ele>
        <time>2023-05-27T08:06:35Z</time>
      </trkpt>
      <trkpt lat="45.44574" lon="4.13076">
        <ele>630.28</ele>
        <time>2023-05-27T08:07:08Z</time>
      </trkpt>
      <trkpt lat="45.44576" lon="4.13075">
        <ele>626.92</ele>
        <time>2023-05-27T08:07:42Z</time>
      </trkpt>
      <trkpt lat="45.44575" lon="4.13083">
        <ele>632.68</ele>
        <time>2023-05-27T08:08:11Z</time>
      </trkpt>
      <trkpt lat="45.44572" lon="4.13085">
        <ele>632.68</ele>
        <time>2023-05-27T08:08:13Z</time>
      </trkpt>
      <trkpt lat="45.44561" lon="4.131">
        <ele>633.65</ele>
        <time>2023-05-27T08:08:26Z</time>
      </trkpt>
      <trkpt lat="45.44575" lon="4.13113">
        <ele>635.09</ele>
        <time>2023-05-27T08:08:43Z</time>
      </trkpt>
      <trkpt lat="45.44577" lon="4.13128">
        <ele>634.61</ele>
        <time>2023-05-27T08:08:56Z</time>
      </trkpt>
      <trkpt lat="45.44575" lon="4.13129">
        <ele>634.13</ele>
        <time>2023-05-27T08:08:58Z</time>
      </trkpt>
      <trkpt lat="45.44553" lon="4.13123">
        <ele>630.76</ele>
        <time>2023-05-27T08:09:16Z</time>
      </trkpt>
      <trkpt lat="45.44533" lon="4.13104">
        <ele>627.88</ele>
        <time>2023-05-27T08:09:33Z</time>
      </trkpt>
      <trkpt lat="45.44528" lon="4.13098">
        <ele>628.36</ele>
        <time>2023-05-27T08:09:48Z</time>
      </trkpt>
      <trkpt lat="45.44529" lon="4.13097">
        <ele>626.44</ele>
        <time>2023-05-27T08:10:08Z</time>
      </trkpt>
      <trkpt lat="45.44528" lon="4.13095">
        <ele>625.47</ele>
        <time>2023-05-27T08:10:35Z</time>
      </trkpt>
      <trkpt lat="45.44528" lon="4.13094">
        <ele>626.44</ele>
        <time>2023-05-27T08:11:08Z</time>
      </trkpt>
      <trkpt lat="45.44527" lon="4.13096">
        <ele>629.8</ele>
        <time>2023-05-27T08:11:38Z</time>
      </trkpt>
      <trkpt lat="45.44528" lon="4.13097">
        <ele>630.76</ele>
        <time>2023-05-27T08:12:08Z</time>
      </trkpt>
      <trkpt lat="45.44528" lon="4.13096">
        <ele>628.36</ele>
        <time>2023-05-27T08:12:36Z</time>
      </trkpt>
      <trkpt lat="45.44527" lon="4.13095">
        <ele>626.92</ele>
        <time>2023-05-27T08:13:05Z</time>
      </trkpt>
      <trkpt lat="45.44528" lon="4.13096">
        <ele>629.32</ele>
        <time>2023-05-27T08:13:36Z</time>
      </trkpt>
      <trkpt lat="45.44517" lon="4.13082">
        <ele>626.44</ele>
        <time>2023-05-27T08:13:58Z</time>
      </trkpt>
      <trkpt lat="45.44494" lon="4.13063">
        <ele>625.96</ele>
        <time>2023-05-27T08:14:17Z</time>
      </trkpt>
      <trkpt lat="45.44469" lon="4.1305">
        <ele>626.92</ele>
        <time>2023-05-27T08:14:35Z</time>
      </trkpt>
      <trkpt lat="45.44444" lon="4.13053">
        <ele>625.47</ele>
        <time>2023-05-27T08:14:53Z</time>
      </trkpt>
      <trkpt lat="45.44416" lon="4.13065">
        <ele>624.99</ele>
        <time>2023-05-27T08:15:13Z</time>
      </trkpt>
      <trkpt lat="45.44399" lon="4.13059">
        <ele>624.99</ele>
        <time>2023-05-27T08:15:27Z</time>
      </trkpt>
      <trkpt lat="45.44384" lon="4.13014">
        <ele>625.96</ele>
        <time>2023-05-27T08:15:47Z</time>
      </trkpt>
      <trkpt lat="45.44364" lon="4.12992">
        <ele>629.32</ele>
        <time>2023-05-27T08:16:06Z</time>
      </trkpt>
      <trkpt lat="45.44334" lon="4.13006">
        <ele>628.84</ele>
        <time>2023-05-27T08:16:21Z</time>
      </trkpt>
      <trkpt lat="45.44309" lon="4.13017">
        <ele>627.4</ele>
        <time>2023-05-27T08:16:37Z</time>
      </trkpt>
      <trkpt lat="45.44281" lon="4.13031">
        <ele>626.92</ele>
        <time>2023-05-27T08:16:56Z</time>
      </trkpt>
      <trkpt lat="45.44253" lon="4.13037">
        <ele>627.88</ele>
        <time>2023-05-27T08:17:13Z</time>
      </trkpt>
      <trkpt lat="45.44224" lon="4.13026">
        <ele>628.84</ele>
        <time>2023-05-27T08:17:33Z</time>
      </trkpt>
      <trkpt lat="45.44194" lon="4.13011">
        <ele>629.8</ele>
        <time>2023-05-27T08:17:53Z</time>
      </trkpt>
      <trkpt lat="45.44168" lon="4.13">
        <ele>630.28</ele>
        <time>2023-05-27T08:18:11Z</time>
      </trkpt>
      <trkpt lat="45.44136" lon="4.1299">
        <ele>630.76</ele>
        <time>2023-05-27T08:18:31Z</time>
      </trkpt>
      <trkpt lat="45.44106" lon="4.12981">
        <ele>629.32</ele>
        <time>2023-05-27T08:18:51Z</time>
      </trkpt>
      <trkpt lat="45.44078" lon="4.12977">
        <ele>630.76</ele>
        <time>2023-05-27T08:19:11Z</time>
      </trkpt>
      <trkpt lat="45.44049" lon="4.12977">
        <ele>629.8</ele>
        <time>2023-05-27T08:19:30Z</time>
      </trkpt>
      <trkpt lat="45.44026" lon="4.12973">
        <ele>629.8</ele>
        <time>2023-05-27T08:19:46Z</time>
      </trkpt>
      <trkpt lat="45.44" lon="4.12975">
        <ele>627.88</ele>
        <time>2023-05-27T08:20:02Z</time>
      </trkpt>
      <trkpt lat="45.43966" lon="4.12985">
        <ele>623.55</ele>
        <time>2023-05-27T08:20:23Z</time>
      </trkpt>
      <trkpt lat="45.43946" lon="4.12998">
        <ele>621.63</ele>
        <time>2023-05-27T08:20:40Z</time>
      </trkpt>
      <trkpt lat="45.43934" lon="4.13007">
        <ele>623.07</ele>
        <time>2023-05-27T08:20:50Z</time>
      </trkpt>
      <trkpt lat="45.43933" lon="4.13007">
        <ele>623.07</ele>
        <time>2023-05-27T08:20:51Z</time>
      </trkpt>
      <trkpt lat="45.4391" lon="4.13024">
        <ele>622.59</ele>
        <time>2023-05-27T08:21:08Z</time>
      </trkpt>
      <trkpt lat="45.43887" lon="4.13037">
        <ele>621.15</ele>
        <time>2023-05-27T08:21:24Z</time>
      </trkpt>
      <trkpt lat="45.43857" lon="4.13052">
        <ele>618.26</ele>
        <time>2023-05-27T08:21:45Z</time>
      </trkpt>
      <trkpt lat="45.43825" lon="4.13061">
        <ele>614.42</ele>
        <time>2023-05-27T08:22:06Z</time>
      </trkpt>
      <trkpt lat="45.43797" lon="4.13074">
        <ele>611.06</ele>
        <time>2023-05-27T08:22:26Z</time>
      </trkpt>
      <trkpt lat="45.43774" lon="4.13089">
        <ele>610.09</ele>
        <time>2023-05-27T08:22:43Z</time>
      </trkpt>
      <trkpt lat="45.43748" lon="4.13106">
        <ele>609.61</ele>
        <time>2023-05-27T08:23:02Z</time>
      </trkpt>
      <trkpt lat="45.43728" lon="4.13122">
        <ele>607.69</ele>
        <time>2023-05-27T08:23:18Z</time>
      </trkpt>
      <trkpt lat="45.43705" lon="4.1313">
        <ele>605.77</ele>
        <time>2023-05-27T08:23:33Z</time>
      </trkpt>
      <trkpt lat="45.43682" lon="4.13145">
        <ele>604.81</ele>
        <time>2023-05-27T08:23:49Z</time>
      </trkpt>
      <trkpt lat="45.43656" lon="4.13174">
        <ele>603.36</ele>
        <time>2023-05-27T08:24:10Z</time>
      </trkpt>
      <trkpt lat="45.43632" lon="4.13197">
        <ele>603.36</ele>
        <time>2023-05-27T08:24:29Z</time>
      </trkpt>
      <trkpt lat="45.43602" lon="4.1322">
        <ele>600.96</ele>
        <time>2023-05-27T08:24:50Z</time>
      </trkpt>
      <trkpt lat="45.43575" lon="4.13239">
        <ele>599.04</ele>
        <time>2023-05-27T08:25:08Z</time>
      </trkpt>
      <trkpt lat="45.43553" lon="4.13261">
        <ele>597.6</ele>
        <time>2023-05-27T08:25:25Z</time>
      </trkpt>
      <trkpt lat="45.43527" lon="4.13296">
        <ele>596.64</ele>
        <time>2023-05-27T08:25:48Z</time>
      </trkpt>
      <trkpt lat="45.43509" lon="4.13325">
        <ele>594.71</ele>
        <time>2023-05-27T08:26:06Z</time>
      </trkpt>
      <trkpt lat="45.43492" lon="4.13347">
        <ele>593.27</ele>
        <time>2023-05-27T08:26:23Z</time>
      </trkpt>
      <trkpt lat="45.43469" lon="4.13376">
        <ele>589.91</ele>
        <time>2023-05-27T08:26:42Z</time>
      </trkpt>
      <trkpt lat="45.43442" lon="4.13397">
        <ele>584.14</ele>
        <time>2023-05-27T08:27:03Z</time>
      </trkpt>
      <trkpt lat="45.43421" lon="4.13416">
        <ele>581.73</ele>
        <time>2023-05-27T08:27:21Z</time>
      </trkpt>
      <trkpt lat="45.4342" lon="4.13417">
        <ele>581.25</ele>
        <time>2023-05-27T08:27:22Z</time>
      </trkpt>
      <trkpt lat="45.43418" lon="4.13418">
        <ele>581.25</ele>
        <time>2023-05-27T08:27:23Z</time>
      </trkpt>
      <trkpt lat="45.43406" lon="4.1342">
        <ele>579.33</ele>
        <time>2023-05-27T08:27:33Z</time>
      </trkpt>
      <trkpt lat="45.43394" lon="4.13418">
        <ele>575.97</ele>
        <time>2023-05-27T08:27:47Z</time>
      </trkpt>
      <trkpt lat="45.43378" lon="4.13411">
        <ele>575.49</ele>
        <time>2023-05-27T08:28:05Z</time>
      </trkpt>
      <trkpt lat="45.43356" lon="4.13384">
        <ele>576.93</ele>
        <time>2023-05-27T08:28:20Z</time>
      </trkpt>
      <trkpt lat="45.4334" lon="4.13356">
        <ele>577.41</ele>
        <time>2023-05-27T08:28:34Z</time>
      </trkpt>
      <trkpt lat="45.43332" lon="4.13315">
        <ele>577.89</ele>
        <time>2023-05-27T08:28:48Z</time>
      </trkpt>
      <trkpt lat="45.43328" lon="4.13277">
        <ele>580.29</ele>
        <time>2023-05-27T08:29:04Z</time>
      </trkpt>
      <trkpt lat="45.43313" lon="4.13249">
        <ele>581.73</ele>
        <time>2023-05-27T08:29:20Z</time>
      </trkpt>
      <trkpt lat="45.4329" lon="4.13214">
        <ele>588.46</ele>
        <time>2023-05-27T08:29:41Z</time>
      </trkpt>
      <trkpt lat="45.43269" lon="4.13183">
        <ele>594.71</ele>
        <time>2023-05-27T08:29:59Z</time>
      </trkpt>
      <trkpt lat="45.4325" lon="4.13154">
        <ele>601.44</ele>
        <time>2023-05-27T08:30:17Z</time>
      </trkpt>
      <trkpt lat="45.43224" lon="4.13127">
        <ele>605.77</ele>
        <time>2023-05-27T08:30:40Z</time>
      </trkpt>
      <trkpt lat="45.4319" lon="4.13104">
        <ele>610.09</ele>
        <time>2023-05-27T08:31:05Z</time>
      </trkpt>
      <trkpt lat="45.43158" lon="4.13102">
        <ele>614.42</ele>
        <time>2023-05-27T08:31:29Z</time>
      </trkpt>
      <trkpt lat="45.43123" lon="4.13084">
        <ele>619.71</ele>
        <time>2023-05-27T08:31:56Z</time>
      </trkpt>
      <trkpt lat="45.43103" lon="4.13062">
        <ele>621.15</ele>
        <time>2023-05-27T08:32:15Z</time>
      </trkpt>
      <trkpt lat="45.43088" lon="4.13033">
        <ele>617.3</ele>
        <time>2023-05-27T08:32:32Z</time>
      </trkpt>
      <trkpt lat="45.43065" lon="4.13025">
        <ele>616.34</ele>
        <time>2023-05-27T08:32:50Z</time>
      </trkpt>
      <trkpt lat="45.43042" lon="4.13024">
        <ele>615.86</ele>
        <time>2023-05-27T08:33:06Z</time>
      </trkpt>
      <trkpt lat="45.43014" lon="4.13011">
        <ele>613.94</ele>
        <time>2023-05-27T08:33:27Z</time>
      </trkpt>
      <trkpt lat="45.4299" lon="4.1299">
        <ele>612.98</ele>
        <time>2023-05-27T08:33:45Z</time>
      </trkpt>
      <trkpt lat="45.42973" lon="4.12987">
        <ele>615.86</ele>
        <time>2023-05-27T08:33:59Z</time>
      </trkpt>
      <trkpt lat="45.42951" lon="4.1301">
        <ele>617.78</ele>
        <time>2023-05-27T08:34:17Z</time>
      </trkpt>
      <trkpt lat="45.42932" lon="4.13031">
        <ele>621.63</ele>
        <time>2023-05-27T08:34:34Z</time>
      </trkpt>
      <trkpt lat="45.42913" lon="4.13052">
        <ele>624.03</ele>
        <time>2023-05-27T08:34:52Z</time>
      </trkpt>
      <trkpt lat="45.4289" lon="4.13036">
        <ele>627.4</ele>
        <time>2023-05-27T08:35:09Z</time>
      </trkpt>
      <trkpt lat="45.4287" lon="4.13019">
        <ele>631.72</ele>
        <time>2023-05-27T08:35:26Z</time>
      </trkpt>
      <trkpt lat="45.42847" lon="4.13009">
        <ele>635.09</ele>
        <time>2023-05-27T08:35:41Z</time>
      </trkpt>
      <trkpt lat="45.42815" lon="4.13">
        <ele>637.49</ele>
        <time>2023-05-27T08:36:00Z</time>
      </trkpt>
      <trkpt lat="45.42785" lon="4.12996">
        <ele>641.34</ele>
        <time>2023-05-27T08:36:20Z</time>
      </trkpt>
      <trkpt lat="45.42764" lon="4.12983">
        <ele>644.7</ele>
        <time>2023-05-27T08:36:37Z</time>
      </trkpt>
      <trkpt lat="45.42747" lon="4.12972">
        <ele>645.18</ele>
        <time>2023-05-27T08:36:52Z</time>
      </trkpt>
      <trkpt lat="45.42723" lon="4.12954">
        <ele>648.07</ele>
        <time>2023-05-27T08:37:08Z</time>
      </trkpt>
      <trkpt lat="45.42706" lon="4.12949">
        <ele>650.47</ele>
        <time>2023-05-27T08:37:25Z</time>
      </trkpt>
      <trkpt lat="45.42683" lon="4.12938">
        <ele>651.91</ele>
        <time>2023-05-27T08:37:44Z</time>
      </trkpt>
      <trkpt lat="45.42677" lon="4.12941">
        <ele>653.35</ele>
        <time>2023-05-27T08:37:48Z</time>
      </trkpt>
      <trkpt lat="45.42654" lon="4.12956">
        <ele>655.28</ele>
        <time>2023-05-27T08:38:01Z</time>
      </trkpt>
      <trkpt lat="45.42626" lon="4.12972">
        <ele>659.6</ele>
        <time>2023-05-27T08:38:19Z</time>
      </trkpt>
      <trkpt lat="45.426" lon="4.12989">
        <ele>660.56</ele>
        <time>2023-05-27T08:38:35Z</time>
      </trkpt>
      <trkpt lat="45.42578" lon="4.13004">
        <ele>661.04</ele>
        <time>2023-05-27T08:38:52Z</time>
      </trkpt>
      <trkpt lat="45.42554" lon="4.13022">
        <ele>662.49</ele>
        <time>2023-05-27T08:39:10Z</time>
      </trkpt>
      <trkpt lat="45.42532" lon="4.1304">
        <ele>662.49</ele>
        <time>2023-05-27T08:39:27Z</time>
      </trkpt>
      <trkpt lat="45.42514" lon="4.1306">
        <ele>664.89</ele>
        <time>2023-05-27T08:39:44Z</time>
      </trkpt>
      <trkpt lat="45.42507" lon="4.13085">
        <ele>669.22</ele>
        <time>2023-05-27T08:40:00Z</time>
      </trkpt>
      <trkpt lat="45.42501" lon="4.13107">
        <ele>671.14</ele>
        <time>2023-05-27T08:40:11Z</time>
      </trkpt>
      <trkpt lat="45.42501" lon="4.1311">
        <ele>671.62</ele>
        <time>2023-05-27T08:40:12Z</time>
      </trkpt>
      <trkpt lat="45.42502" lon="4.13113">
        <ele>672.1</ele>
        <time>2023-05-27T08:40:13Z</time>
      </trkpt>
      <trkpt lat="45.42502" lon="4.13115">
        <ele>672.1</ele>
        <time>2023-05-27T08:40:14Z</time>
      </trkpt>
      <trkpt lat="45.42502" lon="4.13117">
        <ele>672.58</ele>
        <time>2023-05-27T08:40:15Z</time>
      </trkpt>
      <trkpt lat="45.42502" lon="4.13119">
        <ele>672.58</ele>
        <time>2023-05-27T08:40:16Z</time>
      </trkpt>
      <trkpt lat="45.42502" lon="4.13121">
        <ele>672.58</ele>
        <time>2023-05-27T08:40:17Z</time>
      </trkpt>
      <trkpt lat="45.42502" lon="4.13123">
        <ele>672.58</ele>
        <time>2023-05-27T08:40:18Z</time>
      </trkpt>
      <trkpt lat="45.42493" lon="4.13158">
        <ele>672.1</ele>
        <time>2023-05-27T08:40:33Z</time>
      </trkpt>
      <trkpt lat="45.42476" lon="4.1319">
        <ele>671.14</ele>
        <time>2023-05-27T08:40:48Z</time>
      </trkpt>
      <trkpt lat="45.42458" lon="4.13219">
        <ele>669.7</ele>
        <time>2023-05-27T08:41:06Z</time>
      </trkpt>
      <trkpt lat="45.42436" lon="4.13239">
        <ele>670.66</ele>
        <time>2023-05-27T08:41:22Z</time>
      </trkpt>
      <trkpt lat="45.42413" lon="4.13257">
        <ele>671.14</ele>
        <time>2023-05-27T08:41:39Z</time>
      </trkpt>
      <trkpt lat="45.4239" lon="4.13279">
        <ele>672.1</ele>
        <time>2023-05-27T08:41:58Z</time>
      </trkpt>
      <trkpt lat="45.42366" lon="4.13301">
        <ele>674.02</ele>
        <time>2023-05-27T08:42:17Z</time>
      </trkpt>
      <trkpt lat="45.42343" lon="4.13325">
        <ele>674.5</ele>
        <time>2023-05-27T08:42:36Z</time>
      </trkpt>
      <trkpt lat="45.42321" lon="4.1335">
        <ele>674.98</ele>
        <time>2023-05-27T08:42:54Z</time>
      </trkpt>
      <trkpt lat="45.42304" lon="4.13372">
        <ele>678.35</ele>
        <time>2023-05-27T08:43:10Z</time>
      </trkpt>
      <trkpt lat="45.42284" lon="4.13404">
        <ele>680.75</ele>
        <time>2023-05-27T08:43:29Z</time>
      </trkpt>
      <trkpt lat="45.42276" lon="4.13429">
        <ele>684.6</ele>
        <time>2023-05-27T08:43:44Z</time>
      </trkpt>
      <trkpt lat="45.42275" lon="4.13433">
        <ele>686.52</ele>
        <time>2023-05-27T08:44:02Z</time>
      </trkpt>
      <trkpt lat="45.42273" lon="4.13432">
        <ele>686.04</ele>
        <time>2023-05-27T08:44:05Z</time>
      </trkpt>
      <trkpt lat="45.42271" lon="4.13432">
        <ele>686.04</ele>
        <time>2023-05-27T08:44:06Z</time>
      </trkpt>
      <trkpt lat="45.42247" lon="4.13445">
        <ele>685.56</ele>
        <time>2023-05-27T08:44:23Z</time>
      </trkpt>
      <trkpt lat="45.42214" lon="4.13469">
        <ele>685.08</ele>
        <time>2023-05-27T08:44:37Z</time>
      </trkpt>
      <trkpt lat="45.42172" lon="4.13496">
        <ele>687</ele>
        <time>2023-05-27T08:44:50Z</time>
      </trkpt>
      <trkpt lat="45.42153" lon="4.13508">
        <ele>687.48</ele>
        <time>2023-05-27T08:44:55Z</time>
      </trkpt>
      <trkpt lat="45.42112" lon="4.13531">
        <ele>689.88</ele>
        <time>2023-05-27T08:45:08Z</time>
      </trkpt>
      <trkpt lat="45.42082" lon="4.13547">
        <ele>690.36</ele>
        <time>2023-05-27T08:45:17Z</time>
      </trkpt>
      <trkpt lat="45.42027" lon="4.13583">
        <ele>691.81</ele>
        <time>2023-05-27T08:45:31Z</time>
      </trkpt>
      <trkpt lat="45.41968" lon="4.1361">
        <ele>694.69</ele>
        <time>2023-05-27T08:45:46Z</time>
      </trkpt>
      <trkpt lat="45.41884" lon="4.1363">
        <ele>696.13</ele>
        <time>2023-05-27T08:46:02Z</time>
      </trkpt>
      <trkpt lat="45.4188" lon="4.13632">
        <ele>696.13</ele>
        <time>2023-05-27T08:46:03Z</time>
      </trkpt>
      <trkpt lat="45.41875" lon="4.13634">
        <ele>696.61</ele>
        <time>2023-05-27T08:46:04Z</time>
      </trkpt>
      <trkpt lat="45.4187" lon="4.13638">
        <ele>696.61</ele>
        <time>2023-05-27T08:46:05Z</time>
      </trkpt>
      <trkpt lat="45.41822" lon="4.13677">
        <ele>698.05</ele>
        <time>2023-05-27T08:46:15Z</time>
      </trkpt>
      <trkpt lat="45.41786" lon="4.1371">
        <ele>697.57</ele>
        <time>2023-05-27T08:46:28Z</time>
      </trkpt>
      <trkpt lat="45.41773" lon="4.13731">
        <ele>697.57</ele>
        <time>2023-05-27T08:46:43Z</time>
      </trkpt>
      <trkpt lat="45.41758" lon="4.13749">
        <ele>697.09</ele>
        <time>2023-05-27T08:46:56Z</time>
      </trkpt>
      <trkpt lat="45.41735" lon="4.13748">
        <ele>700.46</ele>
        <time>2023-05-27T08:47:11Z</time>
      </trkpt>
      <trkpt lat="45.41709" lon="4.13742">
        <ele>701.9</ele>
        <time>2023-05-27T08:47:31Z</time>
      </trkpt>
      <trkpt lat="45.41687" lon="4.13736">
        <ele>705.26</ele>
        <time>2023-05-27T08:47:46Z</time>
      </trkpt>
      <trkpt lat="45.41664" lon="4.1373">
        <ele>708.63</ele>
        <time>2023-05-27T08:48:01Z</time>
      </trkpt>
      <trkpt lat="45.41642" lon="4.13724">
        <ele>713.44</ele>
        <time>2023-05-27T08:48:18Z</time>
      </trkpt>
      <trkpt lat="45.41619" lon="4.13717">
        <ele>713.92</ele>
        <time>2023-05-27T08:48:32Z</time>
      </trkpt>
      <trkpt lat="45.41593" lon="4.13708">
        <ele>714.88</ele>
        <time>2023-05-27T08:48:50Z</time>
      </trkpt>
      <trkpt lat="45.41569" lon="4.13703">
        <ele>714.88</ele>
        <time>2023-05-27T08:49:07Z</time>
      </trkpt>
      <trkpt lat="45.41542" lon="4.13693">
        <ele>716.8</ele>
        <time>2023-05-27T08:49:25Z</time>
      </trkpt>
      <trkpt lat="45.41517" lon="4.13678">
        <ele>717.76</ele>
        <time>2023-05-27T08:49:44Z</time>
      </trkpt>
      <trkpt lat="45.41489" lon="4.13666">
        <ele>717.28</ele>
        <time>2023-05-27T08:50:02Z</time>
      </trkpt>
      <trkpt lat="45.41477" lon="4.13649">
        <ele>716.8</ele>
        <time>2023-05-27T08:50:13Z</time>
      </trkpt>
      <trkpt lat="45.41464" lon="4.13639">
        <ele>716.32</ele>
        <time>2023-05-27T08:50:25Z</time>
      </trkpt>
      <trkpt lat="45.4145" lon="4.13642">
        <ele>715.84</ele>
        <time>2023-05-27T08:50:37Z</time>
      </trkpt>
      <trkpt lat="45.41424" lon="4.13636">
        <ele>715.36</ele>
        <time>2023-05-27T08:50:53Z</time>
      </trkpt>
      <trkpt lat="45.41392" lon="4.1363">
        <ele>714.88</ele>
        <time>2023-05-27T08:51:12Z</time>
      </trkpt>
      <trkpt lat="45.41361" lon="4.13621">
        <ele>715.84</ele>
        <time>2023-05-27T08:51:33Z</time>
      </trkpt>
      <trkpt lat="45.41329" lon="4.1361">
        <ele>716.32</ele>
        <time>2023-05-27T08:51:53Z</time>
      </trkpt>
      <trkpt lat="45.41306" lon="4.13597">
        <ele>715.84</ele>
        <time>2023-05-27T08:52:11Z</time>
      </trkpt>
      <trkpt lat="45.4128" lon="4.13582">
        <ele>715.84</ele>
        <time>2023-05-27T08:52:28Z</time>
      </trkpt>
      <trkpt lat="45.41253" lon="4.13566">
        <ele>717.28</ele>
        <time>2023-05-27T08:52:46Z</time>
      </trkpt>
      <trkpt lat="45.41229" lon="4.13555">
        <ele>717.28</ele>
        <time>2023-05-27T08:53:03Z</time>
      </trkpt>
      <trkpt lat="45.41202" lon="4.13541">
        <ele>717.76</ele>
        <time>2023-05-27T08:53:20Z</time>
      </trkpt>
      <trkpt lat="45.41175" lon="4.13524">
        <ele>718.72</ele>
        <time>2023-05-27T08:53:40Z</time>
      </trkpt>
      <trkpt lat="45.41155" lon="4.13505">
        <ele>719.68</ele>
        <time>2023-05-27T08:53:57Z</time>
      </trkpt>
      <trkpt lat="45.4115" lon="4.13501">
        <ele>719.68</ele>
        <time>2023-05-27T08:54:26Z</time>
      </trkpt>
      <trkpt lat="45.41132" lon="4.13484">
        <ele>720.16</ele>
        <time>2023-05-27T08:54:42Z</time>
      </trkpt>
      <trkpt lat="45.41114" lon="4.13464">
        <ele>720.16</ele>
        <time>2023-05-27T08:54:58Z</time>
      </trkpt>
      <trkpt lat="45.41096" lon="4.13445">
        <ele>720.16</ele>
        <time>2023-05-27T08:55:14Z</time>
      </trkpt>
      <trkpt lat="45.41075" lon="4.13414">
        <ele>719.68</ele>
        <time>2023-05-27T08:55:32Z</time>
      </trkpt>
      <trkpt lat="45.41053" lon="4.13382">
        <ele>721.13</ele>
        <time>2023-05-27T08:55:50Z</time>
      </trkpt>
      <trkpt lat="45.41034" lon="4.13353">
        <ele>722.57</ele>
        <time>2023-05-27T08:56:05Z</time>
      </trkpt>
      <trkpt lat="45.41016" lon="4.13329">
        <ele>723.05</ele>
        <time>2023-05-27T08:56:19Z</time>
      </trkpt>
      <trkpt lat="45.41001" lon="4.13299">
        <ele>724.49</ele>
        <time>2023-05-27T08:56:37Z</time>
      </trkpt>
      <trkpt lat="45.40987" lon="4.13267">
        <ele>724.49</ele>
        <time>2023-05-27T08:56:55Z</time>
      </trkpt>
      <trkpt lat="45.40992" lon="4.13231">
        <ele>724.97</ele>
        <time>2023-05-27T08:57:09Z</time>
      </trkpt>
      <trkpt lat="45.40991" lon="4.13226">
        <ele>724.97</ele>
        <time>2023-05-27T08:57:12Z</time>
      </trkpt>
      <trkpt lat="45.4099" lon="4.13225">
        <ele>724.97</ele>
        <time>2023-05-27T08:57:13Z</time>
      </trkpt>
      <trkpt lat="45.40989" lon="4.13224">
        <ele>724.97</ele>
        <time>2023-05-27T08:57:14Z</time>
      </trkpt>
      <trkpt lat="45.40987" lon="4.13223">
        <ele>724.97</ele>
        <time>2023-05-27T08:57:15Z</time>
      </trkpt>
      <trkpt lat="45.40985" lon="4.13223">
        <ele>725.45</ele>
        <time>2023-05-27T08:57:16Z</time>
      </trkpt>
      <trkpt lat="45.40982" lon="4.13222">
        <ele>725.45</ele>
        <time>2023-05-27T08:57:17Z</time>
      </trkpt>
      <trkpt lat="45.40957" lon="4.13222">
        <ele>725.45</ele>
        <time>2023-05-27T08:57:31Z</time>
      </trkpt>
      <trkpt lat="45.40926" lon="4.13222">
        <ele>725.45</ele>
        <time>2023-05-27T08:57:47Z</time>
      </trkpt>
      <trkpt lat="45.40898" lon="4.1322">
        <ele>724.97</ele>
        <time>2023-05-27T08:58:04Z</time>
      </trkpt>
      <trkpt lat="45.40876" lon="4.13237">
        <ele>726.89</ele>
        <time>2023-05-27T08:58:22Z</time>
      </trkpt>
      <trkpt lat="45.40852" lon="4.13252">
        <ele>728.34</ele>
        <time>2023-05-27T08:58:41Z</time>
      </trkpt>
      <trkpt lat="45.4082" lon="4.13255">
        <ele>728.34</ele>
        <time>2023-05-27T08:59:01Z</time>
      </trkpt>
      <trkpt lat="45.40794" lon="4.13258">
        <ele>726.41</ele>
        <time>2023-05-27T08:59:19Z</time>
      </trkpt>
      <trkpt lat="45.40786" lon="4.13259">
        <ele>723.53</ele>
        <time>2023-05-27T08:59:36Z</time>
      </trkpt>
      <trkpt lat="45.40792" lon="4.13251">
        <ele>729.3</ele>
        <time>2023-05-27T09:00:08Z</time>
      </trkpt>
      <trkpt lat="45.4079" lon="4.13248">
        <ele>731.22</ele>
        <time>2023-05-27T09:00:43Z</time>
      </trkpt>
      <trkpt lat="45.40775" lon="4.13254">
        <ele>731.22</ele>
        <time>2023-05-27T09:01:00Z</time>
      </trkpt>
      <trkpt lat="45.40747" lon="4.13256">
        <ele>732.18</ele>
        <time>2023-05-27T09:01:18Z</time>
      </trkpt>
      <trkpt lat="45.4072" lon="4.13253">
        <ele>731.22</ele>
        <time>2023-05-27T09:01:37Z</time>
      </trkpt>
      <trkpt lat="45.40712" lon="4.13248">
        <ele>732.66</ele>
        <time>2023-05-27T09:01:46Z</time>
      </trkpt>
      <trkpt lat="45.40711" lon="4.13249">
        <ele>732.66</ele>
        <time>2023-05-27T09:01:47Z</time>
      </trkpt>
      <trkpt lat="45.4071" lon="4.13249">
        <ele>732.66</ele>
        <time>2023-05-27T09:01:48Z</time>
      </trkpt>
      <trkpt lat="45.40709" lon="4.1325">
        <ele>732.66</ele>
        <time>2023-05-27T09:01:49Z</time>
      </trkpt>
      <trkpt lat="45.40708" lon="4.13251">
        <ele>732.18</ele>
        <time>2023-05-27T09:01:50Z</time>
      </trkpt>
      <trkpt lat="45.40707" lon="4.13252">
        <ele>732.18</ele>
        <time>2023-05-27T09:01:51Z</time>
      </trkpt>
      <trkpt lat="45.4069" lon="4.13285">
        <ele>732.66</ele>
        <time>2023-05-27T09:02:12Z</time>
      </trkpt>
      <trkpt lat="45.40663" lon="4.13286">
        <ele>733.14</ele>
        <time>2023-05-27T09:02:29Z</time>
      </trkpt>
      <trkpt lat="45.40632" lon="4.13283">
        <ele>732.18</ele>
        <time>2023-05-27T09:02:44Z</time>
      </trkpt>
      <trkpt lat="45.40604" lon="4.13275">
        <ele>733.62</ele>
        <time>2023-05-27T09:03:02Z</time>
      </trkpt>
      <trkpt lat="45.40578" lon="4.13271">
        <ele>736.03</ele>
        <time>2023-05-27T09:03:20Z</time>
      </trkpt>
      <trkpt lat="45.4055" lon="4.13268">
        <ele>739.87</ele>
        <time>2023-05-27T09:03:38Z</time>
      </trkpt>
      <trkpt lat="45.40519" lon="4.13258">
        <ele>739.87</ele>
        <time>2023-05-27T09:03:58Z</time>
      </trkpt>
      <trkpt lat="45.40494" lon="4.13234">
        <ele>742.76</ele>
        <time>2023-05-27T09:04:16Z</time>
      </trkpt>
      <trkpt lat="45.40472" lon="4.13212">
        <ele>740.83</ele>
        <time>2023-05-27T09:04:33Z</time>
      </trkpt>
      <trkpt lat="45.40447" lon="4.13207">
        <ele>740.35</ele>
        <time>2023-05-27T09:04:51Z</time>
      </trkpt>
      <trkpt lat="45.40442" lon="4.13211">
        <ele>740.83</ele>
        <time>2023-05-27T09:04:55Z</time>
      </trkpt>
      <trkpt lat="45.4044" lon="4.13212">
        <ele>740.83</ele>
        <time>2023-05-27T09:04:56Z</time>
      </trkpt>
      <trkpt lat="45.40412" lon="4.13218">
        <ele>741.79</ele>
        <time>2023-05-27T09:05:15Z</time>
      </trkpt>
      <trkpt lat="45.40379" lon="4.13203">
        <ele>738.43</ele>
        <time>2023-05-27T09:05:36Z</time>
      </trkpt>
      <trkpt lat="45.4035" lon="4.13185">
        <ele>735.55</ele>
        <time>2023-05-27T09:05:55Z</time>
      </trkpt>
      <trkpt lat="45.40348" lon="4.13185">
        <ele>735.07</ele>
        <time>2023-05-27T09:05:56Z</time>
      </trkpt>
      <trkpt lat="45.40346" lon="4.13185">
        <ele>735.07</ele>
        <time>2023-05-27T09:05:57Z</time>
      </trkpt>
      <trkpt lat="45.40345" lon="4.13184">
        <ele>734.58</ele>
        <time>2023-05-27T09:05:58Z</time>
      </trkpt>
      <trkpt lat="45.40343" lon="4.13184">
        <ele>734.58</ele>
        <time>2023-05-27T09:05:59Z</time>
      </trkpt>
      <trkpt lat="45.40323" lon="4.1317">
        <ele>731.22</ele>
        <time>2023-05-27T09:06:13Z</time>
      </trkpt>
      <trkpt lat="45.40301" lon="4.13157">
        <ele>726.89</ele>
        <time>2023-05-27T09:06:29Z</time>
      </trkpt>
      <trkpt lat="45.40277" lon="4.13134">
        <ele>727.37</ele>
        <time>2023-05-27T09:06:49Z</time>
      </trkpt>
      <trkpt lat="45.40247" lon="4.13109">
        <ele>726.41</ele>
        <time>2023-05-27T09:07:12Z</time>
      </trkpt>
      <trkpt lat="45.40221" lon="4.13089">
        <ele>724.97</ele>
        <time>2023-05-27T09:07:32Z</time>
      </trkpt>
      <trkpt lat="45.40195" lon="4.1307">
        <ele>723.53</ele>
        <time>2023-05-27T09:07:51Z</time>
      </trkpt>
      <trkpt lat="45.40172" lon="4.13047">
        <ele>722.57</ele>
        <time>2023-05-27T09:08:07Z</time>
      </trkpt>
      <trkpt lat="45.40157" lon="4.13008">
        <ele>724.01</ele>
        <time>2023-05-27T09:08:28Z</time>
      </trkpt>
      <trkpt lat="45.40152" lon="4.12967">
        <ele>724.01</ele>
        <time>2023-05-27T09:08:45Z</time>
      </trkpt>
      <trkpt lat="45.40146" lon="4.12921">
        <ele>725.93</ele>
        <time>2023-05-27T09:09:04Z</time>
      </trkpt>
      <trkpt lat="45.40135" lon="4.12882">
        <ele>726.41</ele>
        <time>2023-05-27T09:09:22Z</time>
      </trkpt>
      <trkpt lat="45.40119" lon="4.12853">
        <ele>725.93</ele>
        <time>2023-05-27T09:09:38Z</time>
      </trkpt>
      <trkpt lat="45.40095" lon="4.12815">
        <ele>725.45</ele>
        <time>2023-05-27T09:09:59Z</time>
      </trkpt>
      <trkpt lat="45.40087" lon="4.12781">
        <ele>725.45</ele>
        <time>2023-05-27T09:10:14Z</time>
      </trkpt>
      <trkpt lat="45.40081" lon="4.12736">
        <ele>727.37</ele>
        <time>2023-05-27T09:10:36Z</time>
      </trkpt>
      <trkpt lat="45.4008" lon="4.12735">
        <ele>727.37</ele>
        <time>2023-05-27T09:10:39Z</time>
      </trkpt>
      <trkpt lat="45.4008" lon="4.12734">
        <ele>727.37</ele>
        <time>2023-05-27T09:10:40Z</time>
      </trkpt>
      <trkpt lat="45.40079" lon="4.12732">
        <ele>727.37</ele>
        <time>2023-05-27T09:10:41Z</time>
      </trkpt>
      <trkpt lat="45.40079" lon="4.1273">
        <ele>727.37</ele>
        <time>2023-05-27T09:10:42Z</time>
      </trkpt>
      <trkpt lat="45.40078" lon="4.12728">
        <ele>727.37</ele>
        <time>2023-05-27T09:10:43Z</time>
      </trkpt>
      <trkpt lat="45.40076" lon="4.12684">
        <ele>726.89</ele>
        <time>2023-05-27T09:11:02Z</time>
      </trkpt>
      <trkpt lat="45.40074" lon="4.12642">
        <ele>724.97</ele>
        <time>2023-05-27T09:11:20Z</time>
      </trkpt>
      <trkpt lat="45.40073" lon="4.12604">
        <ele>725.45</ele>
        <time>2023-05-27T09:11:39Z</time>
      </trkpt>
      <trkpt lat="45.40073" lon="4.12555">
        <ele>728.34</ele>
        <time>2023-05-27T09:12:03Z</time>
      </trkpt>
      <trkpt lat="45.40071" lon="4.12506">
        <ele>730.26</ele>
        <time>2023-05-27T09:12:26Z</time>
      </trkpt>
      <trkpt lat="45.40074" lon="4.12465">
        <ele>732.66</ele>
        <time>2023-05-27T09:12:45Z</time>
      </trkpt>
      <trkpt lat="45.40076" lon="4.12433">
        <ele>732.66</ele>
        <time>2023-05-27T09:13:02Z</time>
      </trkpt>
      <trkpt lat="45.40077" lon="4.12387">
        <ele>733.62</ele>
        <time>2023-05-27T09:13:24Z</time>
      </trkpt>
      <trkpt lat="45.40076" lon="4.12347">
        <ele>733.62</ele>
        <time>2023-05-27T09:13:40Z</time>
      </trkpt>
      <trkpt lat="45.40075" lon="4.12309">
        <ele>734.1</ele>
        <time>2023-05-27T09:13:57Z</time>
      </trkpt>
      <trkpt lat="45.40073" lon="4.12268">
        <ele>734.58</ele>
        <time>2023-05-27T09:14:16Z</time>
      </trkpt>
      <trkpt lat="45.40074" lon="4.1223">
        <ele>737.47</ele>
        <time>2023-05-27T09:14:34Z</time>
      </trkpt>
      <trkpt lat="45.40087" lon="4.12186">
        <ele>738.43</ele>
        <time>2023-05-27T09:14:58Z</time>
      </trkpt>
      <trkpt lat="45.40103" lon="4.12142">
        <ele>740.83</ele>
        <time>2023-05-27T09:15:21Z</time>
      </trkpt>
      <trkpt lat="45.40092" lon="4.12109">
        <ele>739.87</ele>
        <time>2023-05-27T09:15:39Z</time>
      </trkpt>
      <trkpt lat="45.4008" lon="4.12072">
        <ele>736.51</ele>
        <time>2023-05-27T09:16:00Z</time>
      </trkpt>
      <trkpt lat="45.40072" lon="4.12047">
        <ele>733.62</ele>
        <time>2023-05-27T09:16:15Z</time>
      </trkpt>
      <trkpt lat="45.4006" lon="4.12009">
        <ele>730.26</ele>
        <time>2023-05-27T09:16:35Z</time>
      </trkpt>
      <trkpt lat="45.40037" lon="4.11969">
        <ele>731.22</ele>
        <time>2023-05-27T09:16:58Z</time>
      </trkpt>
      <trkpt lat="45.40018" lon="4.11946">
        <ele>730.74</ele>
        <time>2023-05-27T09:17:15Z</time>
      </trkpt>
      <trkpt lat="45.39999" lon="4.11919">
        <ele>727.37</ele>
        <time>2023-05-27T09:17:32Z</time>
      </trkpt>
      <trkpt lat="45.39982" lon="4.11888">
        <ele>726.89</ele>
        <time>2023-05-27T09:17:51Z</time>
      </trkpt>
      <trkpt lat="45.39982" lon="4.1188">
        <ele>726.41</ele>
        <time>2023-05-27T09:17:55Z</time>
      </trkpt>
      <trkpt lat="45.39982" lon="4.11878">
        <ele>726.41</ele>
        <time>2023-05-27T09:17:56Z</time>
      </trkpt>
      <trkpt lat="45.39987" lon="4.11864">
        <ele>725.93</ele>
        <time>2023-05-27T09:18:02Z</time>
      </trkpt>
      <trkpt lat="45.39987" lon="4.1186">
        <ele>725.93</ele>
        <time>2023-05-27T09:18:03Z</time>
      </trkpt>
      <trkpt lat="45.39985" lon="4.11848">
        <ele>725.93</ele>
        <time>2023-05-27T09:18:10Z</time>
      </trkpt>
      <trkpt lat="45.39978" lon="4.11822">
        <ele>731.22</ele>
        <time>2023-05-27T09:18:22Z</time>
      </trkpt>
      <trkpt lat="45.39971" lon="4.11791">
        <ele>740.35</ele>
        <time>2023-05-27T09:18:40Z</time>
      </trkpt>
      <trkpt lat="45.39971" lon="4.11753">
        <ele>742.76</ele>
        <time>2023-05-27T09:18:56Z</time>
      </trkpt>
      <trkpt lat="45.39975" lon="4.11721">
        <ele>743.72</ele>
        <time>2023-05-27T09:19:12Z</time>
      </trkpt>
      <trkpt lat="45.39992" lon="4.11706">
        <ele>742.28</ele>
        <time>2023-05-27T09:19:27Z</time>
      </trkpt>
      <trkpt lat="45.39996" lon="4.11707">
        <ele>745.16</ele>
        <time>2023-05-27T09:19:44Z</time>
      </trkpt>
      <trkpt lat="45.39999" lon="4.11706">
        <ele>746.12</ele>
        <time>2023-05-27T09:20:01Z</time>
      </trkpt>
      <trkpt lat="45.40001" lon="4.11704">
        <ele>744.68</ele>
        <time>2023-05-27T09:20:15Z</time>
      </trkpt>
      <trkpt lat="45.40001" lon="4.11705">
        <ele>744.68</ele>
        <time>2023-05-27T09:20:37Z</time>
      </trkpt>
      <trkpt lat="45.40003" lon="4.11708">
        <ele>745.64</ele>
        <time>2023-05-27T09:20:55Z</time>
      </trkpt>
      <trkpt lat="45.40004" lon="4.11704">
        <ele>747.08</ele>
        <time>2023-05-27T09:21:21Z</time>
      </trkpt>
      <trkpt lat="45.40007" lon="4.11703">
        <ele>748.04</ele>
        <time>2023-05-27T09:21:40Z</time>
      </trkpt>
      <trkpt lat="45.40009" lon="4.11703">
        <ele>748.52</ele>
        <time>2023-05-27T09:22:05Z</time>
      </trkpt>
      <trkpt lat="45.40007" lon="4.11704">
        <ele>747.08</ele>
        <time>2023-05-27T09:22:29Z</time>
      </trkpt>
      <trkpt lat="45.40007" lon="4.11703">
        <ele>748.04</ele>
        <time>2023-05-27T09:22:55Z</time>
      </trkpt>
      <trkpt lat="45.40008" lon="4.11703">
        <ele>748.04</ele>
        <time>2023-05-27T09:23:17Z</time>
      </trkpt>
      <trkpt lat="45.40008" lon="4.11701">
        <ele>746.6</ele>
        <time>2023-05-27T09:23:32Z</time>
      </trkpt>
      <trkpt lat="45.40009" lon="4.11703">
        <ele>747.08</ele>
        <time>2023-05-27T09:23:50Z</time>
      </trkpt>
      <trkpt lat="45.40006" lon="4.11703">
        <ele>745.64</ele>
        <time>2023-05-27T09:24:02Z</time>
      </trkpt>
      <trkpt lat="45.40004" lon="4.11702">
        <ele>745.64</ele>
        <time>2023-05-27T09:24:13Z</time>
      </trkpt>
      <trkpt lat="45.40003" lon="4.11701">
        <ele>746.12</ele>
        <time>2023-05-27T09:24:24Z</time>
      </trkpt>
      <trkpt lat="45.40005" lon="4.11697">
        <ele>745.16</ele>
        <time>2023-05-27T09:24:38Z</time>
      </trkpt>
      <trkpt lat="45.40005" lon="4.11697">
        <ele>746.12</ele>
        <time>2023-05-27T09:24:47Z</time>
      </trkpt>
      <trkpt lat="45.40007" lon="4.11696">
        <ele>745.64</ele>
        <time>2023-05-27T09:24:50Z</time>
      </trkpt>
      <trkpt lat="45.40008" lon="4.117">
        <ele>745.64</ele>
        <time>2023-05-27T09:25:06Z</time>
      </trkpt>
      <trkpt lat="45.40008" lon="4.117">
        <ele>744.2</ele>
        <time>2023-05-27T09:25:35Z</time>
      </trkpt>
      <trkpt lat="45.40006" lon="4.11697">
        <ele>749.49</ele>
        <time>2023-05-27T09:26:25Z</time>
      </trkpt>
      <trkpt lat="45.40008" lon="4.11698">
        <ele>747.56</ele>
        <time>2023-05-27T09:27:08Z</time>
      </trkpt>
      <trkpt lat="45.40009" lon="4.11698">
        <ele>747.56</ele>
        <time>2023-05-27T09:27:21Z</time>
      </trkpt>
      <trkpt lat="45.40026" lon="4.11685">
        <ele>748.52</ele>
        <time>2023-05-27T09:27:38Z</time>
      </trkpt>
      <trkpt lat="45.40041" lon="4.11666">
        <ele>748.04</ele>
        <time>2023-05-27T09:27:56Z</time>
      </trkpt>
      <trkpt lat="45.40043" lon="4.11664">
        <ele>746.12</ele>
        <time>2023-05-27T09:28:23Z</time>
      </trkpt>
      <trkpt lat="45.40051" lon="4.11657">
        <ele>746.12</ele>
        <time>2023-05-27T09:28:38Z</time>
      </trkpt>
      <trkpt lat="45.40074" lon="4.11654">
        <ele>747.08</ele>
        <time>2023-05-27T09:28:54Z</time>
      </trkpt>
      <trkpt lat="45.40103" lon="4.11656">
        <ele>747.08</ele>
        <time>2023-05-27T09:29:13Z</time>
      </trkpt>
      <trkpt lat="45.40124" lon="4.1165">
        <ele>747.56</ele>
        <time>2023-05-27T09:29:32Z</time>
      </trkpt>
      <trkpt lat="45.40124" lon="4.11649">
        <ele>748.52</ele>
        <time>2023-05-27T09:30:06Z</time>
      </trkpt>
      <trkpt lat="45.40125" lon="4.11649">
        <ele>747.08</ele>
        <time>2023-05-27T09:30:30Z</time>
      </trkpt>
      <trkpt lat="45.40135" lon="4.11646">
        <ele>748.04</ele>
        <time>2023-05-27T09:31:01Z</time>
      </trkpt>
      <trkpt lat="45.40157" lon="4.11649">
        <ele>746.6</ele>
        <time>2023-05-27T09:31:17Z</time>
      </trkpt>
      <trkpt lat="45.40183" lon="4.11649">
        <ele>743.24</ele>
        <time>2023-05-27T09:31:35Z</time>
      </trkpt>
      <trkpt lat="45.40206" lon="4.11638">
        <ele>740.83</ele>
        <time>2023-05-27T09:31:51Z</time>
      </trkpt>
      <trkpt lat="45.4023" lon="4.11624">
        <ele>738.43</ele>
        <time>2023-05-27T09:32:07Z</time>
      </trkpt>
      <trkpt lat="45.40248" lon="4.1161">
        <ele>736.99</ele>
        <time>2023-05-27T09:32:21Z</time>
      </trkpt>
      <trkpt lat="45.40274" lon="4.11595">
        <ele>736.51</ele>
        <time>2023-05-27T09:32:40Z</time>
      </trkpt>
      <trkpt lat="45.40293" lon="4.11581">
        <ele>738.91</ele>
        <time>2023-05-27T09:32:53Z</time>
      </trkpt>
      <trkpt lat="45.40318" lon="4.11563">
        <ele>739.39</ele>
        <time>2023-05-27T09:33:10Z</time>
      </trkpt>
      <trkpt lat="45.40337" lon="4.11534">
        <ele>735.55</ele>
        <time>2023-05-27T09:33:27Z</time>
      </trkpt>
      <trkpt lat="45.40353" lon="4.11506">
        <ele>732.18</ele>
        <time>2023-05-27T09:33:42Z</time>
      </trkpt>
      <trkpt lat="45.40365" lon="4.1149">
        <ele>729.3</ele>
        <time>2023-05-27T09:33:53Z</time>
      </trkpt>
      <trkpt lat="45.40369" lon="4.11486">
        <ele>728.82</ele>
        <time>2023-05-27T09:33:56Z</time>
      </trkpt>
      <trkpt lat="45.40389" lon="4.11465">
        <ele>726.41</ele>
        <time>2023-05-27T09:34:12Z</time>
      </trkpt>
      <trkpt lat="45.40407" lon="4.11444">
        <ele>722.57</ele>
        <time>2023-05-27T09:34:28Z</time>
      </trkpt>
      <trkpt lat="45.40428" lon="4.11423">
        <ele>717.28</ele>
        <time>2023-05-27T09:34:44Z</time>
      </trkpt>
      <trkpt lat="45.40433" lon="4.11419">
        <ele>715.84</ele>
        <time>2023-05-27T09:34:48Z</time>
      </trkpt>
      <trkpt lat="45.40457" lon="4.11403">
        <ele>712.47</ele>
        <time>2023-05-27T09:35:04Z</time>
      </trkpt>
      <trkpt lat="45.40481" lon="4.1139">
        <ele>711.51</ele>
        <time>2023-05-27T09:35:20Z</time>
      </trkpt>
      <trkpt lat="45.40498" lon="4.11386">
        <ele>711.03</ele>
        <time>2023-05-27T09:35:34Z</time>
      </trkpt>
      <trkpt lat="45.40519" lon="4.11385">
        <ele>708.63</ele>
        <time>2023-05-27T09:35:49Z</time>
      </trkpt>
      <trkpt lat="45.40549" lon="4.11384">
        <ele>708.15</ele>
        <time>2023-05-27T09:36:05Z</time>
      </trkpt>
      <trkpt lat="45.40567" lon="4.11394">
        <ele>704.3</ele>
        <time>2023-05-27T09:36:19Z</time>
      </trkpt>
      <trkpt lat="45.40587" lon="4.11393">
        <ele>699.98</ele>
        <time>2023-05-27T09:36:34Z</time>
      </trkpt>
      <trkpt lat="45.40599" lon="4.11395">
        <ele>695.65</ele>
        <time>2023-05-27T09:36:49Z</time>
      </trkpt>
      <trkpt lat="45.40615" lon="4.11396">
        <ele>692.77</ele>
        <time>2023-05-27T09:37:03Z</time>
      </trkpt>
      <trkpt lat="45.40637" lon="4.11392">
        <ele>688.44</ele>
        <time>2023-05-27T09:37:19Z</time>
      </trkpt>
      <trkpt lat="45.40659" lon="4.1138">
        <ele>686.04</ele>
        <time>2023-05-27T09:37:35Z</time>
      </trkpt>
      <trkpt lat="45.40673" lon="4.11352">
        <ele>681.71</ele>
        <time>2023-05-27T09:37:52Z</time>
      </trkpt>
      <trkpt lat="45.40674" lon="4.11348">
        <ele>681.23</ele>
        <time>2023-05-27T09:37:54Z</time>
      </trkpt>
      <trkpt lat="45.40662" lon="4.11346">
        <ele>672.1</ele>
        <time>2023-05-27T09:38:07Z</time>
      </trkpt>
      <trkpt lat="45.40666" lon="4.1134">
        <ele>671.62</ele>
        <time>2023-05-27T09:38:10Z</time>
      </trkpt>
      <trkpt lat="45.40692" lon="4.11317">
        <ele>669.22</ele>
        <time>2023-05-27T09:38:28Z</time>
      </trkpt>
      <trkpt lat="45.40712" lon="4.11305">
        <ele>668.25</ele>
        <time>2023-05-27T09:38:42Z</time>
      </trkpt>
      <trkpt lat="45.40709" lon="4.11306">
        <ele>661.52</ele>
        <time>2023-05-27T09:38:54Z</time>
      </trkpt>
      <trkpt lat="45.40706" lon="4.11306">
        <ele>661.52</ele>
        <time>2023-05-27T09:38:56Z</time>
      </trkpt>
      <trkpt lat="45.40682" lon="4.11307">
        <ele>658.64</ele>
        <time>2023-05-27T09:39:13Z</time>
      </trkpt>
      <trkpt lat="45.40653" lon="4.11285">
        <ele>658.16</ele>
        <time>2023-05-27T09:39:29Z</time>
      </trkpt>
      <trkpt lat="45.40646" lon="4.11253">
        <ele>658.64</ele>
        <time>2023-05-27T09:39:42Z</time>
      </trkpt>
      <trkpt lat="45.4064" lon="4.1122">
        <ele>657.2</ele>
        <time>2023-05-27T09:39:56Z</time>
      </trkpt>
      <trkpt lat="45.40642" lon="4.11182">
        <ele>655.76</ele>
        <time>2023-05-27T09:40:11Z</time>
      </trkpt>
      <trkpt lat="45.40657" lon="4.11152">
        <ele>655.76</ele>
        <time>2023-05-27T09:40:25Z</time>
      </trkpt>
      <trkpt lat="45.40674" lon="4.11125">
        <ele>657.2</ele>
        <time>2023-05-27T09:40:39Z</time>
      </trkpt>
      <trkpt lat="45.40689" lon="4.11103">
        <ele>660.08</ele>
        <time>2023-05-27T09:40:53Z</time>
      </trkpt>
      <trkpt lat="45.40705" lon="4.11087">
        <ele>662.97</ele>
        <time>2023-05-27T09:41:10Z</time>
      </trkpt>
      <trkpt lat="45.40708" lon="4.11087">
        <ele>663.45</ele>
        <time>2023-05-27T09:41:25Z</time>
      </trkpt>
      <trkpt lat="45.40709" lon="4.11087">
        <ele>663.45</ele>
        <time>2023-05-27T09:41:26Z</time>
      </trkpt>
      <trkpt lat="45.4071" lon="4.11086">
        <ele>662.97</ele>
        <time>2023-05-27T09:41:27Z</time>
      </trkpt>
      <trkpt lat="45.40712" lon="4.11086">
        <ele>662.97</ele>
        <time>2023-05-27T09:41:28Z</time>
      </trkpt>
      <trkpt lat="45.40713" lon="4.11085">
        <ele>662.97</ele>
        <time>2023-05-27T09:41:29Z</time>
      </trkpt>
      <trkpt lat="45.40723" lon="4.11061">
        <ele>660.56</ele>
        <time>2023-05-27T09:41:43Z</time>
      </trkpt>
      <trkpt lat="45.4073" lon="4.11022">
        <ele>659.12</ele>
        <time>2023-05-27T09:42:01Z</time>
      </trkpt>
      <trkpt lat="45.40738" lon="4.10988">
        <ele>660.56</ele>
        <time>2023-05-27T09:42:18Z</time>
      </trkpt>
      <trkpt lat="45.40746" lon="4.10947">
        <ele>662.01</ele>
        <time>2023-05-27T09:42:37Z</time>
      </trkpt>
      <trkpt lat="45.40758" lon="4.10919">
        <ele>663.45</ele>
        <time>2023-05-27T09:42:52Z</time>
      </trkpt>
      <trkpt lat="45.40767" lon="4.10895">
        <ele>665.85</ele>
        <time>2023-05-27T09:43:06Z</time>
      </trkpt>
      <trkpt lat="45.40779" lon="4.10863">
        <ele>671.62</ele>
        <time>2023-05-27T09:43:21Z</time>
      </trkpt>
      <trkpt lat="45.40786" lon="4.10837">
        <ele>674.02</ele>
        <time>2023-05-27T09:43:34Z</time>
      </trkpt>
      <trkpt lat="45.40798" lon="4.10812">
        <ele>675.46</ele>
        <time>2023-05-27T09:43:48Z</time>
      </trkpt>
      <trkpt lat="45.40813" lon="4.10785">
        <ele>674.5</ele>
        <time>2023-05-27T09:44:03Z</time>
      </trkpt>
      <trkpt lat="45.40833" lon="4.10763">
        <ele>676.42</ele>
        <time>2023-05-27T09:44:17Z</time>
      </trkpt>
      <trkpt lat="45.40853" lon="4.10747">
        <ele>682.19</ele>
        <time>2023-05-27T09:44:33Z</time>
      </trkpt>
      <trkpt lat="45.40853" lon="4.10748">
        <ele>682.67</ele>
        <time>2023-05-27T09:44:34Z</time>
      </trkpt>
      <trkpt lat="45.40854" lon="4.1075">
        <ele>683.15</ele>
        <time>2023-05-27T09:44:35Z</time>
      </trkpt>
      <trkpt lat="45.40854" lon="4.10752">
        <ele>683.15</ele>
        <time>2023-05-27T09:44:36Z</time>
      </trkpt>
      <trkpt lat="45.40853" lon="4.10754">
        <ele>683.15</ele>
        <time>2023-05-27T09:44:37Z</time>
      </trkpt>
      <trkpt lat="45.40853" lon="4.10757">
        <ele>683.15</ele>
        <time>2023-05-27T09:44:38Z</time>
      </trkpt>
      <trkpt lat="45.40852" lon="4.10759">
        <ele>683.63</ele>
        <time>2023-05-27T09:44:39Z</time>
      </trkpt>
      <trkpt lat="45.40852" lon="4.10761">
        <ele>683.63</ele>
        <time>2023-05-27T09:44:40Z</time>
      </trkpt>
      <trkpt lat="45.40851" lon="4.10764">
        <ele>683.63</ele>
        <time>2023-05-27T09:44:41Z</time>
      </trkpt>
      <trkpt lat="45.40851" lon="4.10766">
        <ele>684.12</ele>
        <time>2023-05-27T09:44:42Z</time>
      </trkpt>
      <trkpt lat="45.4085" lon="4.10768">
        <ele>684.6</ele>
        <time>2023-05-27T09:44:43Z</time>
      </trkpt>
      <trkpt lat="45.4084" lon="4.10807">
        <ele>686.04</ele>
        <time>2023-05-27T09:45:00Z</time>
      </trkpt>
      <trkpt lat="45.40832" lon="4.10844">
        <ele>684.12</ele>
        <time>2023-05-27T09:45:18Z</time>
      </trkpt>
      <trkpt lat="45.40821" lon="4.10879">
        <ele>682.67</ele>
        <time>2023-05-27T09:45:36Z</time>
      </trkpt>
      <trkpt lat="45.40813" lon="4.10913">
        <ele>683.15</ele>
        <time>2023-05-27T09:45:54Z</time>
      </trkpt>
      <trkpt lat="45.40812" lon="4.1095">
        <ele>681.71</ele>
        <time>2023-05-27T09:46:12Z</time>
      </trkpt>
      <trkpt lat="45.40815" lon="4.10991">
        <ele>682.19</ele>
        <time>2023-05-27T09:46:29Z</time>
      </trkpt>
      <trkpt lat="45.40816" lon="4.11032">
        <ele>681.71</ele>
        <time>2023-05-27T09:46:47Z</time>
      </trkpt>
      <trkpt lat="45.40807" lon="4.11065">
        <ele>680.27</ele>
        <time>2023-05-27T09:47:04Z</time>
      </trkpt>
      <trkpt lat="45.40786" lon="4.11097">
        <ele>681.71</ele>
        <time>2023-05-27T09:47:23Z</time>
      </trkpt>
      <trkpt lat="45.40781" lon="4.11124">
        <ele>677.39</ele>
        <time>2023-05-27T09:47:39Z</time>
      </trkpt>
      <trkpt lat="45.40797" lon="4.1114">
        <ele>675.94</ele>
        <time>2023-05-27T09:47:52Z</time>
      </trkpt>
      <trkpt lat="45.40816" lon="4.11149">
        <ele>675.94</ele>
        <time>2023-05-27T09:48:08Z</time>
      </trkpt>
      <trkpt lat="45.40824" lon="4.11157">
        <ele>674.98</ele>
        <time>2023-05-27T09:48:14Z</time>
      </trkpt>
      <trkpt lat="45.40837" lon="4.1118">
        <ele>672.58</ele>
        <time>2023-05-27T09:48:28Z</time>
      </trkpt>
      <trkpt lat="45.40849" lon="4.11218">
        <ele>668.25</ele>
        <time>2023-05-27T09:48:43Z</time>
      </trkpt>
      <trkpt lat="45.40857" lon="4.11249">
        <ele>664.41</ele>
        <time>2023-05-27T09:48:59Z</time>
      </trkpt>
      <trkpt lat="45.40856" lon="4.11287">
        <ele>662.01</ele>
        <time>2023-05-27T09:49:15Z</time>
      </trkpt>
      <trkpt lat="45.4086" lon="4.11327">
        <ele>657.68</ele>
        <time>2023-05-27T09:49:30Z</time>
      </trkpt>
      <trkpt lat="45.40862" lon="4.1136">
        <ele>655.28</ele>
        <time>2023-05-27T09:49:44Z</time>
      </trkpt>
      <trkpt lat="45.40865" lon="4.11403">
        <ele>655.76</ele>
        <time>2023-05-27T09:50:02Z</time>
      </trkpt>
      <trkpt lat="45.40885" lon="4.11403">
        <ele>658.16</ele>
        <time>2023-05-27T09:50:17Z</time>
      </trkpt>
      <trkpt lat="45.40905" lon="4.11388">
        <ele>661.04</ele>
        <time>2023-05-27T09:50:31Z</time>
      </trkpt>
      <trkpt lat="45.40923" lon="4.11367">
        <ele>663.45</ele>
        <time>2023-05-27T09:50:46Z</time>
      </trkpt>
      <trkpt lat="45.40943" lon="4.11338">
        <ele>666.33</ele>
        <time>2023-05-27T09:51:05Z</time>
      </trkpt>
      <trkpt lat="45.4096" lon="4.11324">
        <ele>669.7</ele>
        <time>2023-05-27T09:51:20Z</time>
      </trkpt>
      <trkpt lat="45.40973" lon="4.1131">
        <ele>670.18</ele>
        <time>2023-05-27T09:51:31Z</time>
      </trkpt>
      <trkpt lat="45.40975" lon="4.11309">
        <ele>670.18</ele>
        <time>2023-05-27T09:51:32Z</time>
      </trkpt>
      <trkpt lat="45.40976" lon="4.11307">
        <ele>669.7</ele>
        <time>2023-05-27T09:51:33Z</time>
      </trkpt>
      <trkpt lat="45.40978" lon="4.11306">
        <ele>669.7</ele>
        <time>2023-05-27T09:51:34Z</time>
      </trkpt>
      <trkpt lat="45.4098" lon="4.11303">
        <ele>669.7</ele>
        <time>2023-05-27T09:51:35Z</time>
      </trkpt>
      <trkpt lat="45.41006" lon="4.11286">
        <ele>668.73</ele>
        <time>2023-05-27T09:51:51Z</time>
      </trkpt>
      <trkpt lat="45.41029" lon="4.1127">
        <ele>664.89</ele>
        <time>2023-05-27T09:52:08Z</time>
      </trkpt>
      <trkpt lat="45.41049" lon="4.11269">
        <ele>664.89</ele>
        <time>2023-05-27T09:52:26Z</time>
      </trkpt>
      <trkpt lat="45.41065" lon="4.11275">
        <ele>663.45</ele>
        <time>2023-05-27T09:52:35Z</time>
      </trkpt>
      <trkpt lat="45.41068" lon="4.11277">
        <ele>663.93</ele>
        <time>2023-05-27T09:52:36Z</time>
      </trkpt>
      <trkpt lat="45.41071" lon="4.11279">
        <ele>664.41</ele>
        <time>2023-05-27T09:52:37Z</time>
      </trkpt>
      <trkpt lat="45.41074" lon="4.11281">
        <ele>664.89</ele>
        <time>2023-05-27T09:52:38Z</time>
      </trkpt>
      <trkpt lat="45.41076" lon="4.11283">
        <ele>664.89</ele>
        <time>2023-05-27T09:52:39Z</time>
      </trkpt>
      <trkpt lat="45.41078" lon="4.11285">
        <ele>665.37</ele>
        <time>2023-05-27T09:52:40Z</time>
      </trkpt>
      <trkpt lat="45.41093" lon="4.11314">
        <ele>669.7</ele>
        <time>2023-05-27T09:52:55Z</time>
      </trkpt>
      <trkpt lat="45.4111" lon="4.11347">
        <ele>668.25</ele>
        <time>2023-05-27T09:53:11Z</time>
      </trkpt>
      <trkpt lat="45.4113" lon="4.11351">
        <ele>664.89</ele>
        <time>2023-05-27T09:53:25Z</time>
      </trkpt>
      <trkpt lat="45.41154" lon="4.11348">
        <ele>665.37</ele>
        <time>2023-05-27T09:53:41Z</time>
      </trkpt>
      <trkpt lat="45.41168" lon="4.11339">
        <ele>667.77</ele>
        <time>2023-05-27T09:53:52Z</time>
      </trkpt>
      <trkpt lat="45.41189" lon="4.11322">
        <ele>667.77</ele>
        <time>2023-05-27T09:54:07Z</time>
      </trkpt>
      <trkpt lat="45.41204" lon="4.11303">
        <ele>669.22</ele>
        <time>2023-05-27T09:54:20Z</time>
      </trkpt>
      <trkpt lat="45.41229" lon="4.11281">
        <ele>670.18</ele>
        <time>2023-05-27T09:54:37Z</time>
      </trkpt>
      <trkpt lat="45.41254" lon="4.11295">
        <ele>668.73</ele>
        <time>2023-05-27T09:54:53Z</time>
      </trkpt>
      <trkpt lat="45.41258" lon="4.11302">
        <ele>669.22</ele>
        <time>2023-05-27T09:54:57Z</time>
      </trkpt>
      <trkpt lat="45.41259" lon="4.11305">
        <ele>668.73</ele>
        <time>2023-05-27T09:54:58Z</time>
      </trkpt>
      <trkpt lat="45.41264" lon="4.1132">
        <ele>667.77</ele>
        <time>2023-05-27T09:55:03Z</time>
      </trkpt>
      <trkpt lat="45.41265" lon="4.11322">
        <ele>667.77</ele>
        <time>2023-05-27T09:55:04Z</time>
      </trkpt>
      <trkpt lat="45.41265" lon="4.11325">
        <ele>667.77</ele>
        <time>2023-05-27T09:55:05Z</time>
      </trkpt>
      <trkpt lat="45.41266" lon="4.11327">
        <ele>667.77</ele>
        <time>2023-05-27T09:55:06Z</time>
      </trkpt>
      <trkpt lat="45.41267" lon="4.11329">
        <ele>667.29</ele>
        <time>2023-05-27T09:55:07Z</time>
      </trkpt>
      <trkpt lat="45.41268" lon="4.11331">
        <ele>667.29</ele>
        <time>2023-05-27T09:55:08Z</time>
      </trkpt>
      <trkpt lat="45.41269" lon="4.11333">
        <ele>667.29</ele>
        <time>2023-05-27T09:55:09Z</time>
      </trkpt>
      <trkpt lat="45.41289" lon="4.11345">
        <ele>669.22</ele>
        <time>2023-05-27T09:55:24Z</time>
      </trkpt>
      <trkpt lat="45.41296" lon="4.11338">
        <ele>670.18</ele>
        <time>2023-05-27T09:55:30Z</time>
      </trkpt>
      <trkpt lat="45.41306" lon="4.11317">
        <ele>674.5</ele>
        <time>2023-05-27T09:55:43Z</time>
      </trkpt>
      <trkpt lat="45.41317" lon="4.113">
        <ele>673.06</ele>
        <time>2023-05-27T09:55:56Z</time>
      </trkpt>
      <trkpt lat="45.41331" lon="4.11265">
        <ele>674.5</ele>
        <time>2023-05-27T09:56:13Z</time>
      </trkpt>
      <trkpt lat="45.41346" lon="4.11234">
        <ele>681.23</ele>
        <time>2023-05-27T09:56:31Z</time>
      </trkpt>
      <trkpt lat="45.41358" lon="4.11206">
        <ele>684.12</ele>
        <time>2023-05-27T09:56:47Z</time>
      </trkpt>
      <trkpt lat="45.41372" lon="4.11177">
        <ele>688.44</ele>
        <time>2023-05-27T09:57:01Z</time>
      </trkpt>
      <trkpt lat="45.4138" lon="4.11151">
        <ele>692.77</ele>
        <time>2023-05-27T09:57:14Z</time>
      </trkpt>
      <trkpt lat="45.41381" lon="4.11122">
        <ele>694.21</ele>
        <time>2023-05-27T09:57:28Z</time>
      </trkpt>
      <trkpt lat="45.41377" lon="4.11085">
        <ele>697.09</ele>
        <time>2023-05-27T09:57:46Z</time>
      </trkpt>
      <trkpt lat="45.41373" lon="4.11052">
        <ele>700.94</ele>
        <time>2023-05-27T09:58:02Z</time>
      </trkpt>
      <trkpt lat="45.4138" lon="4.11047">
        <ele>703.82</ele>
        <time>2023-05-27T09:58:14Z</time>
      </trkpt>
      <trkpt lat="45.41382" lon="4.11045">
        <ele>705.75</ele>
        <time>2023-05-27T09:58:20Z</time>
      </trkpt>
      <trkpt lat="45.41383" lon="4.11045">
        <ele>705.75</ele>
        <time>2023-05-27T09:58:21Z</time>
      </trkpt>
      <trkpt lat="45.4141" lon="4.11062">
        <ele>708.63</ele>
        <time>2023-05-27T09:58:39Z</time>
      </trkpt>
      <trkpt lat="45.41432" lon="4.11081">
        <ele>706.71</ele>
        <time>2023-05-27T09:58:57Z</time>
      </trkpt>
      <trkpt lat="45.41454" lon="4.11115">
        <ele>703.34</ele>
        <time>2023-05-27T09:59:16Z</time>
      </trkpt>
      <trkpt lat="45.41472" lon="4.11148">
        <ele>705.26</ele>
        <time>2023-05-27T09:59:37Z</time>
      </trkpt>
      <trkpt lat="45.41492" lon="4.11186">
        <ele>703.82</ele>
        <time>2023-05-27T09:59:56Z</time>
      </trkpt>
      <trkpt lat="45.41516" lon="4.1121">
        <ele>698.05</ele>
        <time>2023-05-27T10:00:17Z</time>
      </trkpt>
      <trkpt lat="45.41537" lon="4.11224">
        <ele>697.09</ele>
        <time>2023-05-27T10:00:34Z</time>
      </trkpt>
      <trkpt lat="45.41563" lon="4.11238">
        <ele>696.61</ele>
        <time>2023-05-27T10:00:53Z</time>
      </trkpt>
      <trkpt lat="45.41594" lon="4.11254">
        <ele>689.4</ele>
        <time>2023-05-27T10:01:11Z</time>
      </trkpt>
      <trkpt lat="45.41623" lon="4.11271">
        <ele>677.39</ele>
        <time>2023-05-27T10:01:31Z</time>
      </trkpt>
      <trkpt lat="45.41655" lon="4.11275">
        <ele>674.5</ele>
        <time>2023-05-27T10:01:50Z</time>
      </trkpt>
      <trkpt lat="45.41679" lon="4.11274">
        <ele>672.1</ele>
        <time>2023-05-27T10:02:05Z</time>
      </trkpt>
      <trkpt lat="45.4171" lon="4.11272">
        <ele>670.18</ele>
        <time>2023-05-27T10:02:22Z</time>
      </trkpt>
      <trkpt lat="45.41734" lon="4.11272">
        <ele>669.7</ele>
        <time>2023-05-27T10:02:36Z</time>
      </trkpt>
      <trkpt lat="45.41761" lon="4.11271">
        <ele>669.7</ele>
        <time>2023-05-27T10:02:51Z</time>
      </trkpt>
      <trkpt lat="45.41792" lon="4.11269">
        <ele>668.73</ele>
        <time>2023-05-27T10:03:09Z</time>
      </trkpt>
      <trkpt lat="45.41814" lon="4.11261">
        <ele>668.73</ele>
        <time>2023-05-27T10:03:24Z</time>
      </trkpt>
      <trkpt lat="45.41814" lon="4.11259">
        <ele>668.25</ele>
        <time>2023-05-27T10:03:25Z</time>
      </trkpt>
      <trkpt lat="45.41814" lon="4.11257">
        <ele>668.25</ele>
        <time>2023-05-27T10:03:26Z</time>
      </trkpt>
      <trkpt lat="45.41813" lon="4.11257">
        <ele>668.25</ele>
        <time>2023-05-27T10:03:40Z</time>
      </trkpt>
      <trkpt lat="45.41813" lon="4.11254">
        <ele>666.81</ele>
        <time>2023-05-27T10:04:13Z</time>
      </trkpt>
      <trkpt lat="45.41812" lon="4.11222">
        <ele>665.85</ele>
        <time>2023-05-27T10:04:27Z</time>
      </trkpt>
      <trkpt lat="45.41809" lon="4.11194">
        <ele>663.93</ele>
        <time>2023-05-27T10:04:46Z</time>
      </trkpt>
      <trkpt lat="45.418" lon="4.11163">
        <ele>662.01</ele>
        <time>2023-05-27T10:05:03Z</time>
      </trkpt>
      <trkpt lat="45.41801" lon="4.11157">
        <ele>661.52</ele>
        <time>2023-05-27T10:05:07Z</time>
      </trkpt>
      <trkpt lat="45.41817" lon="4.11135">
        <ele>658.64</ele>
        <time>2023-05-27T10:05:22Z</time>
      </trkpt>
      <trkpt lat="45.41829" lon="4.1113">
        <ele>655.28</ele>
        <time>2023-05-27T10:05:31Z</time>
      </trkpt>
      <trkpt lat="45.41831" lon="4.1113">
        <ele>654.8</ele>
        <time>2023-05-27T10:05:32Z</time>
      </trkpt>
      <trkpt lat="45.41832" lon="4.1113">
        <ele>654.8</ele>
        <time>2023-05-27T10:05:33Z</time>
      </trkpt>
      <trkpt lat="45.41856" lon="4.11126">
        <ele>653.35</ele>
        <time>2023-05-27T10:05:48Z</time>
      </trkpt>
      <trkpt lat="45.41874" lon="4.11124">
        <ele>651.43</ele>
        <time>2023-05-27T10:06:02Z</time>
      </trkpt>
      <trkpt lat="45.41897" lon="4.11118">
        <ele>647.1</ele>
        <time>2023-05-27T10:06:18Z</time>
      </trkpt>
      <trkpt lat="45.41921" lon="4.11111">
        <ele>640.86</ele>
        <time>2023-05-27T10:06:33Z</time>
      </trkpt>
      <trkpt lat="45.41939" lon="4.1111">
        <ele>634.61</ele>
        <time>2023-05-27T10:06:47Z</time>
      </trkpt>
      <trkpt lat="45.4196" lon="4.111">
        <ele>631.72</ele>
        <time>2023-05-27T10:07:00Z</time>
      </trkpt>
      <trkpt lat="45.41978" lon="4.11081">
        <ele>626.92</ele>
        <time>2023-05-27T10:07:15Z</time>
      </trkpt>
      <trkpt lat="45.41991" lon="4.11071">
        <ele>621.15</ele>
        <time>2023-05-27T10:07:32Z</time>
      </trkpt>
      <trkpt lat="45.41998" lon="4.11059">
        <ele>620.19</ele>
        <time>2023-05-27T10:07:45Z</time>
      </trkpt>
      <trkpt lat="45.42011" lon="4.11041">
        <ele>623.55</ele>
        <time>2023-05-27T10:07:57Z</time>
      </trkpt>
      <trkpt lat="45.42014" lon="4.11039">
        <ele>624.03</ele>
        <time>2023-05-27T10:07:59Z</time>
      </trkpt>
      <trkpt lat="45.42018" lon="4.11029">
        <ele>624.51</ele>
        <time>2023-05-27T10:08:04Z</time>
      </trkpt>
      <trkpt lat="45.42021" lon="4.10988">
        <ele>624.51</ele>
        <time>2023-05-27T10:08:21Z</time>
      </trkpt>
      <trkpt lat="45.42018" lon="4.10961">
        <ele>624.99</ele>
        <time>2023-05-27T10:08:35Z</time>
      </trkpt>
      <trkpt lat="45.42018" lon="4.10955">
        <ele>624.03</ele>
        <time>2023-05-27T10:08:38Z</time>
      </trkpt>
      <trkpt lat="45.42011" lon="4.10923">
        <ele>624.99</ele>
        <time>2023-05-27T10:08:52Z</time>
      </trkpt>
      <trkpt lat="45.42013" lon="4.10917">
        <ele>624.99</ele>
        <time>2023-05-27T10:08:55Z</time>
      </trkpt>
      <trkpt lat="45.42015" lon="4.10914">
        <ele>624.99</ele>
        <time>2023-05-27T10:08:56Z</time>
      </trkpt>
      <trkpt lat="45.42016" lon="4.10912">
        <ele>624.99</ele>
        <time>2023-05-27T10:08:57Z</time>
      </trkpt>
      <trkpt lat="45.42026" lon="4.10879">
        <ele>629.32</ele>
        <time>2023-05-27T10:09:11Z</time>
      </trkpt>
      <trkpt lat="45.42042" lon="4.1085">
        <ele>632.2</ele>
        <time>2023-05-27T10:09:28Z</time>
      </trkpt>
      <trkpt lat="45.42061" lon="4.10834">
        <ele>635.57</ele>
        <time>2023-05-27T10:09:43Z</time>
      </trkpt>
      <trkpt lat="45.42079" lon="4.10819">
        <ele>639.89</ele>
        <time>2023-05-27T10:09:57Z</time>
      </trkpt>
      <trkpt lat="45.42099" lon="4.10803">
        <ele>647.1</ele>
        <time>2023-05-27T10:10:15Z</time>
      </trkpt>
      <trkpt lat="45.42116" lon="4.10779">
        <ele>653.35</ele>
        <time>2023-05-27T10:10:31Z</time>
      </trkpt>
      <trkpt lat="45.42136" lon="4.10754">
        <ele>657.68</ele>
        <time>2023-05-27T10:10:49Z</time>
      </trkpt>
      <trkpt lat="45.42153" lon="4.10731">
        <ele>660.56</ele>
        <time>2023-05-27T10:11:03Z</time>
      </trkpt>
      <trkpt lat="45.4217" lon="4.10703">
        <ele>663.93</ele>
        <time>2023-05-27T10:11:20Z</time>
      </trkpt>
      <trkpt lat="45.42183" lon="4.10665">
        <ele>668.73</ele>
        <time>2023-05-27T10:11:39Z</time>
      </trkpt>
      <trkpt lat="45.42178" lon="4.10625">
        <ele>674.98</ele>
        <time>2023-05-27T10:11:59Z</time>
      </trkpt>
      <trkpt lat="45.42177" lon="4.10611">
        <ele>677.87</ele>
        <time>2023-05-27T10:12:15Z</time>
      </trkpt>
      <trkpt lat="45.42178" lon="4.10609">
        <ele>676.91</ele>
        <time>2023-05-27T10:12:28Z</time>
      </trkpt>
      <trkpt lat="45.42203" lon="4.10603">
        <ele>680.27</ele>
        <time>2023-05-27T10:12:46Z</time>
      </trkpt>
      <trkpt lat="45.42223" lon="4.10598">
        <ele>684.12</ele>
        <time>2023-05-27T10:13:01Z</time>
      </trkpt>
      <trkpt lat="45.42247" lon="4.10603">
        <ele>686.52</ele>
        <time>2023-05-27T10:13:16Z</time>
      </trkpt>
      <trkpt lat="45.42269" lon="4.10603">
        <ele>686.52</ele>
        <time>2023-05-27T10:13:29Z</time>
      </trkpt>
      <trkpt lat="45.42294" lon="4.10589">
        <ele>689.88</ele>
        <time>2023-05-27T10:13:47Z</time>
      </trkpt>
      <trkpt lat="45.42313" lon="4.10558">
        <ele>693.73</ele>
        <time>2023-05-27T10:14:04Z</time>
      </trkpt>
      <trkpt lat="45.42332" lon="4.10524">
        <ele>695.17</ele>
        <time>2023-05-27T10:14:21Z</time>
      </trkpt>
      <trkpt lat="45.4235" lon="4.10484">
        <ele>697.57</ele>
        <time>2023-05-27T10:14:42Z</time>
      </trkpt>
      <trkpt lat="45.42362" lon="4.10443">
        <ele>699.98</ele>
        <time>2023-05-27T10:15:00Z</time>
      </trkpt>
      <trkpt lat="45.42371" lon="4.10405">
        <ele>699.98</ele>
        <time>2023-05-27T10:15:19Z</time>
      </trkpt>
      <trkpt lat="45.42382" lon="4.1036">
        <ele>699.5</ele>
        <time>2023-05-27T10:15:40Z</time>
      </trkpt>
      <trkpt lat="45.42394" lon="4.10315">
        <ele>699.02</ele>
        <time>2023-05-27T10:16:03Z</time>
      </trkpt>
      <trkpt lat="45.42408" lon="4.10275">
        <ele>699.02</ele>
        <time>2023-05-27T10:16:23Z</time>
      </trkpt>
      <trkpt lat="45.42423" lon="4.10233">
        <ele>699.02</ele>
        <time>2023-05-27T10:16:45Z</time>
      </trkpt>
      <trkpt lat="45.4244" lon="4.1019">
        <ele>699.98</ele>
        <time>2023-05-27T10:17:06Z</time>
      </trkpt>
      <trkpt lat="45.42456" lon="4.1015">
        <ele>699.98</ele>
        <time>2023-05-27T10:17:25Z</time>
      </trkpt>
      <trkpt lat="45.4247" lon="4.10109">
        <ele>700.46</ele>
        <time>2023-05-27T10:17:44Z</time>
      </trkpt>
      <trkpt lat="45.42483" lon="4.10064">
        <ele>702.38</ele>
        <time>2023-05-27T10:18:04Z</time>
      </trkpt>
      <trkpt lat="45.42495" lon="4.10024">
        <ele>703.82</ele>
        <time>2023-05-27T10:18:23Z</time>
      </trkpt>
      <trkpt lat="45.42507" lon="4.09984">
        <ele>705.26</ele>
        <time>2023-05-27T10:18:41Z</time>
      </trkpt>
      <trkpt lat="45.42509" lon="4.0998">
        <ele>705.26</ele>
        <time>2023-05-27T10:18:44Z</time>
      </trkpt>
      <trkpt lat="45.42509" lon="4.09978">
        <ele>705.26</ele>
        <time>2023-05-27T10:18:45Z</time>
      </trkpt>
      <trkpt lat="45.42509" lon="4.09976">
        <ele>705.26</ele>
        <time>2023-05-27T10:18:46Z</time>
      </trkpt>
      <trkpt lat="45.42509" lon="4.09974">
        <ele>705.26</ele>
        <time>2023-05-27T10:18:47Z</time>
      </trkpt>
      <trkpt lat="45.42509" lon="4.09971">
        <ele>705.26</ele>
        <time>2023-05-27T10:18:48Z</time>
      </trkpt>
      <trkpt lat="45.42508" lon="4.09969">
        <ele>705.26</ele>
        <time>2023-05-27T10:18:49Z</time>
      </trkpt>
      <trkpt lat="45.42508" lon="4.09967">
        <ele>705.26</ele>
        <time>2023-05-27T10:18:50Z</time>
      </trkpt>
      <trkpt lat="45.42498" lon="4.09929">
        <ele>705.75</ele>
        <time>2023-05-27T10:19:08Z</time>
      </trkpt>
      <trkpt lat="45.42482" lon="4.09878">
        <ele>706.23</ele>
        <time>2023-05-27T10:19:33Z</time>
      </trkpt>
      <trkpt lat="45.42471" lon="4.09826">
        <ele>707.19</ele>
        <time>2023-05-27T10:19:58Z</time>
      </trkpt>
      <trkpt lat="45.42461" lon="4.09775">
        <ele>707.67</ele>
        <time>2023-05-27T10:20:21Z</time>
      </trkpt>
      <trkpt lat="45.42448" lon="4.09729">
        <ele>709.59</ele>
        <time>2023-05-27T10:20:44Z</time>
      </trkpt>
      <trkpt lat="45.42438" lon="4.09689">
        <ele>710.07</ele>
        <time>2023-05-27T10:21:05Z</time>
      </trkpt>
      <trkpt lat="45.42426" lon="4.09642">
        <ele>708.63</ele>
        <time>2023-05-27T10:21:27Z</time>
      </trkpt>
      <trkpt lat="45.42414" lon="4.09597">
        <ele>710.07</ele>
        <time>2023-05-27T10:21:48Z</time>
      </trkpt>
      <trkpt lat="45.424" lon="4.09544">
        <ele>712.95</ele>
        <time>2023-05-27T10:22:15Z</time>
      </trkpt>
      <trkpt lat="45.42387" lon="4.09497">
        <ele>713.44</ele>
        <time>2023-05-27T10:22:38Z</time>
      </trkpt>
      <trkpt lat="45.42376" lon="4.09452">
        <ele>713.92</ele>
        <time>2023-05-27T10:23:00Z</time>
      </trkpt>
      <trkpt lat="45.42377" lon="4.09416">
        <ele>715.84</ele>
        <time>2023-05-27T10:23:19Z</time>
      </trkpt>
      <trkpt lat="45.42376" lon="4.09365">
        <ele>719.2</ele>
        <time>2023-05-27T10:23:43Z</time>
      </trkpt>
      <trkpt lat="45.42373" lon="4.0932">
        <ele>724.01</ele>
        <time>2023-05-27T10:24:06Z</time>
      </trkpt>
      <trkpt lat="45.42366" lon="4.09277">
        <ele>726.89</ele>
        <time>2023-05-27T10:24:26Z</time>
      </trkpt>
      <trkpt lat="45.42358" lon="4.09243">
        <ele>730.74</ele>
        <time>2023-05-27T10:24:45Z</time>
      </trkpt>
      <trkpt lat="45.42351" lon="4.09203">
        <ele>733.14</ele>
        <time>2023-05-27T10:25:04Z</time>
      </trkpt>
      <trkpt lat="45.4234" lon="4.09166">
        <ele>736.99</ele>
        <time>2023-05-27T10:25:23Z</time>
      </trkpt>
      <trkpt lat="45.42325" lon="4.09135">
        <ele>739.87</ele>
        <time>2023-05-27T10:25:41Z</time>
      </trkpt>
      <trkpt lat="45.42305" lon="4.09104">
        <ele>739.87</ele>
        <time>2023-05-27T10:25:59Z</time>
      </trkpt>
      <trkpt lat="45.42289" lon="4.09078">
        <ele>742.28</ele>
        <time>2023-05-27T10:26:16Z</time>
      </trkpt>
      <trkpt lat="45.42276" lon="4.09058">
        <ele>744.68</ele>
        <time>2023-05-27T10:26:29Z</time>
      </trkpt>
      <trkpt lat="45.42264" lon="4.09031">
        <ele>747.08</ele>
        <time>2023-05-27T10:26:46Z</time>
      </trkpt>
      <trkpt lat="45.42251" lon="4.09003">
        <ele>747.56</ele>
        <time>2023-05-27T10:27:03Z</time>
      </trkpt>
      <trkpt lat="45.42228" lon="4.08978">
        <ele>750.45</ele>
        <time>2023-05-27T10:27:22Z</time>
      </trkpt>
      <trkpt lat="45.42204" lon="4.08964">
        <ele>754.77</ele>
        <time>2023-05-27T10:27:39Z</time>
      </trkpt>
      <trkpt lat="45.42185" lon="4.08955">
        <ele>756.69</ele>
        <time>2023-05-27T10:27:53Z</time>
      </trkpt>
      <trkpt lat="45.42162" lon="4.08941">
        <ele>758.62</ele>
        <time>2023-05-27T10:28:10Z</time>
      </trkpt>
      <trkpt lat="45.42138" lon="4.0892">
        <ele>761.5</ele>
        <time>2023-05-27T10:28:28Z</time>
      </trkpt>
      <trkpt lat="45.42122" lon="4.08898">
        <ele>765.83</ele>
        <time>2023-05-27T10:28:43Z</time>
      </trkpt>
      <trkpt lat="45.42109" lon="4.08872">
        <ele>769.67</ele>
        <time>2023-05-27T10:29:00Z</time>
      </trkpt>
      <trkpt lat="45.42093" lon="4.08842">
        <ele>772.56</ele>
        <time>2023-05-27T10:29:17Z</time>
      </trkpt>
      <trkpt lat="45.42082" lon="4.08794">
        <ele>770.63</ele>
        <time>2023-05-27T10:29:40Z</time>
      </trkpt>
      <trkpt lat="45.42073" lon="4.08753">
        <ele>771.6</ele>
        <time>2023-05-27T10:29:58Z</time>
      </trkpt>
      <trkpt lat="45.42063" lon="4.08712">
        <ele>774.48</ele>
        <time>2023-05-27T10:30:17Z</time>
      </trkpt>
      <trkpt lat="45.42058" lon="4.08676">
        <ele>775.44</ele>
        <time>2023-05-27T10:30:35Z</time>
      </trkpt>
      <trkpt lat="45.42048" lon="4.08643">
        <ele>776.4</ele>
        <time>2023-05-27T10:30:51Z</time>
      </trkpt>
      <trkpt lat="45.4204" lon="4.08602">
        <ele>777.84</ele>
        <time>2023-05-27T10:31:09Z</time>
      </trkpt>
      <trkpt lat="45.42022" lon="4.08578">
        <ele>779.29</ele>
        <time>2023-05-27T10:31:25Z</time>
      </trkpt>
      <trkpt lat="45.42022" lon="4.08577">
        <ele>779.77</ele>
        <time>2023-05-27T10:31:26Z</time>
      </trkpt>
      <trkpt lat="45.42023" lon="4.08575">
        <ele>779.77</ele>
        <time>2023-05-27T10:31:27Z</time>
      </trkpt>
      <trkpt lat="45.42024" lon="4.08574">
        <ele>779.77</ele>
        <time>2023-05-27T10:31:28Z</time>
      </trkpt>
      <trkpt lat="45.42026" lon="4.08573">
        <ele>779.77</ele>
        <time>2023-05-27T10:31:29Z</time>
      </trkpt>
      <trkpt lat="45.42028" lon="4.08571">
        <ele>779.77</ele>
        <time>2023-05-27T10:31:30Z</time>
      </trkpt>
      <trkpt lat="45.42029" lon="4.0857">
        <ele>780.25</ele>
        <time>2023-05-27T10:31:31Z</time>
      </trkpt>
      <trkpt lat="45.42031" lon="4.08569">
        <ele>780.25</ele>
        <time>2023-05-27T10:31:32Z</time>
      </trkpt>
      <trkpt lat="45.42033" lon="4.08568">
        <ele>780.25</ele>
        <time>2023-05-27T10:31:33Z</time>
      </trkpt>
      <trkpt lat="45.42041" lon="4.0855">
        <ele>783.13</ele>
        <time>2023-05-27T10:31:47Z</time>
      </trkpt>
      <trkpt lat="45.42035" lon="4.08513">
        <ele>786.5</ele>
        <time>2023-05-27T10:32:05Z</time>
      </trkpt>
      <trkpt lat="45.42036" lon="4.08474">
        <ele>790.82</ele>
        <time>2023-05-27T10:32:22Z</time>
      </trkpt>
      <trkpt lat="45.42036" lon="4.08443">
        <ele>798.03</ele>
        <time>2023-05-27T10:32:36Z</time>
      </trkpt>
      <trkpt lat="45.42035" lon="4.08441">
        <ele>798.51</ele>
        <time>2023-05-27T10:32:37Z</time>
      </trkpt>
      <trkpt lat="45.42036" lon="4.0841">
        <ele>802.84</ele>
        <time>2023-05-27T10:32:51Z</time>
      </trkpt>
      <trkpt lat="45.42033" lon="4.08393">
        <ele>803.8</ele>
        <time>2023-05-27T10:33:01Z</time>
      </trkpt>
      <trkpt lat="45.42028" lon="4.08364">
        <ele>804.76</ele>
        <time>2023-05-27T10:33:13Z</time>
      </trkpt>
      <trkpt lat="45.42028" lon="4.0833">
        <ele>808.61</ele>
        <time>2023-05-27T10:33:29Z</time>
      </trkpt>
      <trkpt lat="45.42023" lon="4.0829">
        <ele>812.45</ele>
        <time>2023-05-27T10:33:46Z</time>
      </trkpt>
      <trkpt lat="45.42014" lon="4.08248">
        <ele>814.37</ele>
        <time>2023-05-27T10:34:03Z</time>
      </trkpt>
      <trkpt lat="45.42001" lon="4.08206">
        <ele>819.18</ele>
        <time>2023-05-27T10:34:20Z</time>
      </trkpt>
      <trkpt lat="45.41996" lon="4.08173">
        <ele>823.51</ele>
        <time>2023-05-27T10:34:35Z</time>
      </trkpt>
      <trkpt lat="45.41995" lon="4.08148">
        <ele>825.43</ele>
        <time>2023-05-27T10:34:53Z</time>
      </trkpt>
      <trkpt lat="45.41993" lon="4.08122">
        <ele>821.58</ele>
        <time>2023-05-27T10:35:11Z</time>
      </trkpt>
      <trkpt lat="45.41989" lon="4.08088">
        <ele>811.49</ele>
        <time>2023-05-27T10:35:30Z</time>
      </trkpt>
      <trkpt lat="45.41985" lon="4.0806">
        <ele>801.88</ele>
        <time>2023-05-27T10:35:46Z</time>
      </trkpt>
      <trkpt lat="45.41976" lon="4.08031">
        <ele>797.55</ele>
        <time>2023-05-27T10:36:01Z</time>
      </trkpt>
      <trkpt lat="45.41971" lon="4.07997">
        <ele>793.71</ele>
        <time>2023-05-27T10:36:20Z</time>
      </trkpt>
      <trkpt lat="45.41968" lon="4.07969">
        <ele>791.78</ele>
        <time>2023-05-27T10:36:33Z</time>
      </trkpt>
      <trkpt lat="45.41961" lon="4.07935">
        <ele>788.42</ele>
        <time>2023-05-27T10:36:47Z</time>
      </trkpt>
      <trkpt lat="45.41953" lon="4.07902">
        <ele>788.9</ele>
        <time>2023-05-27T10:37:05Z</time>
      </trkpt>
      <trkpt lat="45.41948" lon="4.0787">
        <ele>784.57</ele>
        <time>2023-05-27T10:37:24Z</time>
      </trkpt>
      <trkpt lat="45.41948" lon="4.07839">
        <ele>780.73</ele>
        <time>2023-05-27T10:37:40Z</time>
      </trkpt>
      <trkpt lat="45.41941" lon="4.07798">
        <ele>772.56</ele>
        <time>2023-05-27T10:37:57Z</time>
      </trkpt>
      <trkpt lat="45.41926" lon="4.07753">
        <ele>779.29</ele>
        <time>2023-05-27T10:38:16Z</time>
      </trkpt>
      <trkpt lat="45.41919" lon="4.07742">
        <ele>780.73</ele>
        <time>2023-05-27T10:38:22Z</time>
      </trkpt>
      <trkpt lat="45.41918" lon="4.0774">
        <ele>781.69</ele>
        <time>2023-05-27T10:38:23Z</time>
      </trkpt>
      <trkpt lat="45.41917" lon="4.07737">
        <ele>782.17</ele>
        <time>2023-05-27T10:38:24Z</time>
      </trkpt>
      <trkpt lat="45.41911" lon="4.07712">
        <ele>785.05</ele>
        <time>2023-05-27T10:38:38Z</time>
      </trkpt>
      <trkpt lat="45.41911" lon="4.0771">
        <ele>785.05</ele>
        <time>2023-05-27T10:38:39Z</time>
      </trkpt>
      <trkpt lat="45.41911" lon="4.07708">
        <ele>785.05</ele>
        <time>2023-05-27T10:38:40Z</time>
      </trkpt>
      <trkpt lat="45.41912" lon="4.07706">
        <ele>785.05</ele>
        <time>2023-05-27T10:38:41Z</time>
      </trkpt>
      <trkpt lat="45.41914" lon="4.07704">
        <ele>785.05</ele>
        <time>2023-05-27T10:38:42Z</time>
      </trkpt>
      <trkpt lat="45.41914" lon="4.07703">
        <ele>785.05</ele>
        <time>2023-05-27T10:38:43Z</time>
      </trkpt>
      <trkpt lat="45.41933" lon="4.07662">
        <ele>786.02</ele>
        <time>2023-05-27T10:39:04Z</time>
      </trkpt>
      <trkpt lat="45.4195" lon="4.07623">
        <ele>788.42</ele>
        <time>2023-05-27T10:39:23Z</time>
      </trkpt>
      <trkpt lat="45.41967" lon="4.07584">
        <ele>787.94</ele>
        <time>2023-05-27T10:39:43Z</time>
      </trkpt>
      <trkpt lat="45.41969" lon="4.07554">
        <ele>788.9</ele>
        <time>2023-05-27T10:39:59Z</time>
      </trkpt>
      <trkpt lat="45.41944" lon="4.0754">
        <ele>790.34</ele>
        <time>2023-05-27T10:40:16Z</time>
      </trkpt>
      <trkpt lat="45.41922" lon="4.07515">
        <ele>788.9</ele>
        <time>2023-05-27T10:40:35Z</time>
      </trkpt>
      <trkpt lat="45.41896" lon="4.0749">
        <ele>787.94</ele>
        <time>2023-05-27T10:40:54Z</time>
      </trkpt>
      <trkpt lat="45.41885" lon="4.07494">
        <ele>785.05</ele>
        <time>2023-05-27T10:41:06Z</time>
      </trkpt>
      <trkpt lat="45.41884" lon="4.07496">
        <ele>786.02</ele>
        <time>2023-05-27T10:41:27Z</time>
      </trkpt>
      <trkpt lat="45.4188" lon="4.07495">
        <ele>786.02</ele>
        <time>2023-05-27T10:41:48Z</time>
      </trkpt>
      <trkpt lat="45.41878" lon="4.07497">
        <ele>786.98</ele>
        <time>2023-05-27T10:42:11Z</time>
      </trkpt>
      <trkpt lat="45.41876" lon="4.07489">
        <ele>786.98</ele>
        <time>2023-05-27T10:42:28Z</time>
      </trkpt>
      <trkpt lat="45.41878" lon="4.07487">
        <ele>786.02</ele>
        <time>2023-05-27T10:42:52Z</time>
      </trkpt>
      <trkpt lat="45.41878" lon="4.07486">
        <ele>786.5</ele>
        <time>2023-05-27T10:42:58Z</time>
      </trkpt>
      <trkpt lat="45.41883" lon="4.07486">
        <ele>785.53</ele>
        <time>2023-05-27T10:43:14Z</time>
      </trkpt>
      <trkpt lat="45.41884" lon="4.07491">
        <ele>786.98</ele>
        <time>2023-05-27T10:43:41Z</time>
      </trkpt>
      <trkpt lat="45.41881" lon="4.07487">
        <ele>786.02</ele>
        <time>2023-05-27T10:43:52Z</time>
      </trkpt>
      <trkpt lat="45.41887" lon="4.07485">
        <ele>786.98</ele>
        <time>2023-05-27T10:44:02Z</time>
      </trkpt>
      <trkpt lat="45.41885" lon="4.07472">
        <ele>787.46</ele>
        <time>2023-05-27T10:44:10Z</time>
      </trkpt>
      <trkpt lat="45.41885" lon="4.07435">
        <ele>788.9</ele>
        <time>2023-05-27T10:44:29Z</time>
      </trkpt>
      <trkpt lat="45.41907" lon="4.07431">
        <ele>791.78</ele>
        <time>2023-05-27T10:44:45Z</time>
      </trkpt>
      <trkpt lat="45.41928" lon="4.07426">
        <ele>794.67</ele>
        <time>2023-05-27T10:45:03Z</time>
      </trkpt>
      <trkpt lat="45.41935" lon="4.07393">
        <ele>795.15</ele>
        <time>2023-05-27T10:45:17Z</time>
      </trkpt>
      <trkpt lat="45.41947" lon="4.07363">
        <ele>796.11</ele>
        <time>2023-05-27T10:45:34Z</time>
      </trkpt>
      <trkpt lat="45.41953" lon="4.07348">
        <ele>796.11</ele>
        <time>2023-05-27T10:45:50Z</time>
      </trkpt>
      <trkpt lat="45.41953" lon="4.07345">
        <ele>797.07</ele>
        <time>2023-05-27T10:46:07Z</time>
      </trkpt>
      <trkpt lat="45.41953" lon="4.07346">
        <ele>796.11</ele>
        <time>2023-05-27T10:46:36Z</time>
      </trkpt>
      <trkpt lat="45.41952" lon="4.07345">
        <ele>796.59</ele>
        <time>2023-05-27T10:46:58Z</time>
      </trkpt>
      <trkpt lat="45.41953" lon="4.07341">
        <ele>797.55</ele>
        <time>2023-05-27T10:47:22Z</time>
      </trkpt>
      <trkpt lat="45.41954" lon="4.0734">
        <ele>798.99</ele>
        <time>2023-05-27T10:47:45Z</time>
      </trkpt>
      <trkpt lat="45.41953" lon="4.07344">
        <ele>799.47</ele>
        <time>2023-05-27T10:48:00Z</time>
      </trkpt>
      <trkpt lat="45.41953" lon="4.07348">
        <ele>799.47</ele>
        <time>2023-05-27T10:48:14Z</time>
      </trkpt>
      <trkpt lat="45.41955" lon="4.07346">
        <ele>799.47</ele>
        <time>2023-05-27T10:48:34Z</time>
      </trkpt>
      <trkpt lat="45.41954" lon="4.07346">
        <ele>798.51</ele>
        <time>2023-05-27T10:48:57Z</time>
      </trkpt>
      <trkpt lat="45.41955" lon="4.07345">
        <ele>797.07</ele>
        <time>2023-05-27T10:49:15Z</time>
      </trkpt>
      <trkpt lat="45.41953" lon="4.0735">
        <ele>797.07</ele>
        <time>2023-05-27T10:49:38Z</time>
      </trkpt>
      <trkpt lat="45.41951" lon="4.07348">
        <ele>798.51</ele>
        <time>2023-05-27T10:49:55Z</time>
      </trkpt>
      <trkpt lat="45.41949" lon="4.07346">
        <ele>801.4</ele>
        <time>2023-05-27T10:50:15Z</time>
      </trkpt>
      <trkpt lat="45.41948" lon="4.07345">
        <ele>801.88</ele>
        <time>2023-05-27T10:50:36Z</time>
      </trkpt>
      <trkpt lat="45.41952" lon="4.07347">
        <ele>800.92</ele>
        <time>2023-05-27T10:50:52Z</time>
      </trkpt>
      <trkpt lat="45.41952" lon="4.07348">
        <ele>798.99</ele>
        <time>2023-05-27T10:51:09Z</time>
      </trkpt>
      <trkpt lat="45.41952" lon="4.07343">
        <ele>797.07</ele>
        <time>2023-05-27T10:51:32Z</time>
      </trkpt>
      <trkpt lat="45.41952" lon="4.07346">
        <ele>797.07</ele>
        <time>2023-05-27T10:51:59Z</time>
      </trkpt>
      <trkpt lat="45.41954" lon="4.07342">
        <ele>797.07</ele>
        <time>2023-05-27T10:52:17Z</time>
      </trkpt>
      <trkpt lat="45.41957" lon="4.0734">
        <ele>797.55</ele>
        <time>2023-05-27T10:52:31Z</time>
      </trkpt>
      <trkpt lat="45.41958" lon="4.07337">
        <ele>797.55</ele>
        <time>2023-05-27T10:52:46Z</time>
      </trkpt>
      <trkpt lat="45.41958" lon="4.07344">
        <ele>798.03</ele>
        <time>2023-05-27T10:53:05Z</time>
      </trkpt>
      <trkpt lat="45.41955" lon="4.07342">
        <ele>800.44</ele>
        <time>2023-05-27T10:53:20Z</time>
      </trkpt>
      <trkpt lat="45.41951" lon="4.07346">
        <ele>801.4</ele>
        <time>2023-05-27T10:53:41Z</time>
      </trkpt>
      <trkpt lat="45.41951" lon="4.07346">
        <ele>798.03</ele>
        <time>2023-05-27T10:54:00Z</time>
      </trkpt>
      <trkpt lat="45.41951" lon="4.07348">
        <ele>798.03</ele>
        <time>2023-05-27T10:54:16Z</time>
      </trkpt>
      <trkpt lat="45.41951" lon="4.07348">
        <ele>798.03</ele>
        <time>2023-05-27T10:54:31Z</time>
      </trkpt>
      <trkpt lat="45.41952" lon="4.07347">
        <ele>798.03</ele>
        <time>2023-05-27T10:54:47Z</time>
      </trkpt>
      <trkpt lat="45.41952" lon="4.07345">
        <ele>798.99</ele>
        <time>2023-05-27T10:55:04Z</time>
      </trkpt>
      <trkpt lat="45.41956" lon="4.07341">
        <ele>798.99</ele>
        <time>2023-05-27T10:55:21Z</time>
      </trkpt>
      <trkpt lat="45.41954" lon="4.07345">
        <ele>802.36</ele>
        <time>2023-05-27T10:55:38Z</time>
      </trkpt>
      <trkpt lat="45.4195" lon="4.07345">
        <ele>802.84</ele>
        <time>2023-05-27T10:55:57Z</time>
      </trkpt>
      <trkpt lat="45.41948" lon="4.07343">
        <ele>801.4</ele>
        <time>2023-05-27T10:56:20Z</time>
      </trkpt>
      <trkpt lat="45.41953" lon="4.07339">
        <ele>800.44</ele>
        <time>2023-05-27T10:56:41Z</time>
      </trkpt>
      <trkpt lat="45.41954" lon="4.07337">
        <ele>798.99</ele>
        <time>2023-05-27T10:56:56Z</time>
      </trkpt>
      <trkpt lat="45.41956" lon="4.07339">
        <ele>798.51</ele>
        <time>2023-05-27T10:57:19Z</time>
      </trkpt>
      <trkpt lat="45.41953" lon="4.0734">
        <ele>797.55</ele>
        <time>2023-05-27T10:58:00Z</time>
      </trkpt>
      <trkpt lat="45.41955" lon="4.07343">
        <ele>794.19</ele>
        <time>2023-05-27T10:58:39Z</time>
      </trkpt>
      <trkpt lat="45.41953" lon="4.0734">
        <ele>800.92</ele>
        <time>2023-05-27T10:59:13Z</time>
      </trkpt>
      <trkpt lat="45.41884" lon="4.07493">
        <ele>792.26</ele>
        <time>2023-05-27T12:25:30Z</time>
      </trkpt>
      <trkpt lat="45.41883" lon="4.07493">
        <ele>790.82</ele>
        <time>2023-05-27T12:25:46Z</time>
      </trkpt>
      <trkpt lat="45.41885" lon="4.07494">
        <ele>788.42</ele>
        <time>2023-05-27T12:26:10Z</time>
      </trkpt>
      <trkpt lat="45.41886" lon="4.07497">
        <ele>788.42</ele>
        <time>2023-05-27T12:26:37Z</time>
      </trkpt>
      <trkpt lat="45.41886" lon="4.07497">
        <ele>789.38</ele>
        <time>2023-05-27T12:27:09Z</time>
      </trkpt>
      <trkpt lat="45.41884" lon="4.07497">
        <ele>787.46</ele>
        <time>2023-05-27T12:27:26Z</time>
      </trkpt>
      <trkpt lat="45.41889" lon="4.07495">
        <ele>786.98</ele>
        <time>2023-05-27T12:27:39Z</time>
      </trkpt>
      <trkpt lat="45.41889" lon="4.07496">
        <ele>786.5</ele>
        <time>2023-05-27T12:27:56Z</time>
      </trkpt>
      <trkpt lat="45.4189" lon="4.07489">
        <ele>786.5</ele>
        <time>2023-05-27T12:28:11Z</time>
      </trkpt>
      <trkpt lat="45.41891" lon="4.07493">
        <ele>790.82</ele>
        <time>2023-05-27T12:28:35Z</time>
      </trkpt>
      <trkpt lat="45.41894" lon="4.07496">
        <ele>789.38</ele>
        <time>2023-05-27T12:28:52Z</time>
      </trkpt>
      <trkpt lat="45.41902" lon="4.07499">
        <ele>788.9</ele>
        <time>2023-05-27T12:29:06Z</time>
      </trkpt>
      <trkpt lat="45.41928" lon="4.07508">
        <ele>789.86</ele>
        <time>2023-05-27T12:29:21Z</time>
      </trkpt>
      <trkpt lat="45.41976" lon="4.0752">
        <ele>791.78</ele>
        <time>2023-05-27T12:29:49Z</time>
      </trkpt>
      <trkpt lat="45.41993" lon="4.07527">
        <ele>791.3</ele>
        <time>2023-05-27T12:30:04Z</time>
      </trkpt>
      <trkpt lat="45.41993" lon="4.0753">
        <ele>792.26</ele>
        <time>2023-05-27T12:30:34Z</time>
      </trkpt>
      <trkpt lat="45.42002" lon="4.07529">
        <ele>792.26</ele>
        <time>2023-05-27T12:30:47Z</time>
      </trkpt>
      <trkpt lat="45.4202" lon="4.07516">
        <ele>795.63</ele>
        <time>2023-05-27T12:31:05Z</time>
      </trkpt>
      <trkpt lat="45.4204" lon="4.07496">
        <ele>798.51</ele>
        <time>2023-05-27T12:31:24Z</time>
      </trkpt>
      <trkpt lat="45.42051" lon="4.0747">
        <ele>799.95</ele>
        <time>2023-05-27T12:31:43Z</time>
      </trkpt>
      <trkpt lat="45.42066" lon="4.07434">
        <ele>801.88</ele>
        <time>2023-05-27T12:32:04Z</time>
      </trkpt>
      <trkpt lat="45.4208" lon="4.07385">
        <ele>804.28</ele>
        <time>2023-05-27T12:32:31Z</time>
      </trkpt>
      <trkpt lat="45.42096" lon="4.07341">
        <ele>807.16</ele>
        <time>2023-05-27T12:32:56Z</time>
      </trkpt>
      <trkpt lat="45.42112" lon="4.07296">
        <ele>809.57</ele>
        <time>2023-05-27T12:33:14Z</time>
      </trkpt>
      <trkpt lat="45.42125" lon="4.07256">
        <ele>812.93</ele>
        <time>2023-05-27T12:33:32Z</time>
      </trkpt>
      <trkpt lat="45.42139" lon="4.07216">
        <ele>814.85</ele>
        <time>2023-05-27T12:33:55Z</time>
      </trkpt>
      <trkpt lat="45.42153" lon="4.07181">
        <ele>819.18</ele>
        <time>2023-05-27T12:34:16Z</time>
      </trkpt>
      <trkpt lat="45.42165" lon="4.07154">
        <ele>821.58</ele>
        <time>2023-05-27T12:34:31Z</time>
      </trkpt>
      <trkpt lat="45.42181" lon="4.07114">
        <ele>821.58</ele>
        <time>2023-05-27T12:34:52Z</time>
      </trkpt>
      <trkpt lat="45.4219" lon="4.07086">
        <ele>822.06</ele>
        <time>2023-05-27T12:35:09Z</time>
      </trkpt>
      <trkpt lat="45.42199" lon="4.07046">
        <ele>823.03</ele>
        <time>2023-05-27T12:35:30Z</time>
      </trkpt>
      <trkpt lat="45.42206" lon="4.07002">
        <ele>824.47</ele>
        <time>2023-05-27T12:35:53Z</time>
      </trkpt>
      <trkpt lat="45.42207" lon="4.06954">
        <ele>824.47</ele>
        <time>2023-05-27T12:36:16Z</time>
      </trkpt>
      <trkpt lat="45.42208" lon="4.06914">
        <ele>826.87</ele>
        <time>2023-05-27T12:36:33Z</time>
      </trkpt>
      <trkpt lat="45.42211" lon="4.06883">
        <ele>830.72</ele>
        <time>2023-05-27T12:36:49Z</time>
      </trkpt>
      <trkpt lat="45.42212" lon="4.06868">
        <ele>833.6</ele>
        <time>2023-05-27T12:36:59Z</time>
      </trkpt>
      <trkpt lat="45.42211" lon="4.06866">
        <ele>834.08</ele>
        <time>2023-05-27T12:37:00Z</time>
      </trkpt>
      <trkpt lat="45.42211" lon="4.06864">
        <ele>834.08</ele>
        <time>2023-05-27T12:37:01Z</time>
      </trkpt>
      <trkpt lat="45.42211" lon="4.06863">
        <ele>834.08</ele>
        <time>2023-05-27T12:37:02Z</time>
      </trkpt>
      <trkpt lat="45.42206" lon="4.06841">
        <ele>836</ele>
        <time>2023-05-27T12:37:16Z</time>
      </trkpt>
      <trkpt lat="45.42179" lon="4.06842">
        <ele>838.89</ele>
        <time>2023-05-27T12:37:35Z</time>
      </trkpt>
      <trkpt lat="45.42157" lon="4.06832">
        <ele>840.33</ele>
        <time>2023-05-27T12:37:53Z</time>
      </trkpt>
      <trkpt lat="45.42168" lon="4.06817">
        <ele>841.77</ele>
        <time>2023-05-27T12:38:06Z</time>
      </trkpt>
      <trkpt lat="45.42183" lon="4.06803">
        <ele>844.18</ele>
        <time>2023-05-27T12:38:18Z</time>
      </trkpt>
      <trkpt lat="45.42199" lon="4.06789">
        <ele>847.54</ele>
        <time>2023-05-27T12:38:34Z</time>
      </trkpt>
      <trkpt lat="45.42207" lon="4.0678">
        <ele>849.94</ele>
        <time>2023-05-27T12:38:42Z</time>
      </trkpt>
      <trkpt lat="45.42228" lon="4.06761">
        <ele>855.23</ele>
        <time>2023-05-27T12:38:58Z</time>
      </trkpt>
      <trkpt lat="45.42242" lon="4.06757">
        <ele>862.44</ele>
        <time>2023-05-27T12:39:14Z</time>
      </trkpt>
      <trkpt lat="45.42265" lon="4.06742">
        <ele>872.05</ele>
        <time>2023-05-27T12:39:32Z</time>
      </trkpt>
      <trkpt lat="45.42264" lon="4.06731">
        <ele>877.34</ele>
        <time>2023-05-27T12:39:42Z</time>
      </trkpt>
      <trkpt lat="45.42262" lon="4.06686">
        <ele>878.78</ele>
        <time>2023-05-27T12:40:00Z</time>
      </trkpt>
      <trkpt lat="45.42257" lon="4.06663">
        <ele>879.74</ele>
        <time>2023-05-27T12:40:10Z</time>
      </trkpt>
      <trkpt lat="45.4226" lon="4.06645">
        <ele>880.22</ele>
        <time>2023-05-27T12:40:19Z</time>
      </trkpt>
      <trkpt lat="45.42264" lon="4.06628">
        <ele>890.32</ele>
        <time>2023-05-27T12:40:35Z</time>
      </trkpt>
      <trkpt lat="45.42268" lon="4.06632">
        <ele>898.01</ele>
        <time>2023-05-27T12:40:46Z</time>
      </trkpt>
      <trkpt lat="45.42283" lon="4.06648">
        <ele>906.18</ele>
        <time>2023-05-27T12:41:00Z</time>
      </trkpt>
      <trkpt lat="45.42301" lon="4.06658">
        <ele>915.31</ele>
        <time>2023-05-27T12:41:15Z</time>
      </trkpt>
      <trkpt lat="45.42309" lon="4.06675">
        <ele>913.87</ele>
        <time>2023-05-27T12:41:21Z</time>
      </trkpt>
      <trkpt lat="45.42319" lon="4.067">
        <ele>917.24</ele>
        <time>2023-05-27T12:41:39Z</time>
      </trkpt>
      <trkpt lat="45.42336" lon="4.06726">
        <ele>916.75</ele>
        <time>2023-05-27T12:41:55Z</time>
      </trkpt>
      <trkpt lat="45.42339" lon="4.06728">
        <ele>914.35</ele>
        <time>2023-05-27T12:41:56Z</time>
      </trkpt>
      <trkpt lat="45.42353" lon="4.06778">
        <ele>894.16</ele>
        <time>2023-05-27T12:42:17Z</time>
      </trkpt>
      <trkpt lat="45.42355" lon="4.06793">
        <ele>888.4</ele>
        <time>2023-05-27T12:42:35Z</time>
      </trkpt>
      <trkpt lat="45.42362" lon="4.06797">
        <ele>893.2</ele>
        <time>2023-05-27T12:42:50Z</time>
      </trkpt>
      <trkpt lat="45.42363" lon="4.06798">
        <ele>893.68</ele>
        <time>2023-05-27T12:42:51Z</time>
      </trkpt>
      <trkpt lat="45.42369" lon="4.06794">
        <ele>897.05</ele>
        <time>2023-05-27T12:42:58Z</time>
      </trkpt>
      <trkpt lat="45.42377" lon="4.06766">
        <ele>896.09</ele>
        <time>2023-05-27T12:43:11Z</time>
      </trkpt>
      <trkpt lat="45.42386" lon="4.06761">
        <ele>897.05</ele>
        <time>2023-05-27T12:43:27Z</time>
      </trkpt>
      <trkpt lat="45.42391" lon="4.06764">
        <ele>897.05</ele>
        <time>2023-05-27T12:43:43Z</time>
      </trkpt>
      <trkpt lat="45.42392" lon="4.06767">
        <ele>894.64</ele>
        <time>2023-05-27T12:43:54Z</time>
      </trkpt>
      <trkpt lat="45.42389" lon="4.06767">
        <ele>894.64</ele>
        <time>2023-05-27T12:44:09Z</time>
      </trkpt>
      <trkpt lat="45.42388" lon="4.06769">
        <ele>891.76</ele>
        <time>2023-05-27T12:44:25Z</time>
      </trkpt>
      <trkpt lat="45.42391" lon="4.06773">
        <ele>889.36</ele>
        <time>2023-05-27T12:44:49Z</time>
      </trkpt>
      <trkpt lat="45.42393" lon="4.06774">
        <ele>888.88</ele>
        <time>2023-05-27T12:45:10Z</time>
      </trkpt>
      <trkpt lat="45.42389" lon="4.06773">
        <ele>890.32</ele>
        <time>2023-05-27T12:45:48Z</time>
      </trkpt>
      <trkpt lat="45.42391" lon="4.06782">
        <ele>887.43</ele>
        <time>2023-05-27T12:46:08Z</time>
      </trkpt>
      <trkpt lat="45.42397" lon="4.06781">
        <ele>885.51</ele>
        <time>2023-05-27T12:46:29Z</time>
      </trkpt>
      <trkpt lat="45.42392" lon="4.06788">
        <ele>887.91</ele>
        <time>2023-05-27T12:46:55Z</time>
      </trkpt>
      <trkpt lat="45.42391" lon="4.06787">
        <ele>887.91</ele>
        <time>2023-05-27T12:47:26Z</time>
      </trkpt>
      <trkpt lat="45.4239" lon="4.06788">
        <ele>890.32</ele>
        <time>2023-05-27T12:47:59Z</time>
      </trkpt>
      <trkpt lat="45.4239" lon="4.06789">
        <ele>889.36</ele>
        <time>2023-05-27T12:48:27Z</time>
      </trkpt>
      <trkpt lat="45.42389" lon="4.06787">
        <ele>889.36</ele>
        <time>2023-05-27T12:48:40Z</time>
      </trkpt>
      <trkpt lat="45.42386" lon="4.06781">
        <ele>888.4</ele>
        <time>2023-05-27T12:48:55Z</time>
      </trkpt>
      <trkpt lat="45.42385" lon="4.06789">
        <ele>887.43</ele>
        <time>2023-05-27T12:49:03Z</time>
      </trkpt>
      <trkpt lat="45.42362" lon="4.06794">
        <ele>885.03</ele>
        <time>2023-05-27T12:49:22Z</time>
      </trkpt>
      <trkpt lat="45.42349" lon="4.06775">
        <ele>883.59</ele>
        <time>2023-05-27T12:49:39Z</time>
      </trkpt>
      <trkpt lat="45.42346" lon="4.06739">
        <ele>882.63</ele>
        <time>2023-05-27T12:49:58Z</time>
      </trkpt>
      <trkpt lat="45.42338" lon="4.06722">
        <ele>881.67</ele>
        <time>2023-05-27T12:50:13Z</time>
      </trkpt>
      <trkpt lat="45.4233" lon="4.06713">
        <ele>880.22</ele>
        <time>2023-05-27T12:50:22Z</time>
      </trkpt>
      <trkpt lat="45.42322" lon="4.06712">
        <ele>879.26</ele>
        <time>2023-05-27T12:50:29Z</time>
      </trkpt>
      <trkpt lat="45.42316" lon="4.06694">
        <ele>876.86</ele>
        <time>2023-05-27T12:50:41Z</time>
      </trkpt>
      <trkpt lat="45.4232" lon="4.06664">
        <ele>873.01</ele>
        <time>2023-05-27T12:50:58Z</time>
      </trkpt>
      <trkpt lat="45.42333" lon="4.06633">
        <ele>868.21</ele>
        <time>2023-05-27T12:51:19Z</time>
      </trkpt>
      <trkpt lat="45.42306" lon="4.06621">
        <ele>866.29</ele>
        <time>2023-05-27T12:51:34Z</time>
      </trkpt>
      <trkpt lat="45.42297" lon="4.06616">
        <ele>864.84</ele>
        <time>2023-05-27T12:51:46Z</time>
      </trkpt>
      <trkpt lat="45.42276" lon="4.06611">
        <ele>864.36</ele>
        <time>2023-05-27T12:51:58Z</time>
      </trkpt>
      <trkpt lat="45.42277" lon="4.06573">
        <ele>858.59</ele>
        <time>2023-05-27T12:52:17Z</time>
      </trkpt>
      <trkpt lat="45.42276" lon="4.06536">
        <ele>859.08</ele>
        <time>2023-05-27T12:52:35Z</time>
      </trkpt>
      <trkpt lat="45.42283" lon="4.06507">
        <ele>865.32</ele>
        <time>2023-05-27T12:52:50Z</time>
      </trkpt>
      <trkpt lat="45.42291" lon="4.06478">
        <ele>868.21</ele>
        <time>2023-05-27T12:53:07Z</time>
      </trkpt>
      <trkpt lat="45.42301" lon="4.06442">
        <ele>871.57</ele>
        <time>2023-05-27T12:53:25Z</time>
      </trkpt>
      <trkpt lat="45.42311" lon="4.06422">
        <ele>874.46</ele>
        <time>2023-05-27T12:53:40Z</time>
      </trkpt>
      <trkpt lat="45.42332" lon="4.06412">
        <ele>876.86</ele>
        <time>2023-05-27T12:53:57Z</time>
      </trkpt>
      <trkpt lat="45.42349" lon="4.06399">
        <ele>877.82</ele>
        <time>2023-05-27T12:54:12Z</time>
      </trkpt>
      <trkpt lat="45.42361" lon="4.06359">
        <ele>880.22</ele>
        <time>2023-05-27T12:54:31Z</time>
      </trkpt>
      <trkpt lat="45.42359" lon="4.06329">
        <ele>879.26</ele>
        <time>2023-05-27T12:54:48Z</time>
      </trkpt>
      <trkpt lat="45.42364" lon="4.06306">
        <ele>877.82</ele>
        <time>2023-05-27T12:55:05Z</time>
      </trkpt>
      <trkpt lat="45.42385" lon="4.06299">
        <ele>876.86</ele>
        <time>2023-05-27T12:55:21Z</time>
      </trkpt>
      <trkpt lat="45.42412" lon="4.06292">
        <ele>873.98</ele>
        <time>2023-05-27T12:55:42Z</time>
      </trkpt>
      <trkpt lat="45.42428" lon="4.06283">
        <ele>875.9</ele>
        <time>2023-05-27T12:55:56Z</time>
      </trkpt>
      <trkpt lat="45.42447" lon="4.06261">
        <ele>876.86</ele>
        <time>2023-05-27T12:56:12Z</time>
      </trkpt>
      <trkpt lat="45.42466" lon="4.06236">
        <ele>875.42</ele>
        <time>2023-05-27T12:56:28Z</time>
      </trkpt>
      <trkpt lat="45.42488" lon="4.06208">
        <ele>873.5</ele>
        <time>2023-05-27T12:56:47Z</time>
      </trkpt>
      <trkpt lat="45.42504" lon="4.06183">
        <ele>874.94</ele>
        <time>2023-05-27T12:57:02Z</time>
      </trkpt>
      <trkpt lat="45.42514" lon="4.06151">
        <ele>877.82</ele>
        <time>2023-05-27T12:57:16Z</time>
      </trkpt>
      <trkpt lat="45.42516" lon="4.06144">
        <ele>878.78</ele>
        <time>2023-05-27T12:57:21Z</time>
      </trkpt>
      <trkpt lat="45.42515" lon="4.06139">
        <ele>880.22</ele>
        <time>2023-05-27T12:57:25Z</time>
      </trkpt>
      <trkpt lat="45.42507" lon="4.06122">
        <ele>884.07</ele>
        <time>2023-05-27T12:57:38Z</time>
      </trkpt>
      <trkpt lat="45.42521" lon="4.06099">
        <ele>888.4</ele>
        <time>2023-05-27T12:57:55Z</time>
      </trkpt>
      <trkpt lat="45.42539" lon="4.06077">
        <ele>896.57</ele>
        <time>2023-05-27T12:58:13Z</time>
      </trkpt>
      <trkpt lat="45.4255" lon="4.06039">
        <ele>901.85</ele>
        <time>2023-05-27T12:58:32Z</time>
      </trkpt>
      <trkpt lat="45.42553" lon="4.06011">
        <ele>904.26</ele>
        <time>2023-05-27T12:58:46Z</time>
      </trkpt>
      <trkpt lat="45.4256" lon="4.05988">
        <ele>909.06</ele>
        <time>2023-05-27T12:59:02Z</time>
      </trkpt>
      <trkpt lat="45.42562" lon="4.0596">
        <ele>907.62</ele>
        <time>2023-05-27T12:59:18Z</time>
      </trkpt>
      <trkpt lat="45.42556" lon="4.05911">
        <ele>901.85</ele>
        <time>2023-05-27T12:59:36Z</time>
      </trkpt>
      <trkpt lat="45.4255" lon="4.05884">
        <ele>898.49</ele>
        <time>2023-05-27T12:59:50Z</time>
      </trkpt>
      <trkpt lat="45.42547" lon="4.05842">
        <ele>898.97</ele>
        <time>2023-05-27T13:00:06Z</time>
      </trkpt>
      <trkpt lat="45.42542" lon="4.05797">
        <ele>900.41</ele>
        <time>2023-05-27T13:00:21Z</time>
      </trkpt>
      <trkpt lat="45.42543" lon="4.05752">
        <ele>904.74</ele>
        <time>2023-05-27T13:00:40Z</time>
      </trkpt>
      <trkpt lat="45.42546" lon="4.05726">
        <ele>909.06</ele>
        <time>2023-05-27T13:00:53Z</time>
      </trkpt>
      <trkpt lat="45.42549" lon="4.05697">
        <ele>911.47</ele>
        <time>2023-05-27T13:01:09Z</time>
      </trkpt>
      <trkpt lat="45.42554" lon="4.05664">
        <ele>915.31</ele>
        <time>2023-05-27T13:01:23Z</time>
      </trkpt>
      <trkpt lat="45.42559" lon="4.05631">
        <ele>921.08</ele>
        <time>2023-05-27T13:01:39Z</time>
      </trkpt>
      <trkpt lat="45.42565" lon="4.05597">
        <ele>924.93</ele>
        <time>2023-05-27T13:01:54Z</time>
      </trkpt>
      <trkpt lat="45.4257" lon="4.05568">
        <ele>925.89</ele>
        <time>2023-05-27T13:02:09Z</time>
      </trkpt>
      <trkpt lat="45.42578" lon="4.05536">
        <ele>927.33</ele>
        <time>2023-05-27T13:02:25Z</time>
      </trkpt>
      <trkpt lat="45.42585" lon="4.05498">
        <ele>926.85</ele>
        <time>2023-05-27T13:02:44Z</time>
      </trkpt>
      <trkpt lat="45.42587" lon="4.05472">
        <ele>926.85</ele>
        <time>2023-05-27T13:03:01Z</time>
      </trkpt>
      <trkpt lat="45.42597" lon="4.05441">
        <ele>935.02</ele>
        <time>2023-05-27T13:03:17Z</time>
      </trkpt>
      <trkpt lat="45.42605" lon="4.05408">
        <ele>945.59</ele>
        <time>2023-05-27T13:03:35Z</time>
      </trkpt>
      <trkpt lat="45.42618" lon="4.05379">
        <ele>950.4</ele>
        <time>2023-05-27T13:03:52Z</time>
      </trkpt>
      <trkpt lat="45.4263" lon="4.05342">
        <ele>949.92</ele>
        <time>2023-05-27T13:04:13Z</time>
      </trkpt>
      <trkpt lat="45.4264" lon="4.05317">
        <ele>948.96</ele>
        <time>2023-05-27T13:04:27Z</time>
      </trkpt>
      <trkpt lat="45.42655" lon="4.05279">
        <ele>947.04</ele>
        <time>2023-05-27T13:04:49Z</time>
      </trkpt>
      <trkpt lat="45.42667" lon="4.05246">
        <ele>946.56</ele>
        <time>2023-05-27T13:05:07Z</time>
      </trkpt>
      <trkpt lat="45.42681" lon="4.05214">
        <ele>944.15</ele>
        <time>2023-05-27T13:05:26Z</time>
      </trkpt>
      <trkpt lat="45.42692" lon="4.05185">
        <ele>943.67</ele>
        <time>2023-05-27T13:05:45Z</time>
      </trkpt>
      <trkpt lat="45.42704" lon="4.05153">
        <ele>942.71</ele>
        <time>2023-05-27T13:06:03Z</time>
      </trkpt>
      <trkpt lat="45.42718" lon="4.05118">
        <ele>941.75</ele>
        <time>2023-05-27T13:06:23Z</time>
      </trkpt>
      <trkpt lat="45.4273" lon="4.05085">
        <ele>942.71</ele>
        <time>2023-05-27T13:06:41Z</time>
      </trkpt>
      <trkpt lat="45.42732" lon="4.05039">
        <ele>943.19</ele>
        <time>2023-05-27T13:07:02Z</time>
      </trkpt>
      <trkpt lat="45.42734" lon="4.04993">
        <ele>946.56</ele>
        <time>2023-05-27T13:07:22Z</time>
      </trkpt>
      <trkpt lat="45.42739" lon="4.04941">
        <ele>945.59</ele>
        <time>2023-05-27T13:07:46Z</time>
      </trkpt>
      <trkpt lat="45.4274" lon="4.04897">
        <ele>945.59</ele>
        <time>2023-05-27T13:08:08Z</time>
      </trkpt>
      <trkpt lat="45.42743" lon="4.04856">
        <ele>946.56</ele>
        <time>2023-05-27T13:08:24Z</time>
      </trkpt>
      <trkpt lat="45.42741" lon="4.04819">
        <ele>944.15</ele>
        <time>2023-05-27T13:08:42Z</time>
      </trkpt>
      <trkpt lat="45.42734" lon="4.04777">
        <ele>944.63</ele>
        <time>2023-05-27T13:09:00Z</time>
      </trkpt>
      <trkpt lat="45.42728" lon="4.04742">
        <ele>946.07</ele>
        <time>2023-05-27T13:09:19Z</time>
      </trkpt>
      <trkpt lat="45.4272" lon="4.04725">
        <ele>948.96</ele>
        <time>2023-05-27T13:09:30Z</time>
      </trkpt>
      <trkpt lat="45.42717" lon="4.04718">
        <ele>948.96</ele>
        <time>2023-05-27T13:09:34Z</time>
      </trkpt>
      <trkpt lat="45.42717" lon="4.04716">
        <ele>948.96</ele>
        <time>2023-05-27T13:09:35Z</time>
      </trkpt>
      <trkpt lat="45.42712" lon="4.04695">
        <ele>950.88</ele>
        <time>2023-05-27T13:09:50Z</time>
      </trkpt>
      <trkpt lat="45.42712" lon="4.04669">
        <ele>951.84</ele>
        <time>2023-05-27T13:10:05Z</time>
      </trkpt>
      <trkpt lat="45.4271" lon="4.0464">
        <ele>953.77</ele>
        <time>2023-05-27T13:10:21Z</time>
      </trkpt>
      <trkpt lat="45.42713" lon="4.0462">
        <ele>953.28</ele>
        <time>2023-05-27T13:10:32Z</time>
      </trkpt>
      <trkpt lat="45.42714" lon="4.04615">
        <ele>953.28</ele>
        <time>2023-05-27T13:10:36Z</time>
      </trkpt>
      <trkpt lat="45.42715" lon="4.04613">
        <ele>953.77</ele>
        <time>2023-05-27T13:10:37Z</time>
      </trkpt>
      <trkpt lat="45.42721" lon="4.04586">
        <ele>956.65</ele>
        <time>2023-05-27T13:10:52Z</time>
      </trkpt>
      <trkpt lat="45.42735" lon="4.04556">
        <ele>956.65</ele>
        <time>2023-05-27T13:11:10Z</time>
      </trkpt>
      <trkpt lat="45.42745" lon="4.04521">
        <ele>951.84</ele>
        <time>2023-05-27T13:11:29Z</time>
      </trkpt>
      <trkpt lat="45.42748" lon="4.04489">
        <ele>949.92</ele>
        <time>2023-05-27T13:11:46Z</time>
      </trkpt>
      <trkpt lat="45.42743" lon="4.04463">
        <ele>952.32</ele>
        <time>2023-05-27T13:12:00Z</time>
      </trkpt>
      <trkpt lat="45.42735" lon="4.04433">
        <ele>958.09</ele>
        <time>2023-05-27T13:12:15Z</time>
      </trkpt>
      <trkpt lat="45.42729" lon="4.04421">
        <ele>959.05</ele>
        <time>2023-05-27T13:12:29Z</time>
      </trkpt>
      <trkpt lat="45.4273" lon="4.0441">
        <ele>958.09</ele>
        <time>2023-05-27T13:12:36Z</time>
      </trkpt>
      <trkpt lat="45.4273" lon="4.04408">
        <ele>958.09</ele>
        <time>2023-05-27T13:12:37Z</time>
      </trkpt>
      <trkpt lat="45.42731" lon="4.0437">
        <ele>956.17</ele>
        <time>2023-05-27T13:12:54Z</time>
      </trkpt>
      <trkpt lat="45.42733" lon="4.04326">
        <ele>955.69</ele>
        <time>2023-05-27T13:13:13Z</time>
      </trkpt>
      <trkpt lat="45.42733" lon="4.0429">
        <ele>957.61</ele>
        <time>2023-05-27T13:13:31Z</time>
      </trkpt>
      <trkpt lat="45.42727" lon="4.0426">
        <ele>959.53</ele>
        <time>2023-05-27T13:13:46Z</time>
      </trkpt>
      <trkpt lat="45.42719" lon="4.04217">
        <ele>960.98</ele>
        <time>2023-05-27T13:14:08Z</time>
      </trkpt>
      <trkpt lat="45.42714" lon="4.04177">
        <ele>962.9</ele>
        <time>2023-05-27T13:14:27Z</time>
      </trkpt>
      <trkpt lat="45.42711" lon="4.0416">
        <ele>962.9</ele>
        <time>2023-05-27T13:14:38Z</time>
      </trkpt>
      <trkpt lat="45.4271" lon="4.04158">
        <ele>963.38</ele>
        <time>2023-05-27T13:14:39Z</time>
      </trkpt>
      <trkpt lat="45.42709" lon="4.04137">
        <ele>963.38</ele>
        <time>2023-05-27T13:14:50Z</time>
      </trkpt>
      <trkpt lat="45.42709" lon="4.04134">
        <ele>963.38</ele>
        <time>2023-05-27T13:14:51Z</time>
      </trkpt>
      <trkpt lat="45.42709" lon="4.04132">
        <ele>963.38</ele>
        <time>2023-05-27T13:14:52Z</time>
      </trkpt>
      <trkpt lat="45.42708" lon="4.04129">
        <ele>963.38</ele>
        <time>2023-05-27T13:14:53Z</time>
      </trkpt>
      <trkpt lat="45.42708" lon="4.04128">
        <ele>963.38</ele>
        <time>2023-05-27T13:14:54Z</time>
      </trkpt>
      <trkpt lat="45.42701" lon="4.04094">
        <ele>965.3</ele>
        <time>2023-05-27T13:15:10Z</time>
      </trkpt>
      <trkpt lat="45.42699" lon="4.04062">
        <ele>964.34</ele>
        <time>2023-05-27T13:15:23Z</time>
      </trkpt>
      <trkpt lat="45.42706" lon="4.04018">
        <ele>961.46</ele>
        <time>2023-05-27T13:15:43Z</time>
      </trkpt>
      <trkpt lat="45.4272" lon="4.0398">
        <ele>956.65</ele>
        <time>2023-05-27T13:16:02Z</time>
      </trkpt>
      <trkpt lat="45.42729" lon="4.0395">
        <ele>951.84</ele>
        <time>2023-05-27T13:16:18Z</time>
      </trkpt>
      <trkpt lat="45.42734" lon="4.03913">
        <ele>951.36</ele>
        <time>2023-05-27T13:16:34Z</time>
      </trkpt>
      <trkpt lat="45.42738" lon="4.03874">
        <ele>957.13</ele>
        <time>2023-05-27T13:16:53Z</time>
      </trkpt>
      <trkpt lat="45.42737" lon="4.03841">
        <ele>958.57</ele>
        <time>2023-05-27T13:17:08Z</time>
      </trkpt>
      <trkpt lat="45.4274" lon="4.038">
        <ele>959.53</ele>
        <time>2023-05-27T13:17:22Z</time>
      </trkpt>
      <trkpt lat="45.42744" lon="4.03751">
        <ele>959.05</ele>
        <time>2023-05-27T13:17:38Z</time>
      </trkpt>
      <trkpt lat="45.42741" lon="4.03703">
        <ele>957.13</ele>
        <time>2023-05-27T13:18:01Z</time>
      </trkpt>
      <trkpt lat="45.42744" lon="4.03667">
        <ele>955.21</ele>
        <time>2023-05-27T13:18:19Z</time>
      </trkpt>
      <trkpt lat="45.42762" lon="4.03636">
        <ele>954.73</ele>
        <time>2023-05-27T13:18:35Z</time>
      </trkpt>
      <trkpt lat="45.42766" lon="4.03599">
        <ele>956.17</ele>
        <time>2023-05-27T13:18:52Z</time>
      </trkpt>
      <trkpt lat="45.42765" lon="4.03563">
        <ele>955.21</ele>
        <time>2023-05-27T13:19:10Z</time>
      </trkpt>
      <trkpt lat="45.42766" lon="4.03523">
        <ele>952.32</ele>
        <time>2023-05-27T13:19:28Z</time>
      </trkpt>
      <trkpt lat="45.42764" lon="4.03486">
        <ele>951.84</ele>
        <time>2023-05-27T13:19:45Z</time>
      </trkpt>
      <trkpt lat="45.42759" lon="4.03444">
        <ele>953.28</ele>
        <time>2023-05-27T13:20:04Z</time>
      </trkpt>
      <trkpt lat="45.42757" lon="4.03415">
        <ele>951.36</ele>
        <time>2023-05-27T13:20:19Z</time>
      </trkpt>
      <trkpt lat="45.42756" lon="4.03383">
        <ele>946.07</ele>
        <time>2023-05-27T13:20:34Z</time>
      </trkpt>
      <trkpt lat="45.42758" lon="4.0335">
        <ele>936.94</ele>
        <time>2023-05-27T13:20:51Z</time>
      </trkpt>
      <trkpt lat="45.42757" lon="4.03322">
        <ele>928.29</ele>
        <time>2023-05-27T13:21:07Z</time>
      </trkpt>
      <trkpt lat="45.4276" lon="4.03309">
        <ele>920.12</ele>
        <time>2023-05-27T13:21:20Z</time>
      </trkpt>
      <trkpt lat="45.42762" lon="4.03288">
        <ele>911.47</ele>
        <time>2023-05-27T13:21:34Z</time>
      </trkpt>
      <trkpt lat="45.4276" lon="4.03266">
        <ele>900.41</ele>
        <time>2023-05-27T13:21:47Z</time>
      </trkpt>
      <trkpt lat="45.42773" lon="4.03251">
        <ele>884.55</ele>
        <time>2023-05-27T13:22:02Z</time>
      </trkpt>
      <trkpt lat="45.42789" lon="4.03223">
        <ele>868.69</ele>
        <time>2023-05-27T13:22:18Z</time>
      </trkpt>
      <trkpt lat="45.42795" lon="4.03217">
        <ele>860.52</ele>
        <time>2023-05-27T13:22:25Z</time>
      </trkpt>
      <trkpt lat="45.42807" lon="4.03202">
        <ele>843.21</ele>
        <time>2023-05-27T13:22:40Z</time>
      </trkpt>
      <trkpt lat="45.42808" lon="4.032">
        <ele>841.29</ele>
        <time>2023-05-27T13:22:42Z</time>
      </trkpt>
      <trkpt lat="45.42786" lon="4.03164">
        <ele>839.85</ele>
        <time>2023-05-27T13:22:56Z</time>
      </trkpt>
      <trkpt lat="45.4277" lon="4.03136">
        <ele>840.33</ele>
        <time>2023-05-27T13:23:08Z</time>
      </trkpt>
      <trkpt lat="45.42772" lon="4.0313">
        <ele>839.37</ele>
        <time>2023-05-27T13:23:11Z</time>
      </trkpt>
      <trkpt lat="45.42787" lon="4.03097">
        <ele>840.81</ele>
        <time>2023-05-27T13:23:26Z</time>
      </trkpt>
      <trkpt lat="45.42796" lon="4.03061">
        <ele>841.29</ele>
        <time>2023-05-27T13:23:41Z</time>
      </trkpt>
      <trkpt lat="45.42804" lon="4.03027">
        <ele>838.89</ele>
        <time>2023-05-27T13:23:56Z</time>
      </trkpt>
      <trkpt lat="45.42809" lon="4.03018">
        <ele>835.52</ele>
        <time>2023-05-27T13:24:04Z</time>
      </trkpt>
      <trkpt lat="45.42771" lon="4.02991">
        <ele>859.08</ele>
        <time>2023-05-27T13:24:16Z</time>
      </trkpt>
      <trkpt lat="45.42743" lon="4.02981">
        <ele>869.65</ele>
        <time>2023-05-27T13:24:32Z</time>
      </trkpt>
      <trkpt lat="45.42742" lon="4.0297">
        <ele>873.98</ele>
        <time>2023-05-27T13:24:45Z</time>
      </trkpt>
      <trkpt lat="45.42736" lon="4.02962">
        <ele>885.51</ele>
        <time>2023-05-27T13:25:07Z</time>
      </trkpt>
      <trkpt lat="45.42732" lon="4.0295">
        <ele>885.51</ele>
        <time>2023-05-27T13:25:32Z</time>
      </trkpt>
      <trkpt lat="45.42715" lon="4.02932">
        <ele>888.4</ele>
        <time>2023-05-27T13:25:46Z</time>
      </trkpt>
      <trkpt lat="45.42709" lon="4.02924">
        <ele>890.32</ele>
        <time>2023-05-27T13:25:51Z</time>
      </trkpt>
      <trkpt lat="45.427" lon="4.02886">
        <ele>891.28</ele>
        <time>2023-05-27T13:26:08Z</time>
      </trkpt>
      <trkpt lat="45.42689" lon="4.0285">
        <ele>892.72</ele>
        <time>2023-05-27T13:26:24Z</time>
      </trkpt>
      <trkpt lat="45.42674" lon="4.02827">
        <ele>898.49</ele>
        <time>2023-05-27T13:26:39Z</time>
      </trkpt>
      <trkpt lat="45.42674" lon="4.02825">
        <ele>898.49</ele>
        <time>2023-05-27T13:26:40Z</time>
      </trkpt>
      <trkpt lat="45.42674" lon="4.02823">
        <ele>899.45</ele>
        <time>2023-05-27T13:26:41Z</time>
      </trkpt>
      <trkpt lat="45.42672" lon="4.0282">
        <ele>899.93</ele>
        <time>2023-05-27T13:26:42Z</time>
      </trkpt>
      <trkpt lat="45.42671" lon="4.02819">
        <ele>900.41</ele>
        <time>2023-05-27T13:26:43Z</time>
      </trkpt>
      <trkpt lat="45.4267" lon="4.02817">
        <ele>900.89</ele>
        <time>2023-05-27T13:26:44Z</time>
      </trkpt>
      <trkpt lat="45.42669" lon="4.02816">
        <ele>901.37</ele>
        <time>2023-05-27T13:26:45Z</time>
      </trkpt>
      <trkpt lat="45.42654" lon="4.02789">
        <ele>906.66</ele>
        <time>2023-05-27T13:27:02Z</time>
      </trkpt>
      <trkpt lat="45.42638" lon="4.02762">
        <ele>906.66</ele>
        <time>2023-05-27T13:27:19Z</time>
      </trkpt>
      <trkpt lat="45.42622" lon="4.02734">
        <ele>907.62</ele>
        <time>2023-05-27T13:27:36Z</time>
      </trkpt>
      <trkpt lat="45.42603" lon="4.02702">
        <ele>913.87</ele>
        <time>2023-05-27T13:27:53Z</time>
      </trkpt>
      <trkpt lat="45.42579" lon="4.02679">
        <ele>925.41</ele>
        <time>2023-05-27T13:28:10Z</time>
      </trkpt>
      <trkpt lat="45.42556" lon="4.02652">
        <ele>929.73</ele>
        <time>2023-05-27T13:28:26Z</time>
      </trkpt>
      <trkpt lat="45.42535" lon="4.02633">
        <ele>934.54</ele>
        <time>2023-05-27T13:28:44Z</time>
      </trkpt>
      <trkpt lat="45.42511" lon="4.02617">
        <ele>939.83</ele>
        <time>2023-05-27T13:29:03Z</time>
      </trkpt>
      <trkpt lat="45.42494" lon="4.02602">
        <ele>939.35</ele>
        <time>2023-05-27T13:29:16Z</time>
      </trkpt>
      <trkpt lat="45.42469" lon="4.02576">
        <ele>933.58</ele>
        <time>2023-05-27T13:29:34Z</time>
      </trkpt>
      <trkpt lat="45.42442" lon="4.02561">
        <ele>934.54</ele>
        <time>2023-05-27T13:29:52Z</time>
      </trkpt>
      <trkpt lat="45.42419" lon="4.02544">
        <ele>935.98</ele>
        <time>2023-05-27T13:30:09Z</time>
      </trkpt>
      <trkpt lat="45.42397" lon="4.02523">
        <ele>934.54</ele>
        <time>2023-05-27T13:30:24Z</time>
      </trkpt>
      <trkpt lat="45.42372" lon="4.02502">
        <ele>931.65</ele>
        <time>2023-05-27T13:30:45Z</time>
      </trkpt>
      <trkpt lat="45.4235" lon="4.02481">
        <ele>933.1</ele>
        <time>2023-05-27T13:31:02Z</time>
      </trkpt>
      <trkpt lat="45.42329" lon="4.02465">
        <ele>932.14</ele>
        <time>2023-05-27T13:31:20Z</time>
      </trkpt>
      <trkpt lat="45.42325" lon="4.02461">
        <ele>934.54</ele>
        <time>2023-05-27T13:31:37Z</time>
      </trkpt>
      <trkpt lat="45.42318" lon="4.02458">
        <ele>932.62</ele>
        <time>2023-05-27T13:31:55Z</time>
      </trkpt>
      <trkpt lat="45.42313" lon="4.02459">
        <ele>931.17</ele>
        <time>2023-05-27T13:32:10Z</time>
      </trkpt>
      <trkpt lat="45.42311" lon="4.02459">
        <ele>933.58</ele>
        <time>2023-05-27T13:32:33Z</time>
      </trkpt>
      <trkpt lat="45.42313" lon="4.02461">
        <ele>937.42</ele>
        <time>2023-05-27T13:33:12Z</time>
      </trkpt>
      <trkpt lat="45.4231" lon="4.02461">
        <ele>940.31</ele>
        <time>2023-05-27T13:33:45Z</time>
      </trkpt>
      <trkpt lat="45.42311" lon="4.02458">
        <ele>938.86</ele>
        <time>2023-05-27T13:34:11Z</time>
      </trkpt>
      <trkpt lat="45.42308" lon="4.02458">
        <ele>938.86</ele>
        <time>2023-05-27T13:34:32Z</time>
      </trkpt>
      <trkpt lat="45.42282" lon="4.02454">
        <ele>936.94</ele>
        <time>2023-05-27T13:34:53Z</time>
      </trkpt>
      <trkpt lat="45.4226" lon="4.02459">
        <ele>935.5</ele>
        <time>2023-05-27T13:35:11Z</time>
      </trkpt>
      <trkpt lat="45.42238" lon="4.02454">
        <ele>932.62</ele>
        <time>2023-05-27T13:35:28Z</time>
      </trkpt>
      <trkpt lat="45.4222" lon="4.02435">
        <ele>929.73</ele>
        <time>2023-05-27T13:35:46Z</time>
      </trkpt>
      <trkpt lat="45.42208" lon="4.02411">
        <ele>929.25</ele>
        <time>2023-05-27T13:36:06Z</time>
      </trkpt>
      <trkpt lat="45.42207" lon="4.02406">
        <ele>929.25</ele>
        <time>2023-05-27T13:36:10Z</time>
      </trkpt>
      <trkpt lat="45.42204" lon="4.0237">
        <ele>928.29</ele>
        <time>2023-05-27T13:36:28Z</time>
      </trkpt>
      <trkpt lat="45.42196" lon="4.02338">
        <ele>925.89</ele>
        <time>2023-05-27T13:36:46Z</time>
      </trkpt>
      <trkpt lat="45.42188" lon="4.02306">
        <ele>924.93</ele>
        <time>2023-05-27T13:37:03Z</time>
      </trkpt>
      <trkpt lat="45.42184" lon="4.02287">
        <ele>926.37</ele>
        <time>2023-05-27T13:37:15Z</time>
      </trkpt>
      <trkpt lat="45.42184" lon="4.02285">
        <ele>926.37</ele>
        <time>2023-05-27T13:37:16Z</time>
      </trkpt>
      <trkpt lat="45.42172" lon="4.02245">
        <ele>924.45</ele>
        <time>2023-05-27T13:37:34Z</time>
      </trkpt>
      <trkpt lat="45.42161" lon="4.02218">
        <ele>922.52</ele>
        <time>2023-05-27T13:37:50Z</time>
      </trkpt>
      <trkpt lat="45.42142" lon="4.02195">
        <ele>916.75</ele>
        <time>2023-05-27T13:38:07Z</time>
      </trkpt>
      <trkpt lat="45.42138" lon="4.0215">
        <ele>918.2</ele>
        <time>2023-05-27T13:38:26Z</time>
      </trkpt>
      <trkpt lat="45.42146" lon="4.02118">
        <ele>920.6</ele>
        <time>2023-05-27T13:38:40Z</time>
      </trkpt>
      <trkpt lat="45.42158" lon="4.02081">
        <ele>923</ele>
        <time>2023-05-27T13:38:58Z</time>
      </trkpt>
      <trkpt lat="45.42175" lon="4.02055">
        <ele>923.96</ele>
        <time>2023-05-27T13:39:14Z</time>
      </trkpt>
      <trkpt lat="45.42196" lon="4.02029">
        <ele>925.89</ele>
        <time>2023-05-27T13:39:32Z</time>
      </trkpt>
      <trkpt lat="45.42206" lon="4.02015">
        <ele>927.33</ele>
        <time>2023-05-27T13:39:41Z</time>
      </trkpt>
      <trkpt lat="45.42207" lon="4.02013">
        <ele>927.33</ele>
        <time>2023-05-27T13:39:42Z</time>
      </trkpt>
      <trkpt lat="45.42208" lon="4.02011">
        <ele>927.33</ele>
        <time>2023-05-27T13:39:43Z</time>
      </trkpt>
      <trkpt lat="45.42209" lon="4.0201">
        <ele>927.33</ele>
        <time>2023-05-27T13:39:44Z</time>
      </trkpt>
      <trkpt lat="45.4221" lon="4.02009">
        <ele>927.33</ele>
        <time>2023-05-27T13:39:45Z</time>
      </trkpt>
      <trkpt lat="45.42211" lon="4.02008">
        <ele>927.33</ele>
        <time>2023-05-27T13:39:46Z</time>
      </trkpt>
      <trkpt lat="45.42231" lon="4.01981">
        <ele>929.73</ele>
        <time>2023-05-27T13:40:04Z</time>
      </trkpt>
      <trkpt lat="45.4225" lon="4.01954">
        <ele>932.14</ele>
        <time>2023-05-27T13:40:22Z</time>
      </trkpt>
      <trkpt lat="45.42271" lon="4.01922">
        <ele>932.62</ele>
        <time>2023-05-27T13:40:41Z</time>
      </trkpt>
      <trkpt lat="45.42287" lon="4.01893">
        <ele>932.62</ele>
        <time>2023-05-27T13:40:57Z</time>
      </trkpt>
      <trkpt lat="45.42304" lon="4.01869">
        <ele>933.58</ele>
        <time>2023-05-27T13:41:13Z</time>
      </trkpt>
      <trkpt lat="45.42319" lon="4.01845">
        <ele>935.98</ele>
        <time>2023-05-27T13:41:29Z</time>
      </trkpt>
      <trkpt lat="45.42334" lon="4.01824">
        <ele>941.27</ele>
        <time>2023-05-27T13:41:46Z</time>
      </trkpt>
      <trkpt lat="45.42352" lon="4.01804">
        <ele>944.63</ele>
        <time>2023-05-27T13:42:01Z</time>
      </trkpt>
      <trkpt lat="45.42375" lon="4.01782">
        <ele>946.56</ele>
        <time>2023-05-27T13:42:20Z</time>
      </trkpt>
      <trkpt lat="45.42399" lon="4.0176">
        <ele>948.48</ele>
        <time>2023-05-27T13:42:39Z</time>
      </trkpt>
      <trkpt lat="45.42422" lon="4.01737">
        <ele>951.36</ele>
        <time>2023-05-27T13:43:00Z</time>
      </trkpt>
      <trkpt lat="45.42449" lon="4.01712">
        <ele>954.25</ele>
        <time>2023-05-27T13:43:24Z</time>
      </trkpt>
      <trkpt lat="45.42471" lon="4.01687">
        <ele>954.73</ele>
        <time>2023-05-27T13:43:43Z</time>
      </trkpt>
      <trkpt lat="45.42493" lon="4.01657">
        <ele>953.28</ele>
        <time>2023-05-27T13:44:06Z</time>
      </trkpt>
      <trkpt lat="45.42521" lon="4.0163">
        <ele>953.28</ele>
        <time>2023-05-27T13:44:27Z</time>
      </trkpt>
      <trkpt lat="45.42546" lon="4.01604">
        <ele>954.25</ele>
        <time>2023-05-27T13:44:46Z</time>
      </trkpt>
      <trkpt lat="45.4257" lon="4.01575">
        <ele>953.77</ele>
        <time>2023-05-27T13:45:08Z</time>
      </trkpt>
      <trkpt lat="45.42583" lon="4.01554">
        <ele>952.8</ele>
        <time>2023-05-27T13:45:25Z</time>
      </trkpt>
      <trkpt lat="45.42597" lon="4.01531">
        <ele>949.92</ele>
        <time>2023-05-27T13:45:40Z</time>
      </trkpt>
      <trkpt lat="45.42614" lon="4.01506">
        <ele>946.56</ele>
        <time>2023-05-27T13:45:56Z</time>
      </trkpt>
      <trkpt lat="45.42635" lon="4.0148">
        <ele>941.75</ele>
        <time>2023-05-27T13:46:16Z</time>
      </trkpt>
      <trkpt lat="45.42659" lon="4.01458">
        <ele>937.9</ele>
        <time>2023-05-27T13:46:36Z</time>
      </trkpt>
      <trkpt lat="45.42684" lon="4.01431">
        <ele>939.83</ele>
        <time>2023-05-27T13:46:56Z</time>
      </trkpt>
      <trkpt lat="45.42706" lon="4.01398">
        <ele>946.07</ele>
        <time>2023-05-27T13:47:14Z</time>
      </trkpt>
      <trkpt lat="45.42728" lon="4.01353">
        <ele>950.88</ele>
        <time>2023-05-27T13:47:37Z</time>
      </trkpt>
      <trkpt lat="45.42738" lon="4.01331">
        <ele>951.84</ele>
        <time>2023-05-27T13:47:51Z</time>
      </trkpt>
      <trkpt lat="45.42739" lon="4.01331">
        <ele>951.84</ele>
        <time>2023-05-27T13:47:52Z</time>
      </trkpt>
      <trkpt lat="45.4274" lon="4.01331">
        <ele>951.84</ele>
        <time>2023-05-27T13:47:53Z</time>
      </trkpt>
      <trkpt lat="45.42778" lon="4.01346">
        <ele>952.32</ele>
        <time>2023-05-27T13:48:06Z</time>
      </trkpt>
      <trkpt lat="45.42825" lon="4.01379">
        <ele>952.32</ele>
        <time>2023-05-27T13:48:18Z</time>
      </trkpt>
      <trkpt lat="45.42861" lon="4.01411">
        <ele>951.36</ele>
        <time>2023-05-27T13:48:31Z</time>
      </trkpt>
      <trkpt lat="45.4292" lon="4.01443">
        <ele>951.36</ele>
        <time>2023-05-27T13:48:43Z</time>
      </trkpt>
      <trkpt lat="45.42986" lon="4.01473">
        <ele>952.32</ele>
        <time>2023-05-27T13:48:57Z</time>
      </trkpt>
      <trkpt lat="45.43048" lon="4.01499">
        <ele>956.17</ele>
        <time>2023-05-27T13:49:11Z</time>
      </trkpt>
      <trkpt lat="45.43099" lon="4.01526">
        <ele>959.05</ele>
        <time>2023-05-27T13:49:24Z</time>
      </trkpt>
      <trkpt lat="45.43166" lon="4.01573">
        <ele>960.98</ele>
        <time>2023-05-27T13:49:35Z</time>
      </trkpt>
      <trkpt lat="45.43187" lon="4.01576">
        <ele>963.86</ele>
        <time>2023-05-27T13:49:45Z</time>
      </trkpt>
      <trkpt lat="45.43176" lon="4.0159">
        <ele>960.98</ele>
        <time>2023-05-27T13:49:58Z</time>
      </trkpt>
      <trkpt lat="45.43178" lon="4.01581">
        <ele>956.65</ele>
        <time>2023-05-27T13:50:14Z</time>
      </trkpt>
      <trkpt lat="45.43208" lon="4.01581">
        <ele>949.92</ele>
        <time>2023-05-27T13:50:33Z</time>
      </trkpt>
      <trkpt lat="45.43231" lon="4.01598">
        <ele>955.21</ele>
        <time>2023-05-27T13:50:53Z</time>
      </trkpt>
      <trkpt lat="45.43242" lon="4.01604">
        <ele>957.13</ele>
        <time>2023-05-27T13:51:00Z</time>
      </trkpt>
      <trkpt lat="45.43243" lon="4.01605">
        <ele>958.09</ele>
        <time>2023-05-27T13:51:01Z</time>
      </trkpt>
      <trkpt lat="45.43245" lon="4.01605">
        <ele>958.09</ele>
        <time>2023-05-27T13:51:02Z</time>
      </trkpt>
      <trkpt lat="45.43247" lon="4.01606">
        <ele>958.57</ele>
        <time>2023-05-27T13:51:03Z</time>
      </trkpt>
      <trkpt lat="45.43248" lon="4.01606">
        <ele>959.05</ele>
        <time>2023-05-27T13:51:04Z</time>
      </trkpt>
      <trkpt lat="45.4325" lon="4.01607">
        <ele>959.05</ele>
        <time>2023-05-27T13:51:05Z</time>
      </trkpt>
      <trkpt lat="45.43271" lon="4.01616">
        <ele>962.42</ele>
        <time>2023-05-27T13:51:21Z</time>
      </trkpt>
      <trkpt lat="45.43301" lon="4.01632">
        <ele>962.9</ele>
        <time>2023-05-27T13:51:41Z</time>
      </trkpt>
      <trkpt lat="45.43328" lon="4.01659">
        <ele>963.86</ele>
        <time>2023-05-27T13:52:00Z</time>
      </trkpt>
      <trkpt lat="45.43353" lon="4.01685">
        <ele>963.86</ele>
        <time>2023-05-27T13:52:20Z</time>
      </trkpt>
      <trkpt lat="45.43369" lon="4.01707">
        <ele>962.42</ele>
        <time>2023-05-27T13:52:37Z</time>
      </trkpt>
      <trkpt lat="45.43403" lon="4.01726">
        <ele>968.67</ele>
        <time>2023-05-27T13:52:59Z</time>
      </trkpt>
      <trkpt lat="45.43434" lon="4.01743">
        <ele>975.39</ele>
        <time>2023-05-27T13:53:21Z</time>
      </trkpt>
      <trkpt lat="45.43459" lon="4.01762">
        <ele>980.2</ele>
        <time>2023-05-27T13:53:40Z</time>
      </trkpt>
      <trkpt lat="45.43486" lon="4.01788">
        <ele>983.09</ele>
        <time>2023-05-27T13:54:02Z</time>
      </trkpt>
      <trkpt lat="45.43505" lon="4.01803">
        <ele>983.09</ele>
        <time>2023-05-27T13:54:13Z</time>
      </trkpt>
      <trkpt lat="45.43529" lon="4.01815">
        <ele>985.01</ele>
        <time>2023-05-27T13:54:29Z</time>
      </trkpt>
      <trkpt lat="45.43553" lon="4.01834">
        <ele>987.41</ele>
        <time>2023-05-27T13:54:44Z</time>
      </trkpt>
      <trkpt lat="45.43575" lon="4.01857">
        <ele>985.97</ele>
        <time>2023-05-27T13:55:02Z</time>
      </trkpt>
      <trkpt lat="45.43602" lon="4.01875">
        <ele>986.93</ele>
        <time>2023-05-27T13:55:23Z</time>
      </trkpt>
      <trkpt lat="45.43628" lon="4.01897">
        <ele>990.3</ele>
        <time>2023-05-27T13:55:42Z</time>
      </trkpt>
      <trkpt lat="45.43649" lon="4.01907">
        <ele>993.18</ele>
        <time>2023-05-27T13:56:00Z</time>
      </trkpt>
      <trkpt lat="45.43679" lon="4.01912">
        <ele>996.54</ele>
        <time>2023-05-27T13:56:21Z</time>
      </trkpt>
      <trkpt lat="45.4371" lon="4.01925">
        <ele>997.51</ele>
        <time>2023-05-27T13:56:41Z</time>
      </trkpt>
      <trkpt lat="45.43738" lon="4.01944">
        <ele>997.51</ele>
        <time>2023-05-27T13:56:59Z</time>
      </trkpt>
      <trkpt lat="45.4374" lon="4.01945">
        <ele>997.99</ele>
        <time>2023-05-27T13:57:00Z</time>
      </trkpt>
      <trkpt lat="45.43757" lon="4.01934">
        <ele>999.43</ele>
        <time>2023-05-27T13:57:15Z</time>
      </trkpt>
      <trkpt lat="45.43754" lon="4.01924">
        <ele>998.47</ele>
        <time>2023-05-27T13:57:23Z</time>
      </trkpt>
      <trkpt lat="45.43754" lon="4.01923">
        <ele>998.47</ele>
        <time>2023-05-27T13:57:24Z</time>
      </trkpt>
      <trkpt lat="45.43754" lon="4.01921">
        <ele>998.95</ele>
        <time>2023-05-27T13:57:25Z</time>
      </trkpt>
      <trkpt lat="45.4376" lon="4.01887">
        <ele>993.66</ele>
        <time>2023-05-27T13:57:42Z</time>
      </trkpt>
      <trkpt lat="45.43768" lon="4.01865">
        <ele>991.26</ele>
        <time>2023-05-27T13:57:55Z</time>
      </trkpt>
      <trkpt lat="45.43768" lon="4.01864">
        <ele>991.26</ele>
        <time>2023-05-27T13:57:56Z</time>
      </trkpt>
      <trkpt lat="45.43781" lon="4.01826">
        <ele>987.89</ele>
        <time>2023-05-27T13:58:14Z</time>
      </trkpt>
      <trkpt lat="45.43792" lon="4.01797">
        <ele>980.68</ele>
        <time>2023-05-27T13:58:32Z</time>
      </trkpt>
      <trkpt lat="45.43793" lon="4.0179">
        <ele>980.68</ele>
        <time>2023-05-27T13:58:34Z</time>
      </trkpt>
      <trkpt lat="45.43794" lon="4.01786">
        <ele>981.16</ele>
        <time>2023-05-27T13:58:35Z</time>
      </trkpt>
      <trkpt lat="45.43795" lon="4.01783">
        <ele>981.16</ele>
        <time>2023-05-27T13:58:36Z</time>
      </trkpt>
      <trkpt lat="45.43803" lon="4.01751">
        <ele>978.76</ele>
        <time>2023-05-27T13:58:49Z</time>
      </trkpt>
      <trkpt lat="45.43806" lon="4.01744">
        <ele>977.8</ele>
        <time>2023-05-27T13:58:53Z</time>
      </trkpt>
      <trkpt lat="45.43811" lon="4.01714">
        <ele>977.32</ele>
        <time>2023-05-27T13:59:07Z</time>
      </trkpt>
      <trkpt lat="45.43812" lon="4.01708">
        <ele>977.32</ele>
        <time>2023-05-27T13:59:09Z</time>
      </trkpt>
      <trkpt lat="45.43813" lon="4.01706">
        <ele>976.84</ele>
        <time>2023-05-27T13:59:10Z</time>
      </trkpt>
      <trkpt lat="45.43813" lon="4.01704">
        <ele>976.36</ele>
        <time>2023-05-27T13:59:11Z</time>
      </trkpt>
      <trkpt lat="45.43813" lon="4.01701">
        <ele>975.88</ele>
        <time>2023-05-27T13:59:12Z</time>
      </trkpt>
      <trkpt lat="45.43814" lon="4.01699">
        <ele>975.88</ele>
        <time>2023-05-27T13:59:13Z</time>
      </trkpt>
      <trkpt lat="45.43814" lon="4.01697">
        <ele>975.39</ele>
        <time>2023-05-27T13:59:14Z</time>
      </trkpt>
      <trkpt lat="45.4382" lon="4.01672">
        <ele>972.99</ele>
        <time>2023-05-27T13:59:27Z</time>
      </trkpt>
      <trkpt lat="45.43825" lon="4.01638">
        <ele>971.55</ele>
        <time>2023-05-27T13:59:42Z</time>
      </trkpt>
      <trkpt lat="45.43824" lon="4.01621">
        <ele>970.59</ele>
        <time>2023-05-27T13:59:52Z</time>
      </trkpt>
      <trkpt lat="45.43824" lon="4.01618">
        <ele>970.59</ele>
        <time>2023-05-27T13:59:53Z</time>
      </trkpt>
      <trkpt lat="45.43827" lon="4.01609">
        <ele>969.15</ele>
        <time>2023-05-27T13:59:59Z</time>
      </trkpt>
      <trkpt lat="45.43839" lon="4.01584">
        <ele>964.82</ele>
        <time>2023-05-27T14:00:15Z</time>
      </trkpt>
      <trkpt lat="45.43852" lon="4.01559">
        <ele>960.49</ele>
        <time>2023-05-27T14:00:32Z</time>
      </trkpt>
      <trkpt lat="45.43857" lon="4.01547">
        <ele>959.05</ele>
        <time>2023-05-27T14:00:39Z</time>
      </trkpt>
      <trkpt lat="45.43869" lon="4.01518">
        <ele>959.53</ele>
        <time>2023-05-27T14:00:55Z</time>
      </trkpt>
      <trkpt lat="45.43884" lon="4.01488">
        <ele>953.28</ele>
        <time>2023-05-27T14:01:12Z</time>
      </trkpt>
      <trkpt lat="45.43889" lon="4.01452">
        <ele>948.96</ele>
        <time>2023-05-27T14:01:28Z</time>
      </trkpt>
      <trkpt lat="45.43895" lon="4.01436">
        <ele>949.44</ele>
        <time>2023-05-27T14:01:35Z</time>
      </trkpt>
      <trkpt lat="45.4391" lon="4.01403">
        <ele>950.4</ele>
        <time>2023-05-27T14:01:51Z</time>
      </trkpt>
      <trkpt lat="45.43931" lon="4.01374">
        <ele>948.48</ele>
        <time>2023-05-27T14:02:10Z</time>
      </trkpt>
      <trkpt lat="45.43942" lon="4.01347">
        <ele>945.59</ele>
        <time>2023-05-27T14:02:25Z</time>
      </trkpt>
      <trkpt lat="45.4395" lon="4.01323">
        <ele>941.75</ele>
        <time>2023-05-27T14:02:40Z</time>
      </trkpt>
      <trkpt lat="45.43953" lon="4.01313">
        <ele>940.31</ele>
        <time>2023-05-27T14:02:45Z</time>
      </trkpt>
      <trkpt lat="45.43955" lon="4.01311">
        <ele>940.31</ele>
        <time>2023-05-27T14:02:46Z</time>
      </trkpt>
      <trkpt lat="45.43956" lon="4.01308">
        <ele>940.31</ele>
        <time>2023-05-27T14:02:47Z</time>
      </trkpt>
      <trkpt lat="45.43972" lon="4.0128">
        <ele>938.86</ele>
        <time>2023-05-27T14:03:01Z</time>
      </trkpt>
      <trkpt lat="45.43986" lon="4.0126">
        <ele>934.54</ele>
        <time>2023-05-27T14:03:17Z</time>
      </trkpt>
      <trkpt lat="45.43989" lon="4.01253">
        <ele>939.35</ele>
        <time>2023-05-27T14:03:23Z</time>
      </trkpt>
      <trkpt lat="45.43988" lon="4.01253">
        <ele>939.83</ele>
        <time>2023-05-27T14:03:24Z</time>
      </trkpt>
      <trkpt lat="45.43989" lon="4.01252">
        <ele>941.27</ele>
        <time>2023-05-27T14:03:25Z</time>
      </trkpt>
      <trkpt lat="45.43989" lon="4.01252">
        <ele>941.75</ele>
        <time>2023-05-27T14:03:26Z</time>
      </trkpt>
      <trkpt lat="45.43988" lon="4.01251">
        <ele>941.75</ele>
        <time>2023-05-27T14:03:27Z</time>
      </trkpt>
      <trkpt lat="45.43992" lon="4.01226">
        <ele>945.11</ele>
        <time>2023-05-27T14:03:43Z</time>
      </trkpt>
      <trkpt lat="45.44007" lon="4.01177">
        <ele>946.07</ele>
        <time>2023-05-27T14:04:03Z</time>
      </trkpt>
      <trkpt lat="45.44028" lon="4.01142">
        <ele>946.56</ele>
        <time>2023-05-27T14:04:21Z</time>
      </trkpt>
      <trkpt lat="45.4403" lon="4.01101">
        <ele>947.52</ele>
        <time>2023-05-27T14:04:41Z</time>
      </trkpt>
      <trkpt lat="45.44023" lon="4.01062">
        <ele>948.48</ele>
        <time>2023-05-27T14:04:58Z</time>
      </trkpt>
      <trkpt lat="45.44014" lon="4.01027">
        <ele>948.48</ele>
        <time>2023-05-27T14:05:16Z</time>
      </trkpt>
      <trkpt lat="45.44013" lon="4.0099">
        <ele>951.84</ele>
        <time>2023-05-27T14:05:34Z</time>
      </trkpt>
      <trkpt lat="45.44003" lon="4.00962">
        <ele>957.13</ele>
        <time>2023-05-27T14:05:52Z</time>
      </trkpt>
      <trkpt lat="45.44008" lon="4.00927">
        <ele>958.57</ele>
        <time>2023-05-27T14:06:10Z</time>
      </trkpt>
      <trkpt lat="45.44019" lon="4.00896">
        <ele>958.57</ele>
        <time>2023-05-27T14:06:26Z</time>
      </trkpt>
      <trkpt lat="45.44035" lon="4.00852">
        <ele>959.05</ele>
        <time>2023-05-27T14:06:47Z</time>
      </trkpt>
      <trkpt lat="45.44042" lon="4.00813">
        <ele>960.01</ele>
        <time>2023-05-27T14:07:06Z</time>
      </trkpt>
      <trkpt lat="45.44042" lon="4.00774">
        <ele>962.42</ele>
        <time>2023-05-27T14:07:23Z</time>
      </trkpt>
      <trkpt lat="45.44055" lon="4.00744">
        <ele>966.26</ele>
        <time>2023-05-27T14:07:39Z</time>
      </trkpt>
      <trkpt lat="45.44064" lon="4.00722">
        <ele>968.18</ele>
        <time>2023-05-27T14:07:51Z</time>
      </trkpt>
      <trkpt lat="45.44064" lon="4.0072">
        <ele>968.18</ele>
        <time>2023-05-27T14:07:52Z</time>
      </trkpt>
      <trkpt lat="45.44064" lon="4.00719">
        <ele>968.18</ele>
        <time>2023-05-27T14:07:53Z</time>
      </trkpt>
      <trkpt lat="45.44065" lon="4.00674">
        <ele>966.74</ele>
        <time>2023-05-27T14:08:15Z</time>
      </trkpt>
      <trkpt lat="45.44072" lon="4.00623">
        <ele>964.82</ele>
        <time>2023-05-27T14:08:38Z</time>
      </trkpt>
      <trkpt lat="45.44074" lon="4.00571">
        <ele>963.86</ele>
        <time>2023-05-27T14:09:01Z</time>
      </trkpt>
      <trkpt lat="45.44072" lon="4.00514">
        <ele>964.34</ele>
        <time>2023-05-27T14:09:27Z</time>
      </trkpt>
      <trkpt lat="45.44072" lon="4.00482">
        <ele>965.3</ele>
        <time>2023-05-27T14:09:43Z</time>
      </trkpt>
      <trkpt lat="45.44073" lon="4.0048">
        <ele>965.78</ele>
        <time>2023-05-27T14:09:44Z</time>
      </trkpt>
      <trkpt lat="45.44077" lon="4.00476">
        <ele>966.26</ele>
        <time>2023-05-27T14:09:49Z</time>
      </trkpt>
      <trkpt lat="45.4408" lon="4.00474">
        <ele>967.7</ele>
        <time>2023-05-27T14:10:02Z</time>
      </trkpt>
      <trkpt lat="45.44077" lon="4.00473">
        <ele>968.18</ele>
        <time>2023-05-27T14:10:17Z</time>
      </trkpt>
      <trkpt lat="45.44073" lon="4.00474">
        <ele>967.7</ele>
        <time>2023-05-27T14:10:31Z</time>
      </trkpt>
      <trkpt lat="45.4407" lon="4.00474">
        <ele>967.7</ele>
        <time>2023-05-27T14:10:43Z</time>
      </trkpt>
      <trkpt lat="45.44051" lon="4.00467">
        <ele>964.34</ele>
        <time>2023-05-27T14:10:59Z</time>
      </trkpt>
      <trkpt lat="45.44045" lon="4.00441">
        <ele>960.98</ele>
        <time>2023-05-27T14:11:15Z</time>
      </trkpt>
      <trkpt lat="45.44046" lon="4.00405">
        <ele>956.17</ele>
        <time>2023-05-27T14:11:33Z</time>
      </trkpt>
      <trkpt lat="45.44049" lon="4.00377">
        <ele>954.73</ele>
        <time>2023-05-27T14:11:47Z</time>
      </trkpt>
      <trkpt lat="45.44055" lon="4.00341">
        <ele>953.77</ele>
        <time>2023-05-27T14:12:06Z</time>
      </trkpt>
      <trkpt lat="45.44062" lon="4.00314">
        <ele>950.4</ele>
        <time>2023-05-27T14:12:23Z</time>
      </trkpt>
      <trkpt lat="45.44076" lon="4.00292">
        <ele>951.36</ele>
        <time>2023-05-27T14:12:39Z</time>
      </trkpt>
      <trkpt lat="45.44102" lon="4.00276">
        <ele>950.4</ele>
        <time>2023-05-27T14:12:57Z</time>
      </trkpt>
      <trkpt lat="45.44128" lon="4.0026">
        <ele>948.96</ele>
        <time>2023-05-27T14:13:14Z</time>
      </trkpt>
      <trkpt lat="45.44159" lon="4.0026">
        <ele>948.96</ele>
        <time>2023-05-27T14:13:33Z</time>
      </trkpt>
      <trkpt lat="45.44188" lon="4.00253">
        <ele>950.4</ele>
        <time>2023-05-27T14:13:51Z</time>
      </trkpt>
      <trkpt lat="45.44215" lon="4.00251">
        <ele>951.84</ele>
        <time>2023-05-27T14:14:08Z</time>
      </trkpt>
      <trkpt lat="45.4423" lon="4.00246">
        <ele>951.84</ele>
        <time>2023-05-27T14:14:19Z</time>
      </trkpt>
      <trkpt lat="45.44232" lon="4.00245">
        <ele>952.32</ele>
        <time>2023-05-27T14:14:20Z</time>
      </trkpt>
      <trkpt lat="45.44233" lon="4.00244">
        <ele>952.32</ele>
        <time>2023-05-27T14:14:21Z</time>
      </trkpt>
      <trkpt lat="45.44241" lon="4.00216">
        <ele>955.21</ele>
        <time>2023-05-27T14:14:36Z</time>
      </trkpt>
      <trkpt lat="45.44262" lon="4.00191">
        <ele>953.28</ele>
        <time>2023-05-27T14:14:53Z</time>
      </trkpt>
      <trkpt lat="45.4427" lon="4.00185">
        <ele>953.77</ele>
        <time>2023-05-27T14:14:55Z</time>
      </trkpt>
      <trkpt lat="45.44334" lon="4.00148">
        <ele>954.25</ele>
        <time>2023-05-27T14:15:08Z</time>
      </trkpt>
      <trkpt lat="45.44363" lon="4.00128">
        <ele>954.25</ele>
        <time>2023-05-27T14:15:14Z</time>
      </trkpt>
      <trkpt lat="45.44387" lon="4.00114">
        <ele>955.21</ele>
        <time>2023-05-27T14:15:19Z</time>
      </trkpt>
      <trkpt lat="45.44466" lon="4.00074">
        <ele>955.69</ele>
        <time>2023-05-27T14:15:34Z</time>
      </trkpt>
      <trkpt lat="45.44528" lon="4.00031">
        <ele>954.25</ele>
        <time>2023-05-27T14:15:48Z</time>
      </trkpt>
      <trkpt lat="45.44554" lon="4.00022">
        <ele>951.84</ele>
        <time>2023-05-27T14:15:59Z</time>
      </trkpt>
      <trkpt lat="45.44639" lon="4.00007">
        <ele>950.88</ele>
        <time>2023-05-27T14:16:12Z</time>
      </trkpt>
      <trkpt lat="45.44644" lon="4.00008">
        <ele>950.4</ele>
        <time>2023-05-27T14:16:13Z</time>
      </trkpt>
      <trkpt lat="45.44662" lon="4.00007">
        <ele>950.4</ele>
        <time>2023-05-27T14:16:17Z</time>
      </trkpt>
      <trkpt lat="45.44668" lon="4.00005">
        <ele>950.88</ele>
        <time>2023-05-27T14:16:18Z</time>
      </trkpt>
      <trkpt lat="45.44715" lon="4.00002">
        <ele>953.28</ele>
        <time>2023-05-27T14:16:25Z</time>
      </trkpt>
      <trkpt lat="45.44752" lon="4.00008">
        <ele>959.05</ele>
        <time>2023-05-27T14:16:33Z</time>
      </trkpt>
      <trkpt lat="45.44754" lon="4.00009">
        <ele>959.05</ele>
        <time>2023-05-27T14:16:34Z</time>
      </trkpt>
      <trkpt lat="45.44772" lon="4.00009">
        <ele>960.01</ele>
        <time>2023-05-27T14:16:49Z</time>
      </trkpt>
      <trkpt lat="45.4478" lon="4.00011">
        <ele>959.53</ele>
        <time>2023-05-27T14:17:04Z</time>
      </trkpt>
      <trkpt lat="45.44785" lon="4.0002">
        <ele>959.53</ele>
        <time>2023-05-27T14:17:27Z</time>
      </trkpt>
      <trkpt lat="45.44786" lon="4.00023">
        <ele>959.53</ele>
        <time>2023-05-27T14:17:54Z</time>
      </trkpt>
      <trkpt lat="45.44788" lon="4.00013">
        <ele>955.21</ele>
        <time>2023-05-27T14:18:14Z</time>
      </trkpt>
      <trkpt lat="45.44787" lon="4.00006">
        <ele>953.28</ele>
        <time>2023-05-27T14:18:44Z</time>
      </trkpt>
      <trkpt lat="45.44788" lon="4.00008">
        <ele>952.32</ele>
        <time>2023-05-27T14:19:10Z</time>
      </trkpt>
      <trkpt lat="45.44796" lon="4">
        <ele>954.73</ele>
        <time>2023-05-27T14:19:33Z</time>
      </trkpt>
      <trkpt lat="45.44811" lon="3.99994">
        <ele>956.17</ele>
        <time>2023-05-27T14:19:49Z</time>
      </trkpt>
      <trkpt lat="45.44828" lon="3.99978">
        <ele>957.13</ele>
        <time>2023-05-27T14:20:08Z</time>
      </trkpt>
      <trkpt lat="45.44849" lon="3.99943">
        <ele>958.09</ele>
        <time>2023-05-27T14:20:27Z</time>
      </trkpt>
      <trkpt lat="45.4487" lon="3.99909">
        <ele>956.65</ele>
        <time>2023-05-27T14:20:47Z</time>
      </trkpt>
      <trkpt lat="45.44885" lon="3.99885">
        <ele>953.77</ele>
        <time>2023-05-27T14:21:01Z</time>
      </trkpt>
      <trkpt lat="45.44909" lon="3.9987">
        <ele>952.8</ele>
        <time>2023-05-27T14:21:15Z</time>
      </trkpt>
      <trkpt lat="45.44932" lon="3.99854">
        <ele>956.17</ele>
        <time>2023-05-27T14:21:31Z</time>
      </trkpt>
      <trkpt lat="45.44942" lon="3.9985">
        <ele>957.61</ele>
        <time>2023-05-27T14:21:38Z</time>
      </trkpt>
      <trkpt lat="45.44943" lon="3.9985">
        <ele>958.09</ele>
        <time>2023-05-27T14:21:39Z</time>
      </trkpt>
      <trkpt lat="45.44945" lon="3.9985">
        <ele>958.57</ele>
        <time>2023-05-27T14:21:40Z</time>
      </trkpt>
      <trkpt lat="45.44966" lon="3.99834">
        <ele>962.9</ele>
        <time>2023-05-27T14:21:57Z</time>
      </trkpt>
      <trkpt lat="45.44969" lon="3.99831">
        <ele>963.86</ele>
        <time>2023-05-27T14:22:00Z</time>
      </trkpt>
      <trkpt lat="45.44971" lon="3.99831">
        <ele>964.34</ele>
        <time>2023-05-27T14:22:01Z</time>
      </trkpt>
      <trkpt lat="45.44974" lon="3.99832">
        <ele>964.82</ele>
        <time>2023-05-27T14:22:02Z</time>
      </trkpt>
      <trkpt lat="45.44992" lon="3.99823">
        <ele>971.07</ele>
        <time>2023-05-27T14:22:15Z</time>
      </trkpt>
      <trkpt lat="45.44993" lon="3.99822">
        <ele>971.55</ele>
        <time>2023-05-27T14:22:16Z</time>
      </trkpt>
      <trkpt lat="45.44995" lon="3.99821">
        <ele>971.55</ele>
        <time>2023-05-27T14:22:17Z</time>
      </trkpt>
      <trkpt lat="45.45022" lon="3.99821">
        <ele>976.84</ele>
        <time>2023-05-27T14:22:34Z</time>
      </trkpt>
      <trkpt lat="45.45045" lon="3.99804">
        <ele>981.64</ele>
        <time>2023-05-27T14:22:51Z</time>
      </trkpt>
      <trkpt lat="45.45067" lon="3.99788">
        <ele>987.41</ele>
        <time>2023-05-27T14:23:08Z</time>
      </trkpt>
      <trkpt lat="45.4509" lon="3.99777">
        <ele>988.85</ele>
        <time>2023-05-27T14:23:25Z</time>
      </trkpt>
      <trkpt lat="45.45113" lon="3.99765">
        <ele>989.81</ele>
        <time>2023-05-27T14:23:42Z</time>
      </trkpt>
      <trkpt lat="45.45139" lon="3.99753">
        <ele>992.22</ele>
        <time>2023-05-27T14:24:01Z</time>
      </trkpt>
      <trkpt lat="45.45164" lon="3.99743">
        <ele>994.14</ele>
        <time>2023-05-27T14:24:17Z</time>
      </trkpt>
      <trkpt lat="45.45188" lon="3.99729">
        <ele>997.99</ele>
        <time>2023-05-27T14:24:34Z</time>
      </trkpt>
      <trkpt lat="45.45213" lon="3.99713">
        <ele>1001.35</ele>
        <time>2023-05-27T14:24:51Z</time>
      </trkpt>
      <trkpt lat="45.4524" lon="3.99696">
        <ele>1007.12</ele>
        <time>2023-05-27T14:25:10Z</time>
      </trkpt>
      <trkpt lat="45.45259" lon="3.99685">
        <ele>1011.44</ele>
        <time>2023-05-27T14:25:28Z</time>
      </trkpt>
      <trkpt lat="45.45261" lon="3.99685">
        <ele>1011.93</ele>
        <time>2023-05-27T14:25:30Z</time>
      </trkpt>
      <trkpt lat="45.45262" lon="3.99685">
        <ele>1011.93</ele>
        <time>2023-05-27T14:25:31Z</time>
      </trkpt>
      <trkpt lat="45.45264" lon="3.99685">
        <ele>1011.93</ele>
        <time>2023-05-27T14:25:32Z</time>
      </trkpt>
      <trkpt lat="45.45265" lon="3.99684">
        <ele>1011.93</ele>
        <time>2023-05-27T14:25:33Z</time>
      </trkpt>
      <trkpt lat="45.45266" lon="3.99684">
        <ele>1012.41</ele>
        <time>2023-05-27T14:25:34Z</time>
      </trkpt>
      <trkpt lat="45.45284" lon="3.99682">
        <ele>1016.73</ele>
        <time>2023-05-27T14:25:50Z</time>
      </trkpt>
      <trkpt lat="45.45305" lon="3.99681">
        <ele>1022.02</ele>
        <time>2023-05-27T14:26:06Z</time>
      </trkpt>
      <trkpt lat="45.45325" lon="3.99682">
        <ele>1024.9</ele>
        <time>2023-05-27T14:26:21Z</time>
      </trkpt>
      <trkpt lat="45.45346" lon="3.99689">
        <ele>1028.75</ele>
        <time>2023-05-27T14:26:38Z</time>
      </trkpt>
      <trkpt lat="45.45358" lon="3.99689">
        <ele>1030.19</ele>
        <time>2023-05-27T14:26:47Z</time>
      </trkpt>
      <trkpt lat="45.4536" lon="3.99689">
        <ele>1030.19</ele>
        <time>2023-05-27T14:26:48Z</time>
      </trkpt>
      <trkpt lat="45.45361" lon="3.99689">
        <ele>1030.19</ele>
        <time>2023-05-27T14:26:49Z</time>
      </trkpt>
      <trkpt lat="45.45386" lon="3.99695">
        <ele>1032.59</ele>
        <time>2023-05-27T14:27:06Z</time>
      </trkpt>
      <trkpt lat="45.45412" lon="3.99708">
        <ele>1035.96</ele>
        <time>2023-05-27T14:27:26Z</time>
      </trkpt>
      <trkpt lat="45.45422" lon="3.99714">
        <ele>1036.92</ele>
        <time>2023-05-27T14:27:35Z</time>
      </trkpt>
      <trkpt lat="45.45423" lon="3.99713">
        <ele>1036.92</ele>
        <time>2023-05-27T14:27:36Z</time>
      </trkpt>
      <trkpt lat="45.45425" lon="3.99713">
        <ele>1036.92</ele>
        <time>2023-05-27T14:27:37Z</time>
      </trkpt>
      <trkpt lat="45.45452" lon="3.997">
        <ele>1039.32</ele>
        <time>2023-05-27T14:27:56Z</time>
      </trkpt>
      <trkpt lat="45.45476" lon="3.99689">
        <ele>1042.69</ele>
        <time>2023-05-27T14:28:14Z</time>
      </trkpt>
      <trkpt lat="45.45504" lon="3.99691">
        <ele>1046.53</ele>
        <time>2023-05-27T14:28:30Z</time>
      </trkpt>
      <trkpt lat="45.45512" lon="3.99692">
        <ele>1049.9</ele>
        <time>2023-05-27T14:28:46Z</time>
      </trkpt>
      <trkpt lat="45.45514" lon="3.9969">
        <ele>1050.38</ele>
        <time>2023-05-27T14:28:48Z</time>
      </trkpt>
      <trkpt lat="45.45533" lon="3.99683">
        <ele>1054.7</ele>
        <time>2023-05-27T14:29:02Z</time>
      </trkpt>
      <trkpt lat="45.45544" lon="3.99679">
        <ele>1057.59</ele>
        <time>2023-05-27T14:29:11Z</time>
      </trkpt>
      <trkpt lat="45.45564" lon="3.99664">
        <ele>1062.87</ele>
        <time>2023-05-27T14:29:26Z</time>
      </trkpt>
      <trkpt lat="45.45583" lon="3.99639">
        <ele>1067.2</ele>
        <time>2023-05-27T14:29:44Z</time>
      </trkpt>
      <trkpt lat="45.45612" lon="3.99636">
        <ele>1070.08</ele>
        <time>2023-05-27T14:29:58Z</time>
      </trkpt>
      <trkpt lat="45.45635" lon="3.99659">
        <ele>1072.97</ele>
        <time>2023-05-27T14:30:12Z</time>
      </trkpt>
      <trkpt lat="45.45649" lon="3.99667">
        <ele>1075.37</ele>
        <time>2023-05-27T14:30:25Z</time>
      </trkpt>
      <trkpt lat="45.4565" lon="3.99666">
        <ele>1075.85</ele>
        <time>2023-05-27T14:30:26Z</time>
      </trkpt>
      <trkpt lat="45.4565" lon="3.99664">
        <ele>1075.85</ele>
        <time>2023-05-27T14:30:27Z</time>
      </trkpt>
      <trkpt lat="45.4565" lon="3.99663">
        <ele>1076.33</ele>
        <time>2023-05-27T14:30:28Z</time>
      </trkpt>
      <trkpt lat="45.4565" lon="3.99661">
        <ele>1076.81</ele>
        <time>2023-05-27T14:30:29Z</time>
      </trkpt>
      <trkpt lat="45.45649" lon="3.99646">
        <ele>1080.66</ele>
        <time>2023-05-27T14:30:40Z</time>
      </trkpt>
      <trkpt lat="45.4565" lon="3.99643">
        <ele>1081.14</ele>
        <time>2023-05-27T14:30:41Z</time>
      </trkpt>
      <trkpt lat="45.45651" lon="3.9964">
        <ele>1081.14</ele>
        <time>2023-05-27T14:30:42Z</time>
      </trkpt>
      <trkpt lat="45.45652" lon="3.99637">
        <ele>1081.14</ele>
        <time>2023-05-27T14:30:43Z</time>
      </trkpt>
      <trkpt lat="45.45653" lon="3.99635">
        <ele>1081.62</ele>
        <time>2023-05-27T14:30:44Z</time>
      </trkpt>
      <trkpt lat="45.45664" lon="3.99609">
        <ele>1084.02</ele>
        <time>2023-05-27T14:30:57Z</time>
      </trkpt>
      <trkpt lat="45.45673" lon="3.99567">
        <ele>1090.27</ele>
        <time>2023-05-27T14:31:19Z</time>
      </trkpt>
      <trkpt lat="45.45677" lon="3.99533">
        <ele>1096.04</ele>
        <time>2023-05-27T14:31:37Z</time>
      </trkpt>
      <trkpt lat="45.45677" lon="3.99521">
        <ele>1097</ele>
        <time>2023-05-27T14:31:44Z</time>
      </trkpt>
      <trkpt lat="45.45687" lon="3.99491">
        <ele>1098.92</ele>
        <time>2023-05-27T14:32:01Z</time>
      </trkpt>
      <trkpt lat="45.45696" lon="3.99459">
        <ele>1101.33</ele>
        <time>2023-05-27T14:32:18Z</time>
      </trkpt>
      <trkpt lat="45.45712" lon="3.99434">
        <ele>1103.73</ele>
        <time>2023-05-27T14:32:35Z</time>
      </trkpt>
      <trkpt lat="45.45736" lon="3.9941">
        <ele>1110.94</ele>
        <time>2023-05-27T14:32:53Z</time>
      </trkpt>
      <trkpt lat="45.45748" lon="3.99422">
        <ele>1117.67</ele>
        <time>2023-05-27T14:33:06Z</time>
      </trkpt>
      <trkpt lat="45.45754" lon="3.99441">
        <ele>1120.07</ele>
        <time>2023-05-27T14:33:13Z</time>
      </trkpt>
      <trkpt lat="45.45755" lon="3.99444">
        <ele>1120.55</ele>
        <time>2023-05-27T14:33:14Z</time>
      </trkpt>
      <trkpt lat="45.45758" lon="3.99455">
        <ele>1121.52</ele>
        <time>2023-05-27T14:33:19Z</time>
      </trkpt>
      <trkpt lat="45.45772" lon="3.99481">
        <ele>1122.48</ele>
        <time>2023-05-27T14:33:34Z</time>
      </trkpt>
      <trkpt lat="45.45783" lon="3.99507">
        <ele>1125.84</ele>
        <time>2023-05-27T14:33:48Z</time>
      </trkpt>
      <trkpt lat="45.45798" lon="3.99527">
        <ele>1129.69</ele>
        <time>2023-05-27T14:34:03Z</time>
      </trkpt>
      <trkpt lat="45.45809" lon="3.99553">
        <ele>1132.09</ele>
        <time>2023-05-27T14:34:17Z</time>
      </trkpt>
      <trkpt lat="45.45827" lon="3.99577">
        <ele>1132.57</ele>
        <time>2023-05-27T14:34:32Z</time>
      </trkpt>
      <trkpt lat="45.45833" lon="3.99579">
        <ele>1134.49</ele>
        <time>2023-05-27T14:34:47Z</time>
      </trkpt>
      <trkpt lat="45.45832" lon="3.9958">
        <ele>1136.9</ele>
        <time>2023-05-27T14:35:14Z</time>
      </trkpt>
      <trkpt lat="45.45837" lon="3.99583">
        <ele>1137.86</ele>
        <time>2023-05-27T14:35:25Z</time>
      </trkpt>
      <trkpt lat="45.45839" lon="3.99584">
        <ele>1138.34</ele>
        <time>2023-05-27T14:35:26Z</time>
      </trkpt>
      <trkpt lat="45.45841" lon="3.99585">
        <ele>1138.82</ele>
        <time>2023-05-27T14:35:27Z</time>
      </trkpt>
      <trkpt lat="45.45843" lon="3.99586">
        <ele>1139.3</ele>
        <time>2023-05-27T14:35:28Z</time>
      </trkpt>
      <trkpt lat="45.45844" lon="3.99588">
        <ele>1139.3</ele>
        <time>2023-05-27T14:35:29Z</time>
      </trkpt>
      <trkpt lat="45.45846" lon="3.99589">
        <ele>1139.3</ele>
        <time>2023-05-27T14:35:30Z</time>
      </trkpt>
      <trkpt lat="45.45869" lon="3.99588">
        <ele>1141.22</ele>
        <time>2023-05-27T14:35:46Z</time>
      </trkpt>
      <trkpt lat="45.45891" lon="3.99576">
        <ele>1146.51</ele>
        <time>2023-05-27T14:36:06Z</time>
      </trkpt>
      <trkpt lat="45.45893" lon="3.99572">
        <ele>1146.51</ele>
        <time>2023-05-27T14:36:09Z</time>
      </trkpt>
      <trkpt lat="45.45893" lon="3.9957">
        <ele>1146.51</ele>
        <time>2023-05-27T14:36:10Z</time>
      </trkpt>
      <trkpt lat="45.45892" lon="3.99568">
        <ele>1146.51</ele>
        <time>2023-05-27T14:36:11Z</time>
      </trkpt>
      <trkpt lat="45.45892" lon="3.99567">
        <ele>1146.51</ele>
        <time>2023-05-27T14:36:12Z</time>
      </trkpt>
      <trkpt lat="45.45891" lon="3.99565">
        <ele>1146.51</ele>
        <time>2023-05-27T14:36:13Z</time>
      </trkpt>
      <trkpt lat="45.4589" lon="3.99564">
        <ele>1146.51</ele>
        <time>2023-05-27T14:36:14Z</time>
      </trkpt>
      <trkpt lat="45.45889" lon="3.99563">
        <ele>1146.99</ele>
        <time>2023-05-27T14:36:15Z</time>
      </trkpt>
      <trkpt lat="45.45888" lon="3.99563">
        <ele>1146.99</ele>
        <time>2023-05-27T14:36:16Z</time>
      </trkpt>
      <trkpt lat="45.45866" lon="3.99559">
        <ele>1148.91</ele>
        <time>2023-05-27T14:36:32Z</time>
      </trkpt>
      <trkpt lat="45.45863" lon="3.99563">
        <ele>1152.28</ele>
        <time>2023-05-27T14:36:51Z</time>
      </trkpt>
      <trkpt lat="45.45865" lon="3.9956">
        <ele>1154.2</ele>
        <time>2023-05-27T14:37:13Z</time>
      </trkpt>
      <trkpt lat="45.45865" lon="3.99558">
        <ele>1152.76</ele>
        <time>2023-05-27T14:37:33Z</time>
      </trkpt>
      <trkpt lat="45.45873" lon="3.99561">
        <ele>1151.8</ele>
        <time>2023-05-27T14:37:47Z</time>
      </trkpt>
      <trkpt lat="45.45887" lon="3.99566">
        <ele>1149.87</ele>
        <time>2023-05-27T14:37:58Z</time>
      </trkpt>
      <trkpt lat="45.45891" lon="3.99568">
        <ele>1149.39</ele>
        <time>2023-05-27T14:38:02Z</time>
      </trkpt>
      <trkpt lat="45.45892" lon="3.99569">
        <ele>1149.39</ele>
        <time>2023-05-27T14:38:03Z</time>
      </trkpt>
      <trkpt lat="45.45893" lon="3.99574">
        <ele>1148.43</ele>
        <time>2023-05-27T14:38:08Z</time>
      </trkpt>
      <trkpt lat="45.45889" lon="3.99576">
        <ele>1148.43</ele>
        <time>2023-05-27T14:38:13Z</time>
      </trkpt>
      <trkpt lat="45.45888" lon="3.99575">
        <ele>1147.95</ele>
        <time>2023-05-27T14:38:14Z</time>
      </trkpt>
      <trkpt lat="45.45886" lon="3.99574">
        <ele>1147.95</ele>
        <time>2023-05-27T14:38:27Z</time>
      </trkpt>
      <trkpt lat="45.45888" lon="3.9957">
        <ele>1147.95</ele>
        <time>2023-05-27T14:38:52Z</time>
      </trkpt>
      <trkpt lat="45.45891" lon="3.99571">
        <ele>1148.91</ele>
        <time>2023-05-27T14:39:18Z</time>
      </trkpt>
      <trkpt lat="45.45886" lon="3.99572">
        <ele>1146.51</ele>
        <time>2023-05-27T14:39:43Z</time>
      </trkpt>
      <trkpt lat="45.45886" lon="3.99574">
        <ele>1144.59</ele>
        <time>2023-05-27T14:40:06Z</time>
      </trkpt>
      <trkpt lat="45.45887" lon="3.99574">
        <ele>1144.59</ele>
        <time>2023-05-27T14:40:11Z</time>
      </trkpt>
      <trkpt lat="45.45887" lon="3.99574">
        <ele>1144.11</ele>
        <time>2023-05-27T14:40:12Z</time>
      </trkpt>
      <trkpt lat="45.45892" lon="3.9957">
        <ele>1145.07</ele>
        <time>2023-05-27T14:40:19Z</time>
      </trkpt>
      <trkpt lat="45.45891" lon="3.99569">
        <ele>1145.07</ele>
        <time>2023-05-27T14:40:20Z</time>
      </trkpt>
      <trkpt lat="45.45886" lon="3.99567">
        <ele>1146.03</ele>
        <time>2023-05-27T14:40:27Z</time>
      </trkpt>
      <trkpt lat="45.45875" lon="3.99563">
        <ele>1146.99</ele>
        <time>2023-05-27T14:40:40Z</time>
      </trkpt>
      <trkpt lat="45.45866" lon="3.9956">
        <ele>1150.84</ele>
        <time>2023-05-27T14:40:55Z</time>
      </trkpt>
      <trkpt lat="45.45863" lon="3.99559">
        <ele>1154.2</ele>
        <time>2023-05-27T14:41:16Z</time>
      </trkpt>
      <trkpt lat="45.45864" lon="3.9956">
        <ele>1154.68</ele>
        <time>2023-05-27T14:41:39Z</time>
      </trkpt>
      <trkpt lat="45.45863" lon="3.99561">
        <ele>1153.72</ele>
        <time>2023-05-27T14:42:13Z</time>
      </trkpt>
      <trkpt lat="45.45863" lon="3.99559">
        <ele>1153.72</ele>
        <time>2023-05-27T14:42:35Z</time>
      </trkpt>
      <trkpt lat="45.45862" lon="3.99558">
        <ele>1154.2</ele>
        <time>2023-05-27T14:43:04Z</time>
      </trkpt>
      <trkpt lat="45.45865" lon="3.99559">
        <ele>1157.56</ele>
        <time>2023-05-27T14:43:18Z</time>
      </trkpt>
      <trkpt lat="45.45865" lon="3.99564">
        <ele>1160.45</ele>
        <time>2023-05-27T14:43:42Z</time>
      </trkpt>
      <trkpt lat="45.45863" lon="3.9956">
        <ele>1154.68</ele>
        <time>2023-05-27T14:44:03Z</time>
      </trkpt>
      <trkpt lat="45.45863" lon="3.99564">
        <ele>1155.16</ele>
        <time>2023-05-27T14:44:22Z</time>
      </trkpt>
      <trkpt lat="45.45865" lon="3.99563">
        <ele>1154.2</ele>
        <time>2023-05-27T14:44:50Z</time>
      </trkpt>
      <trkpt lat="45.45864" lon="3.99563">
        <ele>1153.72</ele>
        <time>2023-05-27T14:45:16Z</time>
      </trkpt>
      <trkpt lat="45.45863" lon="3.99563">
        <ele>1156.12</ele>
        <time>2023-05-27T14:45:40Z</time>
      </trkpt>
      <trkpt lat="45.45861" lon="3.99563">
        <ele>1157.08</ele>
        <time>2023-05-27T14:45:44Z</time>
      </trkpt>
      <trkpt lat="45.45848" lon="3.99564">
        <ele>1154.2</ele>
        <time>2023-05-27T14:45:58Z</time>
      </trkpt>
      <trkpt lat="45.45843" lon="3.99556">
        <ele>1153.24</ele>
        <time>2023-05-27T14:46:04Z</time>
      </trkpt>
      <trkpt lat="45.45842" lon="3.99555">
        <ele>1153.24</ele>
        <time>2023-05-27T14:46:05Z</time>
      </trkpt>
      <trkpt lat="45.45843" lon="3.9955">
        <ele>1152.76</ele>
        <time>2023-05-27T14:46:10Z</time>
      </trkpt>
      <trkpt lat="45.45843" lon="3.99549">
        <ele>1152.76</ele>
        <time>2023-05-27T14:46:11Z</time>
      </trkpt>
      <trkpt lat="45.45843" lon="3.99546">
        <ele>1151.8</ele>
        <time>2023-05-27T14:46:25Z</time>
      </trkpt>
      <trkpt lat="45.45842" lon="3.99537">
        <ele>1153.24</ele>
        <time>2023-05-27T14:46:41Z</time>
      </trkpt>
      <trkpt lat="45.4584" lon="3.9953">
        <ele>1153.24</ele>
        <time>2023-05-27T14:47:02Z</time>
      </trkpt>
      <trkpt lat="45.45836" lon="3.99507">
        <ele>1151.8</ele>
        <time>2023-05-27T14:47:18Z</time>
      </trkpt>
      <trkpt lat="45.45833" lon="3.99504">
        <ele>1151.32</ele>
        <time>2023-05-27T14:47:23Z</time>
      </trkpt>
      <trkpt lat="45.45833" lon="3.99502">
        <ele>1151.32</ele>
        <time>2023-05-27T14:47:24Z</time>
      </trkpt>
      <trkpt lat="45.45832" lon="3.99501">
        <ele>1151.32</ele>
        <time>2023-05-27T14:47:25Z</time>
      </trkpt>
      <trkpt lat="45.45832" lon="3.99499">
        <ele>1151.32</ele>
        <time>2023-05-27T14:47:26Z</time>
      </trkpt>
      <trkpt lat="45.45831" lon="3.99494">
        <ele>1150.84</ele>
        <time>2023-05-27T14:47:30Z</time>
      </trkpt>
      <trkpt lat="45.45831" lon="3.99492">
        <ele>1150.35</ele>
        <time>2023-05-27T14:47:31Z</time>
      </trkpt>
      <trkpt lat="45.45841" lon="3.99467">
        <ele>1148.91</ele>
        <time>2023-05-27T14:47:44Z</time>
      </trkpt>
      <trkpt lat="45.45857" lon="3.99447">
        <ele>1150.35</ele>
        <time>2023-05-27T14:48:01Z</time>
      </trkpt>
      <trkpt lat="45.45875" lon="3.99442">
        <ele>1148.91</ele>
        <time>2023-05-27T14:48:17Z</time>
      </trkpt>
      <trkpt lat="45.45891" lon="3.99447">
        <ele>1148.91</ele>
        <time>2023-05-27T14:48:32Z</time>
      </trkpt>
      <trkpt lat="45.45915" lon="3.99465">
        <ele>1148.43</ele>
        <time>2023-05-27T14:48:50Z</time>
      </trkpt>
      <trkpt lat="45.45933" lon="3.99481">
        <ele>1142.18</ele>
        <time>2023-05-27T14:49:04Z</time>
      </trkpt>
      <trkpt lat="45.45934" lon="3.99483">
        <ele>1142.18</ele>
        <time>2023-05-27T14:49:05Z</time>
      </trkpt>
      <trkpt lat="45.45935" lon="3.99485">
        <ele>1142.18</ele>
        <time>2023-05-27T14:49:06Z</time>
      </trkpt>
      <trkpt lat="45.4595" lon="3.99519">
        <ele>1140.74</ele>
        <time>2023-05-27T14:49:24Z</time>
      </trkpt>
      <trkpt lat="45.45955" lon="3.99523">
        <ele>1139.78</ele>
        <time>2023-05-27T14:49:32Z</time>
      </trkpt>
      <trkpt lat="45.45957" lon="3.99522">
        <ele>1139.78</ele>
        <time>2023-05-27T14:49:34Z</time>
      </trkpt>
      <trkpt lat="45.45972" lon="3.99517">
        <ele>1136.9</ele>
        <time>2023-05-27T14:49:51Z</time>
      </trkpt>
      <trkpt lat="45.45983" lon="3.99513">
        <ele>1132.57</ele>
        <time>2023-05-27T14:50:04Z</time>
      </trkpt>
      <trkpt lat="45.45985" lon="3.99508">
        <ele>1130.17</ele>
        <time>2023-05-27T14:50:10Z</time>
      </trkpt>
      <trkpt lat="45.45991" lon="3.99507">
        <ele>1128.24</ele>
        <time>2023-05-27T14:50:17Z</time>
      </trkpt>
      <trkpt lat="45.45992" lon="3.99508">
        <ele>1127.76</ele>
        <time>2023-05-27T14:50:18Z</time>
      </trkpt>
      <trkpt lat="45.45997" lon="3.99511">
        <ele>1126.32</ele>
        <time>2023-05-27T14:50:23Z</time>
      </trkpt>
      <trkpt lat="45.4601" lon="3.99499">
        <ele>1123.44</ele>
        <time>2023-05-27T14:50:38Z</time>
      </trkpt>
      <trkpt lat="45.4601" lon="3.99498">
        <ele>1122.96</ele>
        <time>2023-05-27T14:51:03Z</time>
      </trkpt>
      <trkpt lat="45.46015" lon="3.99494">
        <ele>1123.92</ele>
        <time>2023-05-27T14:51:20Z</time>
      </trkpt>
      <trkpt lat="45.46025" lon="3.99472">
        <ele>1120.07</ele>
        <time>2023-05-27T14:51:38Z</time>
      </trkpt>
      <trkpt lat="45.46032" lon="3.99454">
        <ele>1118.15</ele>
        <time>2023-05-27T14:51:51Z</time>
      </trkpt>
      <trkpt lat="45.46033" lon="3.99452">
        <ele>1118.15</ele>
        <time>2023-05-27T14:51:52Z</time>
      </trkpt>
      <trkpt lat="45.46037" lon="3.99444">
        <ele>1117.67</ele>
        <time>2023-05-27T14:51:57Z</time>
      </trkpt>
      <trkpt lat="45.46046" lon="3.99428">
        <ele>1114.31</ele>
        <time>2023-05-27T14:52:11Z</time>
      </trkpt>
      <trkpt lat="45.46048" lon="3.99423">
        <ele>1112.38</ele>
        <time>2023-05-27T14:52:15Z</time>
      </trkpt>
      <trkpt lat="45.4605" lon="3.99421">
        <ele>1111.42</ele>
        <time>2023-05-27T14:52:17Z</time>
      </trkpt>
      <trkpt lat="45.46052" lon="3.99414">
        <ele>1109.02</ele>
        <time>2023-05-27T14:52:23Z</time>
      </trkpt>
      <trkpt lat="45.46053" lon="3.99413">
        <ele>1108.54</ele>
        <time>2023-05-27T14:52:24Z</time>
      </trkpt>
      <trkpt lat="45.46056" lon="3.99401">
        <ele>1105.65</ele>
        <time>2023-05-27T14:52:33Z</time>
      </trkpt>
      <trkpt lat="45.46059" lon="3.9939">
        <ele>1105.17</ele>
        <time>2023-05-27T14:52:41Z</time>
      </trkpt>
      <trkpt lat="45.4607" lon="3.99366">
        <ele>1101.33</ele>
        <time>2023-05-27T14:52:58Z</time>
      </trkpt>
      <trkpt lat="45.46078" lon="3.99347">
        <ele>1097.48</ele>
        <time>2023-05-27T14:53:13Z</time>
      </trkpt>
      <trkpt lat="45.46085" lon="3.9933">
        <ele>1096.04</ele>
        <time>2023-05-27T14:53:26Z</time>
      </trkpt>
      <trkpt lat="45.46091" lon="3.99317">
        <ele>1092.68</ele>
        <time>2023-05-27T14:53:34Z</time>
      </trkpt>
      <trkpt lat="45.46092" lon="3.99315">
        <ele>1092.2</ele>
        <time>2023-05-27T14:53:35Z</time>
      </trkpt>
      <trkpt lat="45.46096" lon="3.99305">
        <ele>1090.27</ele>
        <time>2023-05-27T14:53:41Z</time>
      </trkpt>
      <trkpt lat="45.46103" lon="3.9928">
        <ele>1085.47</ele>
        <time>2023-05-27T14:53:57Z</time>
      </trkpt>
      <trkpt lat="45.46104" lon="3.99279">
        <ele>1084.99</ele>
        <time>2023-05-27T14:53:58Z</time>
      </trkpt>
      <trkpt lat="45.4611" lon="3.99263">
        <ele>1081.62</ele>
        <time>2023-05-27T14:54:12Z</time>
      </trkpt>
      <trkpt lat="45.46115" lon="3.9924">
        <ele>1081.62</ele>
        <time>2023-05-27T14:54:27Z</time>
      </trkpt>
      <trkpt lat="45.46115" lon="3.99237">
        <ele>1081.62</ele>
        <time>2023-05-27T14:54:29Z</time>
      </trkpt>
      <trkpt lat="45.46115" lon="3.99236">
        <ele>1081.62</ele>
        <time>2023-05-27T14:54:30Z</time>
      </trkpt>
      <trkpt lat="45.46122" lon="3.99203">
        <ele>1077.29</ele>
        <time>2023-05-27T14:54:48Z</time>
      </trkpt>
      <trkpt lat="45.46136" lon="3.99167">
        <ele>1074.41</ele>
        <time>2023-05-27T14:55:06Z</time>
      </trkpt>
      <trkpt lat="45.46155" lon="3.99137">
        <ele>1071.53</ele>
        <time>2023-05-27T14:55:26Z</time>
      </trkpt>
      <trkpt lat="45.46174" lon="3.99107">
        <ele>1070.08</ele>
        <time>2023-05-27T14:55:46Z</time>
      </trkpt>
      <trkpt lat="45.46178" lon="3.99099">
        <ele>1069.6</ele>
        <time>2023-05-27T14:55:53Z</time>
      </trkpt>
      <trkpt lat="45.46183" lon="3.99087">
        <ele>1069.12</ele>
        <time>2023-05-27T14:56:11Z</time>
      </trkpt>
      <trkpt lat="45.46182" lon="3.99089">
        <ele>1068.16</ele>
        <time>2023-05-27T14:56:30Z</time>
      </trkpt>
      <trkpt lat="45.4618" lon="3.99089">
        <ele>1068.64</ele>
        <time>2023-05-27T14:56:43Z</time>
      </trkpt>
      <trkpt lat="45.4618" lon="3.99089">
        <ele>1069.12</ele>
        <time>2023-05-27T14:57:07Z</time>
      </trkpt>
      <trkpt lat="45.46183" lon="3.99087">
        <ele>1067.68</ele>
        <time>2023-05-27T14:57:19Z</time>
      </trkpt>
      <trkpt lat="45.46184" lon="3.99084">
        <ele>1068.16</ele>
        <time>2023-05-27T14:57:45Z</time>
      </trkpt>
      <trkpt lat="45.46183" lon="3.99083">
        <ele>1068.64</ele>
        <time>2023-05-27T14:58:07Z</time>
      </trkpt>
      <trkpt lat="45.46185" lon="3.99083">
        <ele>1068.16</ele>
        <time>2023-05-27T14:58:26Z</time>
      </trkpt>
      <trkpt lat="45.46183" lon="3.99081">
        <ele>1068.16</ele>
        <time>2023-05-27T14:58:39Z</time>
      </trkpt>
      <trkpt lat="45.46185" lon="3.99081">
        <ele>1068.64</ele>
        <time>2023-05-27T14:58:51Z</time>
      </trkpt>
      <trkpt lat="45.46186" lon="3.99079">
        <ele>1068.64</ele>
        <time>2023-05-27T14:58:55Z</time>
      </trkpt>
      <trkpt lat="45.4619" lon="3.99076">
        <ele>1069.12</ele>
        <time>2023-05-27T14:59:00Z</time>
      </trkpt>
      <trkpt lat="45.46201" lon="3.99066">
        <ele>1070.57</ele>
        <time>2023-05-27T14:59:11Z</time>
      </trkpt>
      <trkpt lat="45.46202" lon="3.99065">
        <ele>1070.57</ele>
        <time>2023-05-27T14:59:12Z</time>
      </trkpt>
      <trkpt lat="45.46203" lon="3.99065">
        <ele>1071.05</ele>
        <time>2023-05-27T14:59:13Z</time>
      </trkpt>
      <trkpt lat="45.46214" lon="3.99052">
        <ele>1072.01</ele>
        <time>2023-05-27T14:59:26Z</time>
      </trkpt>
      <trkpt lat="45.46215" lon="3.9905">
        <ele>1072.49</ele>
        <time>2023-05-27T14:59:27Z</time>
      </trkpt>
      <trkpt lat="45.46216" lon="3.99049">
        <ele>1072.49</ele>
        <time>2023-05-27T14:59:28Z</time>
      </trkpt>
      <trkpt lat="45.46217" lon="3.99048">
        <ele>1072.49</ele>
        <time>2023-05-27T14:59:29Z</time>
      </trkpt>
      <trkpt lat="45.4622" lon="3.99048">
        <ele>1073.93</ele>
        <time>2023-05-27T14:59:44Z</time>
      </trkpt>
      <trkpt lat="45.46221" lon="3.99048">
        <ele>1072.01</ele>
        <time>2023-05-27T15:00:04Z</time>
      </trkpt>
      <trkpt lat="45.46223" lon="3.9905">
        <ele>1070.08</ele>
        <time>2023-05-27T15:00:27Z</time>
      </trkpt>
      <trkpt lat="45.46222" lon="3.99046">
        <ele>1069.12</ele>
        <time>2023-05-27T15:00:52Z</time>
      </trkpt>
      <trkpt lat="45.46221" lon="3.99047">
        <ele>1068.64</ele>
        <time>2023-05-27T15:01:21Z</time>
      </trkpt>
      <trkpt lat="45.46221" lon="3.99045">
        <ele>1070.08</ele>
        <time>2023-05-27T15:01:50Z</time>
      </trkpt>
      <trkpt lat="45.46222" lon="3.99046">
        <ele>1069.6</ele>
        <time>2023-05-27T15:02:19Z</time>
      </trkpt>
      <trkpt lat="45.46223" lon="3.99048">
        <ele>1069.6</ele>
        <time>2023-05-27T15:02:49Z</time>
      </trkpt>
      <trkpt lat="45.46221" lon="3.99048">
        <ele>1070.08</ele>
        <time>2023-05-27T15:03:11Z</time>
      </trkpt>
      <trkpt lat="45.46222" lon="3.99046">
        <ele>1070.57</ele>
        <time>2023-05-27T15:03:35Z</time>
      </trkpt>
      <trkpt lat="45.46221" lon="3.99045">
        <ele>1070.08</ele>
        <time>2023-05-27T15:03:51Z</time>
      </trkpt>
      <trkpt lat="45.4622" lon="3.99044">
        <ele>1070.08</ele>
        <time>2023-05-27T15:03:52Z</time>
      </trkpt>
      <trkpt lat="45.4622" lon="3.99042">
        <ele>1070.08</ele>
        <time>2023-05-27T15:03:53Z</time>
      </trkpt>
      <trkpt lat="45.46222" lon="3.9904">
        <ele>1069.6</ele>
        <time>2023-05-27T15:03:55Z</time>
      </trkpt>
      <trkpt lat="45.46222" lon="3.99039">
        <ele>1070.08</ele>
        <time>2023-05-27T15:03:56Z</time>
      </trkpt>
      <trkpt lat="45.46233" lon="3.99012">
        <ele>1070.08</ele>
        <time>2023-05-27T15:04:14Z</time>
      </trkpt>
      <trkpt lat="45.46243" lon="3.98981">
        <ele>1073.93</ele>
        <time>2023-05-27T15:04:32Z</time>
      </trkpt>
      <trkpt lat="45.46253" lon="3.98953">
        <ele>1072.01</ele>
        <time>2023-05-27T15:04:49Z</time>
      </trkpt>
      <trkpt lat="45.46262" lon="3.98928">
        <ele>1069.6</ele>
        <time>2023-05-27T15:05:05Z</time>
      </trkpt>
      <trkpt lat="45.46264" lon="3.9892">
        <ele>1067.68</ele>
        <time>2023-05-27T15:05:21Z</time>
      </trkpt>
      <trkpt lat="45.46262" lon="3.98918">
        <ele>1069.12</ele>
        <time>2023-05-27T15:05:36Z</time>
      </trkpt>
      <trkpt lat="45.46263" lon="3.98919">
        <ele>1069.12</ele>
        <time>2023-05-27T15:05:47Z</time>
      </trkpt>
      <trkpt lat="45.46262" lon="3.98918">
        <ele>1068.64</ele>
        <time>2023-05-27T15:06:00Z</time>
      </trkpt>
      <trkpt lat="45.46264" lon="3.98917">
        <ele>1069.6</ele>
        <time>2023-05-27T15:06:12Z</time>
      </trkpt>
      <trkpt lat="45.46263" lon="3.98917">
        <ele>1069.6</ele>
        <time>2023-05-27T15:06:30Z</time>
      </trkpt>
      <trkpt lat="45.46261" lon="3.98919">
        <ele>1069.12</ele>
        <time>2023-05-27T15:06:50Z</time>
      </trkpt>
      <trkpt lat="45.46262" lon="3.98917">
        <ele>1070.08</ele>
        <time>2023-05-27T15:07:00Z</time>
      </trkpt>
      <trkpt lat="45.46262" lon="3.98914">
        <ele>1070.08</ele>
        <time>2023-05-27T15:07:11Z</time>
      </trkpt>
      <trkpt lat="45.46273" lon="3.98908">
        <ele>1071.05</ele>
        <time>2023-05-27T15:07:23Z</time>
      </trkpt>
      <trkpt lat="45.4628" lon="3.98905">
        <ele>1072.01</ele>
        <time>2023-05-27T15:07:33Z</time>
      </trkpt>
      <trkpt lat="45.46281" lon="3.98903">
        <ele>1072.01</ele>
        <time>2023-05-27T15:07:34Z</time>
      </trkpt>
      <trkpt lat="45.46281" lon="3.98902">
        <ele>1072.01</ele>
        <time>2023-05-27T15:07:35Z</time>
      </trkpt>
      <trkpt lat="45.46282" lon="3.98901">
        <ele>1072.01</ele>
        <time>2023-05-27T15:07:36Z</time>
      </trkpt>
      <trkpt lat="45.46283" lon="3.989">
        <ele>1072.49</ele>
        <time>2023-05-27T15:07:37Z</time>
      </trkpt>
      <trkpt lat="45.46289" lon="3.98881">
        <ele>1072.01</ele>
        <time>2023-05-27T15:07:52Z</time>
      </trkpt>
      <trkpt lat="45.4629" lon="3.98878">
        <ele>1072.49</ele>
        <time>2023-05-27T15:07:54Z</time>
      </trkpt>
      <trkpt lat="45.46292" lon="3.98869">
        <ele>1072.97</ele>
        <time>2023-05-27T15:08:04Z</time>
      </trkpt>
      <trkpt lat="45.46297" lon="3.98846">
        <ele>1071.53</ele>
        <time>2023-05-27T15:08:19Z</time>
      </trkpt>
      <trkpt lat="45.46295" lon="3.98835">
        <ele>1071.05</ele>
        <time>2023-05-27T15:08:29Z</time>
      </trkpt>
      <trkpt lat="45.46293" lon="3.98835">
        <ele>1070.57</ele>
        <time>2023-05-27T15:08:30Z</time>
      </trkpt>
      <trkpt lat="45.4629" lon="3.98838">
        <ele>1070.08</ele>
        <time>2023-05-27T15:08:41Z</time>
      </trkpt>
      <trkpt lat="45.46286" lon="3.98835">
        <ele>1071.53</ele>
        <time>2023-05-27T15:08:55Z</time>
      </trkpt>
      <trkpt lat="45.4628" lon="3.9883">
        <ele>1073.45</ele>
        <time>2023-05-27T15:09:09Z</time>
      </trkpt>
      <trkpt lat="45.46269" lon="3.98829">
        <ele>1071.05</ele>
        <time>2023-05-27T15:09:22Z</time>
      </trkpt>
      <trkpt lat="45.46265" lon="3.98839">
        <ele>1069.12</ele>
        <time>2023-05-27T15:09:33Z</time>
      </trkpt>
      <trkpt lat="45.46263" lon="3.9885">
        <ele>1069.12</ele>
        <time>2023-05-27T15:09:48Z</time>
      </trkpt>
      <trkpt lat="45.46263" lon="3.98851">
        <ele>1068.16</ele>
        <time>2023-05-27T15:10:01Z</time>
      </trkpt>
      <trkpt lat="45.46262" lon="3.98848">
        <ele>1067.2</ele>
        <time>2023-05-27T15:10:19Z</time>
      </trkpt>
      <trkpt lat="45.46263" lon="3.98846">
        <ele>1068.16</ele>
        <time>2023-05-27T15:10:37Z</time>
      </trkpt>
      <trkpt lat="45.46262" lon="3.98846">
        <ele>1067.2</ele>
        <time>2023-05-27T15:10:54Z</time>
      </trkpt>
      <trkpt lat="45.46262" lon="3.98846">
        <ele>1065.76</ele>
        <time>2023-05-27T15:11:12Z</time>
      </trkpt>
      <trkpt lat="45.46263" lon="3.98846">
        <ele>1065.76</ele>
        <time>2023-05-27T15:11:27Z</time>
      </trkpt>
      <trkpt lat="45.46264" lon="3.98846">
        <ele>1065.76</ele>
        <time>2023-05-27T15:11:47Z</time>
      </trkpt>
      <trkpt lat="45.46263" lon="3.98848">
        <ele>1068.64</ele>
        <time>2023-05-27T15:12:07Z</time>
      </trkpt>
      <trkpt lat="45.46263" lon="3.98849">
        <ele>1069.6</ele>
        <time>2023-05-27T15:12:28Z</time>
      </trkpt>
      <trkpt lat="45.46262" lon="3.98849">
        <ele>1065.76</ele>
        <time>2023-05-27T15:12:53Z</time>
      </trkpt>
      <trkpt lat="45.4626" lon="3.98851">
        <ele>1065.76</ele>
        <time>2023-05-27T15:13:06Z</time>
      </trkpt>
      <trkpt lat="45.46263" lon="3.98847">
        <ele>1066.72</ele>
        <time>2023-05-27T15:13:26Z</time>
      </trkpt>
      <trkpt lat="45.46263" lon="3.98848">
        <ele>1067.68</ele>
        <time>2023-05-27T15:13:46Z</time>
      </trkpt>
      <trkpt lat="45.46263" lon="3.98849">
        <ele>1067.68</ele>
        <time>2023-05-27T15:14:00Z</time>
      </trkpt>
      <trkpt lat="45.46262" lon="3.98853">
        <ele>1065.76</ele>
        <time>2023-05-27T15:14:14Z</time>
      </trkpt>
      <trkpt lat="45.46262" lon="3.98851">
        <ele>1066.24</ele>
        <time>2023-05-27T15:14:30Z</time>
      </trkpt>
      <trkpt lat="45.46263" lon="3.98848">
        <ele>1067.2</ele>
        <time>2023-05-27T15:14:43Z</time>
      </trkpt>
      <trkpt lat="45.46263" lon="3.98851">
        <ele>1065.76</ele>
        <time>2023-05-27T15:14:56Z</time>
      </trkpt>
      <trkpt lat="45.46262" lon="3.98853">
        <ele>1066.72</ele>
        <time>2023-05-27T15:15:15Z</time>
      </trkpt>
      <trkpt lat="45.46262" lon="3.98848">
        <ele>1066.72</ele>
        <time>2023-05-27T15:15:29Z</time>
      </trkpt>
      <trkpt lat="45.46265" lon="3.98837">
        <ele>1065.76</ele>
        <time>2023-05-27T15:15:42Z</time>
      </trkpt>
      <trkpt lat="45.46266" lon="3.98832">
        <ele>1065.28</ele>
        <time>2023-05-27T15:15:46Z</time>
      </trkpt>
      <trkpt lat="45.46267" lon="3.98831">
        <ele>1065.28</ele>
        <time>2023-05-27T15:15:47Z</time>
      </trkpt>
      <trkpt lat="45.4627" lon="3.98829">
        <ele>1065.76</ele>
        <time>2023-05-27T15:15:51Z</time>
      </trkpt>
      <trkpt lat="45.46271" lon="3.98829">
        <ele>1065.76</ele>
        <time>2023-05-27T15:15:52Z</time>
      </trkpt>
      <trkpt lat="45.46272" lon="3.98829">
        <ele>1065.76</ele>
        <time>2023-05-27T15:15:53Z</time>
      </trkpt>
      <trkpt lat="45.46273" lon="3.9883">
        <ele>1065.76</ele>
        <time>2023-05-27T15:15:54Z</time>
      </trkpt>
      <trkpt lat="45.46281" lon="3.98835">
        <ele>1069.6</ele>
        <time>2023-05-27T15:16:07Z</time>
      </trkpt>
      <trkpt lat="45.46279" lon="3.9884">
        <ele>1072.49</ele>
        <time>2023-05-27T15:16:23Z</time>
      </trkpt>
      <trkpt lat="45.46279" lon="3.98841">
        <ele>1072.49</ele>
        <time>2023-05-27T15:16:24Z</time>
      </trkpt>
      <trkpt lat="45.46279" lon="3.98842">
        <ele>1072.97</ele>
        <time>2023-05-27T15:16:25Z</time>
      </trkpt>
      <trkpt lat="45.46279" lon="3.98844">
        <ele>1072.97</ele>
        <time>2023-05-27T15:16:26Z</time>
      </trkpt>
      <trkpt lat="45.46278" lon="3.98845">
        <ele>1072.97</ele>
        <time>2023-05-27T15:16:27Z</time>
      </trkpt>
      <trkpt lat="45.46278" lon="3.98847">
        <ele>1075.85</ele>
        <time>2023-05-27T15:16:42Z</time>
      </trkpt>
      <trkpt lat="45.46278" lon="3.9885">
        <ele>1077.78</ele>
        <time>2023-05-27T15:17:02Z</time>
      </trkpt>
      <trkpt lat="45.46276" lon="3.98853">
        <ele>1073.93</ele>
        <time>2023-05-27T15:17:26Z</time>
      </trkpt>
      <trkpt lat="45.46278" lon="3.98857">
        <ele>1074.41</ele>
        <time>2023-05-27T15:17:42Z</time>
      </trkpt>
      <trkpt lat="45.46277" lon="3.98853">
        <ele>1074.89</ele>
        <time>2023-05-27T15:18:05Z</time>
      </trkpt>
      <trkpt lat="45.46279" lon="3.98859">
        <ele>1071.05</ele>
        <time>2023-05-27T15:18:38Z</time>
      </trkpt>
      <trkpt lat="45.46278" lon="3.98853">
        <ele>1070.57</ele>
        <time>2023-05-27T15:19:03Z</time>
      </trkpt>
      <trkpt lat="45.46278" lon="3.98853">
        <ele>1074.41</ele>
        <time>2023-05-27T15:19:26Z</time>
      </trkpt>
      <trkpt lat="45.46277" lon="3.98848">
        <ele>1074.89</ele>
        <time>2023-05-27T15:19:38Z</time>
      </trkpt>
      <trkpt lat="45.46277" lon="3.98846">
        <ele>1073.93</ele>
        <time>2023-05-27T15:19:39Z</time>
      </trkpt>
      <trkpt lat="45.46277" lon="3.9883">
        <ele>1074.41</ele>
        <time>2023-05-27T15:19:55Z</time>
      </trkpt>
      <trkpt lat="45.46274" lon="3.98827">
        <ele>1074.41</ele>
        <time>2023-05-27T15:19:58Z</time>
      </trkpt>
      <trkpt lat="45.46273" lon="3.98825">
        <ele>1074.41</ele>
        <time>2023-05-27T15:19:59Z</time>
      </trkpt>
      <trkpt lat="45.46269" lon="3.98825">
        <ele>1073.45</ele>
        <time>2023-05-27T15:20:02Z</time>
      </trkpt>
      <trkpt lat="45.46266" lon="3.98838">
        <ele>1069.12</ele>
        <time>2023-05-27T15:20:14Z</time>
      </trkpt>
      <trkpt lat="45.46266" lon="3.9884">
        <ele>1069.6</ele>
        <time>2023-05-27T15:20:24Z</time>
      </trkpt>
      <trkpt lat="45.46266" lon="3.98838">
        <ele>1068.64</ele>
        <time>2023-05-27T15:20:48Z</time>
      </trkpt>
      <trkpt lat="45.46266" lon="3.98839">
        <ele>1066.24</ele>
        <time>2023-05-27T15:20:59Z</time>
      </trkpt>
      <trkpt lat="45.46265" lon="3.98839">
        <ele>1065.76</ele>
        <time>2023-05-27T15:21:21Z</time>
      </trkpt>
      <trkpt lat="45.46265" lon="3.98842">
        <ele>1066.72</ele>
        <time>2023-05-27T15:21:31Z</time>
      </trkpt>
      <trkpt lat="45.46265" lon="3.98843">
        <ele>1067.68</ele>
        <time>2023-05-27T15:21:44Z</time>
      </trkpt>
    </trkseg>
  </trk>
</gpx>